<?xml version="1.0" encoding="utf-8"?>
<gpx xmlns:xsi="http://www.w3.org/2001/XMLSchema-instance" xmlns:xsd="http://www.w3.org/2001/XMLSchema" version="1.1" creator="Shapelink.com" xmlns="http://www.topografix.com/GPX/1/1" xmlns:gpxtpx="http://www.garmin.com/xmlschemas/TrackPointExtension/v1">
  <metadata>
    <name>Løping 20.00 km, 2014-06-30</name>
    <desc></desc>
    <author><name>Dennis Rehn</name></author> 
    <time>2014-06-30T16:26:59Z</time>
  </metadata>
  <trk>
    <name>Løping 20.00 km, 2014-06-30</name>
    <trkseg>
      <trkpt lat="59.994732937985" lon="23.427145464322">
        <ele>50.2</ele>
        <time>2014-06-30T16:26:59Z</time>
      </trkpt>
      <trkpt lat="59.994592624979" lon="23.427011940655">
        <ele>47.2</ele>
        <time>2014-06-30T16:27:04Z</time>
      </trkpt>
      <trkpt lat="59.99445843076" lon="23.426796525825">
        <ele>40</ele>
        <time>2014-06-30T16:27:10Z</time>
      </trkpt>
      <trkpt lat="59.994334630097" lon="23.426558563684">
        <ele>32</ele>
        <time>2014-06-30T16:27:16Z</time>
      </trkpt>
      <trkpt lat="59.99431090932" lon="23.42650274023">
        <ele>31</ele>
        <time>2014-06-30T16:27:17Z</time>
      </trkpt>
      <trkpt lat="59.994202950448" lon="23.426268130849">
        <ele>25.4</ele>
        <time>2014-06-30T16:27:22Z</time>
      </trkpt>
      <trkpt lat="59.994126591339" lon="23.426087081809">
        <ele>21.2</ele>
        <time>2014-06-30T16:27:26Z</time>
      </trkpt>
      <trkpt lat="59.994186605743" lon="23.425771084179">
        <ele>17.6</ele>
        <time>2014-06-30T16:27:32Z</time>
      </trkpt>
      <trkpt lat="59.994202866629" lon="23.425727246842">
        <ele>17</ele>
        <time>2014-06-30T16:27:33Z</time>
      </trkpt>
      <trkpt lat="59.994314681175" lon="23.42545500273">
        <ele>14.6</ele>
        <time>2014-06-30T16:27:38Z</time>
      </trkpt>
      <trkpt lat="59.994415347794" lon="23.425214358381">
        <ele>12.4</ele>
        <time>2014-06-30T16:27:43Z</time>
      </trkpt>
      <trkpt lat="59.994537136801" lon="23.424899785674">
        <ele>11</ele>
        <time>2014-06-30T16:27:50Z</time>
      </trkpt>
      <trkpt lat="59.994653309935" lon="23.424690154355">
        <ele>10.4</ele>
        <time>2014-06-30T16:27:55Z</time>
      </trkpt>
      <trkpt lat="59.994772668191" lon="23.424437020975">
        <ele>10.2</ele>
        <time>2014-06-30T16:28:00Z</time>
      </trkpt>
      <trkpt lat="59.994962853502" lon="23.424249517872">
        <ele>10</ele>
        <time>2014-06-30T16:28:06Z</time>
      </trkpt>
      <trkpt lat="59.995091180391" lon="23.424138122421">
        <ele>9.8</ele>
        <time>2014-06-30T16:28:11Z</time>
      </trkpt>
      <trkpt lat="59.995097382997" lon="23.423756913609">
        <ele>9.8</ele>
        <time>2014-06-30T16:28:17Z</time>
      </trkpt>
      <trkpt lat="59.99501917987" lon="23.423441335074">
        <ele>9.6</ele>
        <time>2014-06-30T16:28:22Z</time>
      </trkpt>
      <trkpt lat="59.994943156037" lon="23.423211419557">
        <ele>9.2</ele>
        <time>2014-06-30T16:28:26Z</time>
      </trkpt>
      <trkpt lat="59.994927565703" lon="23.423151069877">
        <ele>9</ele>
        <time>2014-06-30T16:28:27Z</time>
      </trkpt>
      <trkpt lat="59.994878783045" lon="23.422793162747">
        <ele>8.4</ele>
        <time>2014-06-30T16:28:33Z</time>
      </trkpt>
      <trkpt lat="59.994893032275" lon="23.42251379402">
        <ele>8</ele>
        <time>2014-06-30T16:28:37Z</time>
      </trkpt>
      <trkpt lat="59.994922620382" lon="23.422120431453">
        <ele>7.8</ele>
        <time>2014-06-30T16:28:42Z</time>
      </trkpt>
      <trkpt lat="59.994941395838" lon="23.422001743749">
        <ele>7.8</ele>
        <time>2014-06-30T16:28:44Z</time>
      </trkpt>
      <trkpt lat="59.994953214317" lon="23.421628916837">
        <ele>7.8</ele>
        <time>2014-06-30T16:28:50Z</time>
      </trkpt>
      <trkpt lat="59.994972995601" lon="23.421309147352">
        <ele>7.6</ele>
        <time>2014-06-30T16:28:55Z</time>
      </trkpt>
      <trkpt lat="59.99497810856" lon="23.4211156931">
        <ele>7.2</ele>
        <time>2014-06-30T16:28:58Z</time>
      </trkpt>
      <trkpt lat="59.994892194085" lon="23.420748062966">
        <ele>6.4</ele>
        <time>2014-06-30T16:29:04Z</time>
      </trkpt>
      <trkpt lat="59.994804184135" lon="23.420458719778">
        <ele>6</ele>
        <time>2014-06-30T16:29:09Z</time>
      </trkpt>
      <trkpt lat="59.994719359307" lon="23.420221679646">
        <ele>5.8</ele>
        <time>2014-06-30T16:29:13Z</time>
      </trkpt>
      <trkpt lat="59.994661524197" lon="23.420002828237">
        <ele>5.8</ele>
        <time>2014-06-30T16:29:17Z</time>
      </trkpt>
      <trkpt lat="59.994586757649" lon="23.41972094494">
        <ele>5.6</ele>
        <time>2014-06-30T16:29:22Z</time>
      </trkpt>
      <trkpt lat="59.994518696621" lon="23.419431098838">
        <ele>5</ele>
        <time>2014-06-30T16:29:27Z</time>
      </trkpt>
      <trkpt lat="59.994444516806" lon="23.41914343203">
        <ele>4.4</ele>
        <time>2014-06-30T16:29:32Z</time>
      </trkpt>
      <trkpt lat="59.994383161298" lon="23.418800025587">
        <ele>4</ele>
        <time>2014-06-30T16:29:38Z</time>
      </trkpt>
      <trkpt lat="59.994341670893" lon="23.418586790051">
        <ele>3.8</ele>
        <time>2014-06-30T16:29:42Z</time>
      </trkpt>
      <trkpt lat="59.994299929031" lon="23.418367519547">
        <ele>3.8</ele>
        <time>2014-06-30T16:29:46Z</time>
      </trkpt>
      <trkpt lat="59.994243351206" lon="23.418113631796">
        <ele>3.6</ele>
        <time>2014-06-30T16:29:51Z</time>
      </trkpt>
      <trkpt lat="59.994148719555" lon="23.417835687992">
        <ele>4.4</ele>
        <time>2014-06-30T16:29:56Z</time>
      </trkpt>
      <trkpt lat="59.994022152865" lon="23.417627565415">
        <ele>4.8</ele>
        <time>2014-06-30T16:30:01Z</time>
      </trkpt>
      <trkpt lat="59.993902124057" lon="23.417483480554">
        <ele>5.4</ele>
        <time>2014-06-30T16:30:06Z</time>
      </trkpt>
      <trkpt lat="59.993802798542" lon="23.417407791997">
        <ele>6.2</ele>
        <time>2014-06-30T16:30:10Z</time>
      </trkpt>
      <trkpt lat="59.993688553245" lon="23.417250296096">
        <ele>6.8</ele>
        <time>2014-06-30T16:30:15Z</time>
      </trkpt>
      <trkpt lat="59.993600375657" lon="23.417054914007">
        <ele>7.6</ele>
        <time>2014-06-30T16:30:19Z</time>
      </trkpt>
      <trkpt lat="59.993519238865" lon="23.416833967123">
        <ele>8.6</ele>
        <time>2014-06-30T16:30:24Z</time>
      </trkpt>
      <trkpt lat="59.993427037965" lon="23.416574463499">
        <ele>9.2</ele>
        <time>2014-06-30T16:30:29Z</time>
      </trkpt>
      <trkpt lat="59.993338525101" lon="23.416281096999">
        <ele>9.4</ele>
        <time>2014-06-30T16:30:34Z</time>
      </trkpt>
      <trkpt lat="59.993261914535" lon="23.416051181482">
        <ele>9.6</ele>
        <time>2014-06-30T16:30:38Z</time>
      </trkpt>
      <trkpt lat="59.993166612332" lon="23.415761083923">
        <ele>9.8</ele>
        <time>2014-06-30T16:30:43Z</time>
      </trkpt>
      <trkpt lat="59.993065778075" lon="23.415464364663">
        <ele>9.8</ele>
        <time>2014-06-30T16:30:48Z</time>
      </trkpt>
      <trkpt lat="59.992984725102" lon="23.415146690653">
        <ele>10</ele>
        <time>2014-06-30T16:30:53Z</time>
      </trkpt>
      <trkpt lat="59.992900319369" lon="23.414774282836">
        <ele>10.2</ele>
        <time>2014-06-30T16:30:59Z</time>
      </trkpt>
      <trkpt lat="59.992830414323" lon="23.414458285206">
        <ele>11</ele>
        <time>2014-06-30T16:31:04Z</time>
      </trkpt>
      <trkpt lat="59.992792779592" lon="23.414058720033">
        <ele>11.4</ele>
        <time>2014-06-30T16:31:10Z</time>
      </trkpt>
      <trkpt lat="59.992793701601" lon="23.413995436688">
        <ele>11.4</ele>
        <time>2014-06-30T16:31:11Z</time>
      </trkpt>
      <trkpt lat="59.992800742397" lon="23.413664267819">
        <ele>12</ele>
        <time>2014-06-30T16:31:16Z</time>
      </trkpt>
      <trkpt lat="59.992801245311" lon="23.413596625886">
        <ele>12.2</ele>
        <time>2014-06-30T16:31:17Z</time>
      </trkpt>
      <trkpt lat="59.992807699374" lon="23.413273503641">
        <ele>13</ele>
        <time>2014-06-30T16:31:22Z</time>
      </trkpt>
      <trkpt lat="59.992807783193" lon="23.413141656354">
        <ele>13.2</ele>
        <time>2014-06-30T16:31:24Z</time>
      </trkpt>
      <trkpt lat="59.992845501743" lon="23.412741672086">
        <ele>13.6</ele>
        <time>2014-06-30T16:31:30Z</time>
      </trkpt>
      <trkpt lat="59.992868803425" lon="23.412392398313">
        <ele>13.8</ele>
        <time>2014-06-30T16:31:35Z</time>
      </trkpt>
      <trkpt lat="59.992889925813" lon="23.412214618214">
        <ele>13.8</ele>
        <time>2014-06-30T16:31:38Z</time>
      </trkpt>
      <trkpt lat="59.992896715152" lon="23.412102803668">
        <ele>13.8</ele>
        <time>2014-06-30T16:31:40Z</time>
      </trkpt>
      <trkpt lat="59.992875844221" lon="23.411901638068">
        <ele>13.8</ele>
        <time>2014-06-30T16:31:43Z</time>
      </trkpt>
      <trkpt lat="59.992852710177" lon="23.411541300187">
        <ele>14</ele>
        <time>2014-06-30T16:31:48Z</time>
      </trkpt>
      <trkpt lat="59.992837538938" lon="23.411464354345">
        <ele>14</ele>
        <time>2014-06-30T16:31:49Z</time>
      </trkpt>
      <trkpt lat="59.992785738796" lon="23.411092030347">
        <ele>14</ele>
        <time>2014-06-30T16:31:55Z</time>
      </trkpt>
      <trkpt lat="59.99266805692" lon="23.410503537148">
        <ele>14</ele>
        <time>2014-06-30T16:32:05Z</time>
      </trkpt>
      <trkpt lat="59.992569485776" lon="23.410222408222">
        <ele>13.8</ele>
        <time>2014-06-30T16:32:10Z</time>
      </trkpt>
      <trkpt lat="59.992449792244" lon="23.409942955676">
        <ele>13</ele>
        <time>2014-06-30T16:32:15Z</time>
      </trkpt>
      <trkpt lat="59.99233864825" lon="23.409768612156">
        <ele>12.6</ele>
        <time>2014-06-30T16:32:19Z</time>
      </trkpt>
      <trkpt lat="59.992219038537" lon="23.409655372687">
        <ele>12.4</ele>
        <time>2014-06-30T16:32:23Z</time>
      </trkpt>
      <trkpt lat="59.992160784332" lon="23.409583204528">
        <ele>12.4</ele>
        <time>2014-06-30T16:32:25Z</time>
      </trkpt>
      <trkpt lat="59.992111666398" lon="23.409343230731">
        <ele>12.2</ele>
        <time>2014-06-30T16:32:29Z</time>
      </trkpt>
      <trkpt lat="59.992108146" lon="23.409039805951">
        <ele>12</ele>
        <time>2014-06-30T16:32:34Z</time>
      </trkpt>
      <trkpt lat="59.992090627829" lon="23.408872838503">
        <ele>12</ele>
        <time>2014-06-30T16:32:37Z</time>
      </trkpt>
      <trkpt lat="59.992070678907" lon="23.408825396949">
        <ele>12</ele>
        <time>2014-06-30T16:32:38Z</time>
      </trkpt>
      <trkpt lat="59.991936819964" lon="23.408649209411">
        <ele>12</ele>
        <time>2014-06-30T16:32:43Z</time>
      </trkpt>
      <trkpt lat="59.991787203049" lon="23.40852440292">
        <ele>12</ele>
        <time>2014-06-30T16:32:48Z</time>
      </trkpt>
      <trkpt lat="59.991695588882" lon="23.408470423484">
        <ele>12</ele>
        <time>2014-06-30T16:32:51Z</time>
      </trkpt>
      <trkpt lat="59.991497273128" lon="23.408290715548">
        <ele>12</ele>
        <time>2014-06-30T16:32:58Z</time>
      </trkpt>
      <trkpt lat="59.991347320937" lon="23.408187618178">
        <ele>12</ele>
        <time>2014-06-30T16:33:03Z</time>
      </trkpt>
      <trkpt lat="59.99120457718" lon="23.4080734567">
        <ele>12</ele>
        <time>2014-06-30T16:33:08Z</time>
      </trkpt>
      <trkpt lat="59.991024617787" lon="23.407955020453">
        <ele>12.4</ele>
        <time>2014-06-30T16:33:14Z</time>
      </trkpt>
      <trkpt lat="59.990846250955" lon="23.407860975535">
        <ele>13.2</ele>
        <time>2014-06-30T16:33:20Z</time>
      </trkpt>
      <trkpt lat="59.990694706203" lon="23.407767265893">
        <ele>13.4</ele>
        <time>2014-06-30T16:33:25Z</time>
      </trkpt>
      <trkpt lat="59.990582304924" lon="23.407688811309">
        <ele>13.6</ele>
        <time>2014-06-30T16:33:29Z</time>
      </trkpt>
      <trkpt lat="59.990180979552" lon="23.407766092427">
        <ele>19.6</ele>
        <time>2014-06-30T16:37:13Z</time>
      </trkpt>
      <trkpt lat="59.990168741978" lon="23.407766092427">
        <ele>19.6</ele>
        <time>2014-06-30T16:37:14Z</time>
      </trkpt>
      <trkpt lat="59.990051730654" lon="23.407834740188">
        <ele>19</ele>
        <time>2014-06-30T16:37:19Z</time>
      </trkpt>
      <trkpt lat="59.989897419875" lon="23.408013693753">
        <ele>18.8</ele>
        <time>2014-06-30T16:37:25Z</time>
      </trkpt>
      <trkpt lat="59.989814606703" lon="23.408225588185">
        <ele>18.6</ele>
        <time>2014-06-30T16:37:30Z</time>
      </trkpt>
      <trkpt lat="59.989800776568" lon="23.40825869669">
        <ele>18.6</ele>
        <time>2014-06-30T16:37:31Z</time>
      </trkpt>
      <trkpt lat="59.989716538473" lon="23.408283674752">
        <ele>18.4</ele>
        <time>2014-06-30T16:37:35Z</time>
      </trkpt>
      <trkpt lat="59.989577985666" lon="23.408144116117">
        <ele>17.4</ele>
        <time>2014-06-30T16:37:41Z</time>
      </trkpt>
      <trkpt lat="59.989438091755" lon="23.408009838079">
        <ele>17</ele>
        <time>2014-06-30T16:37:47Z</time>
      </trkpt>
      <trkpt lat="59.989272213954" lon="23.407852425997">
        <ele>16.6</ele>
        <time>2014-06-30T16:37:54Z</time>
      </trkpt>
      <trkpt lat="59.989151514594" lon="23.407723596194">
        <ele>16.2</ele>
        <time>2014-06-30T16:37:59Z</time>
      </trkpt>
      <trkpt lat="59.989051183251" lon="23.407563753361">
        <ele>15.4</ele>
        <time>2014-06-30T16:38:04Z</time>
      </trkpt>
      <trkpt lat="59.988936854135" lon="23.407335933319">
        <ele>14.8</ele>
        <time>2014-06-30T16:38:10Z</time>
      </trkpt>
      <trkpt lat="59.988871978229" lon="23.407180029979">
        <ele>14.6</ele>
        <time>2014-06-30T16:38:14Z</time>
      </trkpt>
      <trkpt lat="59.988751865602" lon="23.406951371747">
        <ele>14.4</ele>
        <time>2014-06-30T16:38:20Z</time>
      </trkpt>
      <trkpt lat="59.988611133501" lon="23.406801671013">
        <ele>14.4</ele>
        <time>2014-06-30T16:38:26Z</time>
      </trkpt>
      <trkpt lat="59.988448357003" lon="23.406614503186">
        <ele>14.4</ele>
        <time>2014-06-30T16:38:33Z</time>
      </trkpt>
      <trkpt lat="59.988340649588" lon="23.406497491862">
        <ele>14.4</ele>
        <time>2014-06-30T16:38:37Z</time>
      </trkpt>
      <trkpt lat="59.988182147859" lon="23.406389616809">
        <ele>14.6</ele>
        <time>2014-06-30T16:38:43Z</time>
      </trkpt>
      <trkpt lat="59.988015515687" lon="23.406380815814">
        <ele>15.4</ele>
        <time>2014-06-30T16:38:49Z</time>
      </trkpt>
      <trkpt lat="59.987911747765" lon="23.406438650924">
        <ele>15.8</ele>
        <time>2014-06-30T16:38:54Z</time>
      </trkpt>
      <trkpt lat="59.987822061435" lon="23.406518446612">
        <ele>16.6</ele>
        <time>2014-06-30T16:38:58Z</time>
      </trkpt>
      <trkpt lat="59.987604383492" lon="23.40677007125">
        <ele>18</ele>
        <time>2014-06-30T16:39:09Z</time>
      </trkpt>
      <trkpt lat="59.987499945018" lon="23.406915664853">
        <ele>18.2</ele>
        <time>2014-06-30T16:39:14Z</time>
      </trkpt>
      <trkpt lat="59.987386957006" lon="23.407049020882">
        <ele>18.4</ele>
        <time>2014-06-30T16:39:19Z</time>
      </trkpt>
      <trkpt lat="59.987280590695" lon="23.407164774921">
        <ele>18.4</ele>
        <time>2014-06-30T16:39:24Z</time>
      </trkpt>
      <trkpt lat="59.987162908819" lon="23.407268291386">
        <ele>18.4</ele>
        <time>2014-06-30T16:39:29Z</time>
      </trkpt>
      <trkpt lat="59.987019075415" lon="23.407333754025">
        <ele>18.6</ele>
        <time>2014-06-30T16:39:35Z</time>
      </trkpt>
      <trkpt lat="59.986883959187" lon="23.407360911381">
        <ele>18.6</ele>
        <time>2014-06-30T16:39:41Z</time>
      </trkpt>
      <trkpt lat="59.986783208749" lon="23.40737440624">
        <ele>18.6</ele>
        <time>2014-06-30T16:39:45Z</time>
      </trkpt>
      <trkpt lat="59.986678854094" lon="23.407382117588">
        <ele>18.6</ele>
        <time>2014-06-30T16:39:49Z</time>
      </trkpt>
      <trkpt lat="59.986526890247" lon="23.407402820881">
        <ele>18.6</ele>
        <time>2014-06-30T16:39:55Z</time>
      </trkpt>
      <trkpt lat="59.986322455706" lon="23.40740625746">
        <ele>18.6</ele>
        <time>2014-06-30T16:40:03Z</time>
      </trkpt>
      <trkpt lat="59.986134449689" lon="23.407391756773">
        <ele>19.6</ele>
        <time>2014-06-30T16:40:10Z</time>
      </trkpt>
      <trkpt lat="59.985989945733" lon="23.407352110386">
        <ele>20</ele>
        <time>2014-06-30T16:40:15Z</time>
      </trkpt>
      <trkpt lat="59.9858803943" lon="23.40728388172">
        <ele>20.2</ele>
        <time>2014-06-30T16:40:19Z</time>
      </trkpt>
      <trkpt lat="59.98576053313" lon="23.407179778522">
        <ele>20.8</ele>
        <time>2014-06-30T16:40:24Z</time>
      </trkpt>
      <trkpt lat="59.985715857603" lon="23.407135019176">
        <ele>21.2</ele>
        <time>2014-06-30T16:40:26Z</time>
      </trkpt>
      <trkpt lat="59.985594403872" lon="23.406947683711">
        <ele>21.8</ele>
        <time>2014-06-30T16:40:32Z</time>
      </trkpt>
      <trkpt lat="59.985535479115" lon="23.406800665185">
        <ele>22.2</ele>
        <time>2014-06-30T16:40:36Z</time>
      </trkpt>
      <trkpt lat="59.985486696457" lon="23.40658483126">
        <ele>22.4</ele>
        <time>2014-06-30T16:40:41Z</time>
      </trkpt>
      <trkpt lat="59.985442440025" lon="23.406363046186">
        <ele>22.6</ele>
        <time>2014-06-30T16:40:46Z</time>
      </trkpt>
      <trkpt lat="59.985399943792" lon="23.406131286651">
        <ele>22.6</ele>
        <time>2014-06-30T16:40:51Z</time>
      </trkpt>
      <trkpt lat="59.98534646727" lon="23.405920733323">
        <ele>22.6</ele>
        <time>2014-06-30T16:40:56Z</time>
      </trkpt>
      <trkpt lat="59.98529449949" lon="23.405688722331">
        <ele>22.6</ele>
        <time>2014-06-30T16:41:02Z</time>
      </trkpt>
      <trkpt lat="59.985292320196" lon="23.40566868959">
        <ele>22.6</ele>
        <time>2014-06-30T16:41:03Z</time>
      </trkpt>
      <trkpt lat="59.985267090677" lon="23.405593336309">
        <ele>22.6</ele>
        <time>2014-06-30T16:41:05Z</time>
      </trkpt>
      <trkpt lat="59.985263235003" lon="23.405397870401">
        <ele>22.8</ele>
        <time>2014-06-30T16:41:09Z</time>
      </trkpt>
      <trkpt lat="59.985257870587" lon="23.405213720058">
        <ele>23.2</ele>
        <time>2014-06-30T16:41:13Z</time>
      </trkpt>
      <trkpt lat="59.985241861158" lon="23.404873666375">
        <ele>24</ele>
        <time>2014-06-30T16:41:20Z</time>
      </trkpt>
      <trkpt lat="59.985213781793" lon="23.404583065902">
        <ele>25</ele>
        <time>2014-06-30T16:41:26Z</time>
      </trkpt>
      <trkpt lat="59.985171117922" lon="23.404268157919">
        <ele>25.8</ele>
        <time>2014-06-30T16:41:32Z</time>
      </trkpt>
      <trkpt lat="59.985131471535" lon="23.403932630462">
        <ele>27.2</ele>
        <time>2014-06-30T16:41:39Z</time>
      </trkpt>
      <trkpt lat="59.985098195392" lon="23.403623757447">
        <ele>28</ele>
        <time>2014-06-30T16:41:45Z</time>
      </trkpt>
      <trkpt lat="59.985056872625" lon="23.403314968251">
        <ele>28.4</ele>
        <time>2014-06-30T16:41:51Z</time>
      </trkpt>
      <trkpt lat="59.985003479922" lon="23.402965191564">
        <ele>29.4</ele>
        <time>2014-06-30T16:41:58Z</time>
      </trkpt>
      <trkpt lat="59.984956792739" lon="23.402618683818">
        <ele>30.2</ele>
        <time>2014-06-30T16:42:05Z</time>
      </trkpt>
      <trkpt lat="59.984910189375" lon="23.402266727837">
        <ele>30.6</ele>
        <time>2014-06-30T16:42:12Z</time>
      </trkpt>
      <trkpt lat="59.98486953716" lon="23.401967829283">
        <ele>30.8</ele>
        <time>2014-06-30T16:42:18Z</time>
      </trkpt>
      <trkpt lat="59.984829220221" lon="23.401819385834">
        <ele>30.8</ele>
        <time>2014-06-30T16:42:21Z</time>
      </trkpt>
      <trkpt lat="59.984802649598" lon="23.401559463115">
        <ele>31.8</ele>
        <time>2014-06-30T16:42:26Z</time>
      </trkpt>
      <trkpt lat="59.984770546921" lon="23.401232569015">
        <ele>32.4</ele>
        <time>2014-06-30T16:42:32Z</time>
      </trkpt>
      <trkpt lat="59.984696786201" lon="23.40089100659">
        <ele>32.6</ele>
        <time>2014-06-30T16:42:38Z</time>
      </trkpt>
      <trkpt lat="59.984660576393" lon="23.400552629287">
        <ele>32.8</ele>
        <time>2014-06-30T16:42:44Z</time>
      </trkpt>
      <trkpt lat="59.984612045192" lon="23.400278122062">
        <ele>33</ele>
        <time>2014-06-30T16:42:49Z</time>
      </trkpt>
      <trkpt lat="59.984417082198" lon="23.399741093729">
        <ele>33</ele>
        <time>2014-06-30T16:43:01Z</time>
      </trkpt>
      <trkpt lat="59.984317002312" lon="23.399397687286">
        <ele>33</ele>
        <time>2014-06-30T16:43:08Z</time>
      </trkpt>
      <trkpt lat="59.984230165828" lon="23.399108511736">
        <ele>33</ele>
        <time>2014-06-30T16:43:14Z</time>
      </trkpt>
      <trkpt lat="59.984163864999" lon="23.398852863786">
        <ele>33</ele>
        <time>2014-06-30T16:43:19Z</time>
      </trkpt>
      <trkpt lat="59.984111729581" lon="23.398600652415">
        <ele>33</ele>
        <time>2014-06-30T16:43:24Z</time>
      </trkpt>
      <trkpt lat="59.984039980517" lon="23.398246852416">
        <ele>33</ele>
        <time>2014-06-30T16:43:31Z</time>
      </trkpt>
      <trkpt lat="59.984013242256" lon="23.398047447015">
        <ele>32.4</ele>
        <time>2014-06-30T16:43:35Z</time>
      </trkpt>
      <trkpt lat="59.983943672486" lon="23.397763468243">
        <ele>31.8</ele>
        <time>2014-06-30T16:43:41Z</time>
      </trkpt>
      <trkpt lat="59.983874018897" lon="23.397509580492">
        <ele>31.4</ele>
        <time>2014-06-30T16:43:46Z</time>
      </trkpt>
      <trkpt lat="59.983778046142" lon="23.397236162914">
        <ele>31.2</ele>
        <time>2014-06-30T16:43:52Z</time>
      </trkpt>
      <trkpt lat="59.983674110582" lon="23.396985460285">
        <ele>31</ele>
        <time>2014-06-30T16:43:58Z</time>
      </trkpt>
      <trkpt lat="59.983575287981" lon="23.396800555571">
        <ele>31</ele>
        <time>2014-06-30T16:44:03Z</time>
      </trkpt>
      <trkpt lat="59.983421396297" lon="23.39654750601">
        <ele>30.8</ele>
        <time>2014-06-30T16:44:10Z</time>
      </trkpt>
      <trkpt lat="59.983309581751" lon="23.396387914634">
        <ele>30</ele>
        <time>2014-06-30T16:44:15Z</time>
      </trkpt>
      <trkpt lat="59.983207154933" lon="23.396293869716">
        <ele>29.6</ele>
        <time>2014-06-30T16:44:19Z</time>
      </trkpt>
      <trkpt lat="59.983075978198" lon="23.396137128186">
        <ele>29.4</ele>
        <time>2014-06-30T16:44:24Z</time>
      </trkpt>
      <trkpt lat="59.982927953844" lon="23.395992205135">
        <ele>29</ele>
        <time>2014-06-30T16:44:29Z</time>
      </trkpt>
      <trkpt lat="59.982786802648" lon="23.395873517431">
        <ele>28</ele>
        <time>2014-06-30T16:44:34Z</time>
      </trkpt>
      <trkpt lat="59.98266845022" lon="23.395811072276">
        <ele>27.6</ele>
        <time>2014-06-30T16:44:38Z</time>
      </trkpt>
      <trkpt lat="59.982508104473" lon="23.395628682132">
        <ele>26.6</ele>
        <time>2014-06-30T16:44:44Z</time>
      </trkpt>
      <trkpt lat="59.982331665478" lon="23.395487447117">
        <ele>25.6</ele>
        <time>2014-06-30T16:44:50Z</time>
      </trkpt>
      <trkpt lat="59.982193028852" lon="23.395396168226">
        <ele>24.6</ele>
        <time>2014-06-30T16:44:55Z</time>
      </trkpt>
      <trkpt lat="59.982031174363" lon="23.395295417788">
        <ele>23.6</ele>
        <time>2014-06-30T16:45:01Z</time>
      </trkpt>
      <trkpt lat="59.981843922717" lon="23.395175137523">
        <ele>23.2</ele>
        <time>2014-06-30T16:45:08Z</time>
      </trkpt>
      <trkpt lat="59.981667735179" lon="23.395086121745">
        <ele>23</ele>
        <time>2014-06-30T16:45:14Z</time>
      </trkpt>
      <trkpt lat="59.981527589811" lon="23.395036836173">
        <ele>22.8</ele>
        <time>2014-06-30T16:45:19Z</time>
      </trkpt>
      <trkpt lat="59.981363472209" lon="23.394995681044">
        <ele>22.8</ele>
        <time>2014-06-30T16:45:25Z</time>
      </trkpt>
      <trkpt lat="59.981226595782" lon="23.394960057969">
        <ele>22.8</ele>
        <time>2014-06-30T16:45:30Z</time>
      </trkpt>
      <trkpt lat="59.981034063539" lon="23.394896439348">
        <ele>22.6</ele>
        <time>2014-06-30T16:45:37Z</time>
      </trkpt>
      <trkpt lat="59.980845638427" lon="23.394842962826">
        <ele>22.4</ele>
        <time>2014-06-30T16:45:44Z</time>
      </trkpt>
      <trkpt lat="59.980703313765" lon="23.394792419969">
        <ele>21.8</ele>
        <time>2014-06-30T16:45:49Z</time>
      </trkpt>
      <trkpt lat="59.980531820091" lon="23.394732154108">
        <ele>21.2</ele>
        <time>2014-06-30T16:45:55Z</time>
      </trkpt>
      <trkpt lat="59.980331157405" lon="23.39465738756">
        <ele>21</ele>
        <time>2014-06-30T16:46:02Z</time>
      </trkpt>
      <trkpt lat="59.980162597396" lon="23.39461463987">
        <ele>20.8</ele>
        <time>2014-06-30T16:46:08Z</time>
      </trkpt>
      <trkpt lat="59.980042903864" lon="23.394560744253">
        <ele>20.8</ele>
        <time>2014-06-30T16:46:12Z</time>
      </trkpt>
      <trkpt lat="59.97984877906" lon="23.394450606087">
        <ele>20.8</ele>
        <time>2014-06-30T16:46:19Z</time>
      </trkpt>
      <trkpt lat="59.979691115521" lon="23.394352118762">
        <ele>20.6</ele>
        <time>2014-06-30T16:46:25Z</time>
      </trkpt>
      <trkpt lat="59.979556753664" lon="23.394251200686">
        <ele>20.6</ele>
        <time>2014-06-30T16:46:30Z</time>
      </trkpt>
      <trkpt lat="59.979430606069" lon="23.394156569035">
        <ele>20.4</ele>
        <time>2014-06-30T16:46:35Z</time>
      </trkpt>
      <trkpt lat="59.97940537655" lon="23.394140811063">
        <ele>20.2</ele>
        <time>2014-06-30T16:46:36Z</time>
      </trkpt>
      <trkpt lat="59.979245952812" lon="23.394080042288">
        <ele>19.4</ele>
        <time>2014-06-30T16:46:42Z</time>
      </trkpt>
      <trkpt lat="59.979220304198" lon="23.394058584624">
        <ele>19.4</ele>
        <time>2014-06-30T16:46:43Z</time>
      </trkpt>
      <trkpt lat="59.979115111353" lon="23.393995385098">
        <ele>19.2</ele>
        <time>2014-06-30T16:46:47Z</time>
      </trkpt>
      <trkpt lat="59.978973457243" lon="23.393920115636">
        <ele>19</ele>
        <time>2014-06-30T16:46:52Z</time>
      </trkpt>
      <trkpt lat="59.978811267478" lon="23.393874182824">
        <ele>18.2</ele>
        <time>2014-06-30T16:46:58Z</time>
      </trkpt>
      <trkpt lat="59.978636253406" lon="23.393862951078">
        <ele>17.4</ele>
        <time>2014-06-30T16:47:04Z</time>
      </trkpt>
      <trkpt lat="59.978437015643" lon="23.393828250012">
        <ele>17</ele>
        <time>2014-06-30T16:47:11Z</time>
      </trkpt>
      <trkpt lat="59.978230988541" lon="23.393800841199">
        <ele>16.8</ele>
        <time>2014-06-30T16:47:18Z</time>
      </trkpt>
      <trkpt lat="59.978084724386" lon="23.39378818453">
        <ele>16.6</ele>
        <time>2014-06-30T16:47:23Z</time>
      </trkpt>
      <trkpt lat="59.977949356701" lon="23.393762535916">
        <ele>16.6</ele>
        <time>2014-06-30T16:47:28Z</time>
      </trkpt>
      <trkpt lat="59.977793034266" lon="23.39377477349">
        <ele>16.6</ele>
        <time>2014-06-30T16:47:34Z</time>
      </trkpt>
      <trkpt lat="59.977647105387" lon="23.393777036603">
        <ele>16.6</ele>
        <time>2014-06-30T16:47:40Z</time>
      </trkpt>
      <trkpt lat="59.977625647723" lon="23.393753902559">
        <ele>16.6</ele>
        <time>2014-06-30T16:47:41Z</time>
      </trkpt>
      <trkpt lat="59.977515844833" lon="23.393516108056">
        <ele>17.2</ele>
        <time>2014-06-30T16:47:47Z</time>
      </trkpt>
      <trkpt lat="59.977439066629" lon="23.393313852809">
        <ele>17.8</ele>
        <time>2014-06-30T16:47:52Z</time>
      </trkpt>
      <trkpt lat="59.97735097286" lon="23.393162559514">
        <ele>18.2</ele>
        <time>2014-06-30T16:47:57Z</time>
      </trkpt>
      <trkpt lat="59.977236476106" lon="23.392960807181">
        <ele>18.4</ele>
        <time>2014-06-30T16:48:03Z</time>
      </trkpt>
      <trkpt lat="59.977127092311" lon="23.392681606092">
        <ele>18.4</ele>
        <time>2014-06-30T16:48:10Z</time>
      </trkpt>
      <trkpt lat="59.977023827303" lon="23.392559565628">
        <ele>19</ele>
        <time>2014-06-30T16:48:15Z</time>
      </trkpt>
      <trkpt lat="59.976960795415" lon="23.392491756057">
        <ele>19.4</ele>
        <time>2014-06-30T16:48:18Z</time>
      </trkpt>
      <trkpt lat="59.9768698518" lon="23.392220685411">
        <ele>20</ele>
        <time>2014-06-30T16:48:25Z</time>
      </trkpt>
      <trkpt lat="59.976757618159" lon="23.391960595054">
        <ele>21.4</ele>
        <time>2014-06-30T16:48:31Z</time>
      </trkpt>
      <trkpt lat="59.976652676771" lon="23.391726404768">
        <ele>22</ele>
        <time>2014-06-30T16:48:36Z</time>
      </trkpt>
      <trkpt lat="59.976544382623" lon="23.391458519244">
        <ele>23.2</ele>
        <time>2014-06-30T16:48:42Z</time>
      </trkpt>
      <trkpt lat="59.97644908042" lon="23.39118560458">
        <ele>24.2</ele>
        <time>2014-06-30T16:48:48Z</time>
      </trkpt>
      <trkpt lat="59.976373056587" lon="23.390924759852">
        <ele>25.6</ele>
        <time>2014-06-30T16:48:54Z</time>
      </trkpt>
      <trkpt lat="59.976268953389" lon="23.390667854617">
        <ele>26.2</ele>
        <time>2014-06-30T16:49:00Z</time>
      </trkpt>
      <trkpt lat="59.976173567367" lon="23.390418157816">
        <ele>26.6</ele>
        <time>2014-06-30T16:49:06Z</time>
      </trkpt>
      <trkpt lat="59.976101483027" lon="23.390201737158">
        <ele>26.8</ele>
        <time>2014-06-30T16:49:11Z</time>
      </trkpt>
      <trkpt lat="59.976022357891" lon="23.389996129151">
        <ele>26.8</ele>
        <time>2014-06-30T16:49:16Z</time>
      </trkpt>
      <trkpt lat="59.975919260521" lon="23.389667223395">
        <ele>27</ele>
        <time>2014-06-30T16:49:24Z</time>
      </trkpt>
      <trkpt lat="59.975840973575" lon="23.389459100818">
        <ele>27</ele>
        <time>2014-06-30T16:49:29Z</time>
      </trkpt>
      <trkpt lat="59.975719603663" lon="23.389210996578">
        <ele>26.2</ele>
        <time>2014-06-30T16:49:35Z</time>
      </trkpt>
      <trkpt lat="59.975657577603" lon="23.389032462108">
        <ele>25.8</ele>
        <time>2014-06-30T16:49:39Z</time>
      </trkpt>
      <trkpt lat="59.975578284829" lon="23.38881939421">
        <ele>25.4</ele>
        <time>2014-06-30T16:49:44Z</time>
      </trkpt>
      <trkpt lat="59.975502177177" lon="23.388545138442">
        <ele>25.2</ele>
        <time>2014-06-30T16:49:50Z</time>
      </trkpt>
      <trkpt lat="59.97546085441" lon="23.388348918163">
        <ele>25.2</ele>
        <time>2014-06-30T16:49:54Z</time>
      </trkpt>
      <trkpt lat="59.975411987933" lon="23.388167785304">
        <ele>25</ele>
        <time>2014-06-30T16:49:58Z</time>
      </trkpt>
      <trkpt lat="59.975378460333" lon="23.388043314089">
        <ele>25</ele>
        <time>2014-06-30T16:50:01Z</time>
      </trkpt>
      <trkpt lat="59.975349039864" lon="23.38772555626">
        <ele>25</ele>
        <time>2014-06-30T16:50:07Z</time>
      </trkpt>
      <trkpt lat="59.975315260807" lon="23.387435123425">
        <ele>25</ele>
        <time>2014-06-30T16:50:12Z</time>
      </trkpt>
      <trkpt lat="59.975305118708" lon="23.387141673106">
        <ele>25</ele>
        <time>2014-06-30T16:50:17Z</time>
      </trkpt>
      <trkpt lat="59.975298916102" lon="23.386804050174">
        <ele>25</ele>
        <time>2014-06-30T16:50:23Z</time>
      </trkpt>
      <trkpt lat="59.975304867251" lon="23.386535661736">
        <ele>25</ele>
        <time>2014-06-30T16:50:28Z</time>
      </trkpt>
      <trkpt lat="59.975304867251" lon="23.386483693956">
        <ele>25</ele>
        <time>2014-06-30T16:50:29Z</time>
      </trkpt>
      <trkpt lat="59.975285253605" lon="23.386318319069">
        <ele>25</ele>
        <time>2014-06-30T16:50:33Z</time>
      </trkpt>
      <trkpt lat="59.97527058528" lon="23.386022857094">
        <ele>25</ele>
        <time>2014-06-30T16:50:39Z</time>
      </trkpt>
      <trkpt lat="59.975273435126" lon="23.385779195261">
        <ele>25</ele>
        <time>2014-06-30T16:50:44Z</time>
      </trkpt>
      <trkpt lat="59.975284415415" lon="23.38552111656">
        <ele>25</ele>
        <time>2014-06-30T16:50:49Z</time>
      </trkpt>
      <trkpt lat="59.975282739035" lon="23.385403183227">
        <ele>25</ele>
        <time>2014-06-30T16:50:51Z</time>
      </trkpt>
      <trkpt lat="59.975295479523" lon="23.385111660745">
        <ele>25</ele>
        <time>2014-06-30T16:50:56Z</time>
      </trkpt>
      <trkpt lat="59.975299754292" lon="23.384702959301">
        <ele>25</ele>
        <time>2014-06-30T16:51:03Z</time>
      </trkpt>
      <trkpt lat="59.975302604138" lon="23.384359133763">
        <ele>25</ele>
        <time>2014-06-30T16:51:09Z</time>
      </trkpt>
      <trkpt lat="59.975316182816" lon="23.384012709836">
        <ele>25</ele>
        <time>2014-06-30T16:51:15Z</time>
      </trkpt>
      <trkpt lat="59.975329174761" lon="23.383732670557">
        <ele>25</ele>
        <time>2014-06-30T16:51:20Z</time>
      </trkpt>
      <trkpt lat="59.975328923304" lon="23.383462857196">
        <ele>25</ele>
        <time>2014-06-30T16:51:25Z</time>
      </trkpt>
      <trkpt lat="59.975331940788" lon="23.38318340465">
        <ele>25</ele>
        <time>2014-06-30T16:51:30Z</time>
      </trkpt>
      <trkpt lat="59.975343172534" lon="23.382898755326">
        <ele>25</ele>
        <time>2014-06-30T16:51:35Z</time>
      </trkpt>
      <trkpt lat="59.975352644081" lon="23.38262097916">
        <ele>25</ele>
        <time>2014-06-30T16:51:40Z</time>
      </trkpt>
      <trkpt lat="59.975371335718" lon="23.38233934732">
        <ele>25</ele>
        <time>2014-06-30T16:51:45Z</time>
      </trkpt>
      <trkpt lat="59.975379298523" lon="23.381956797404">
        <ele>25</ele>
        <time>2014-06-30T16:51:52Z</time>
      </trkpt>
      <trkpt lat="59.975385584948" lon="23.38163191496">
        <ele>25.4</ele>
        <time>2014-06-30T16:51:58Z</time>
      </trkpt>
      <trkpt lat="59.975380052894" lon="23.381314492407">
        <ele>26.2</ele>
        <time>2014-06-30T16:52:04Z</time>
      </trkpt>
      <trkpt lat="59.975381645455" lon="23.381008720695">
        <ele>26.6</ele>
        <time>2014-06-30T16:52:10Z</time>
      </trkpt>
      <trkpt lat="59.975382399826" lon="23.380710073598">
        <ele>26.8</ele>
        <time>2014-06-30T16:52:16Z</time>
      </trkpt>
      <trkpt lat="59.975398744531" lon="23.380448725956">
        <ele>26.8</ele>
        <time>2014-06-30T16:52:21Z</time>
      </trkpt>
      <trkpt lat="59.975406874974" lon="23.380199196793">
        <ele>26.8</ele>
        <time>2014-06-30T16:52:26Z</time>
      </trkpt>
      <trkpt lat="59.97540972482" lon="23.379885294638">
        <ele>27.6</ele>
        <time>2014-06-30T16:52:32Z</time>
      </trkpt>
      <trkpt lat="59.975415424512" lon="23.37958673136">
        <ele>28.2</ele>
        <time>2014-06-30T16:52:38Z</time>
      </trkpt>
      <trkpt lat="59.975430176656" lon="23.379305770072">
        <ele>28.6</ele>
        <time>2014-06-30T16:52:44Z</time>
      </trkpt>
      <trkpt lat="59.975436043986" lon="23.379130672181">
        <ele>28.8</ele>
        <time>2014-06-30T16:52:48Z</time>
      </trkpt>
      <trkpt lat="59.97538374093" lon="23.378907294546">
        <ele>29.6</ele>
        <time>2014-06-30T16:52:53Z</time>
      </trkpt>
      <trkpt lat="59.975360606886" lon="23.378820206605">
        <ele>29.8</ele>
        <time>2014-06-30T16:52:55Z</time>
      </trkpt>
      <trkpt lat="59.975277877533" lon="23.378527007743">
        <ele>30.4</ele>
        <time>2014-06-30T16:53:01Z</time>
      </trkpt>
      <trkpt lat="59.97521442655" lon="23.378289632335">
        <ele>30.8</ele>
        <time>2014-06-30T16:53:06Z</time>
      </trkpt>
      <trkpt lat="59.975111915913" lon="23.377947399358">
        <ele>31</ele>
        <time>2014-06-30T16:53:13Z</time>
      </trkpt>
      <trkpt lat="59.97504092122" lon="23.377672724495">
        <ele>31</ele>
        <time>2014-06-30T16:53:19Z</time>
      </trkpt>
      <trkpt lat="59.974964981206" lon="23.37744850867">
        <ele>31</ele>
        <time>2014-06-30T16:53:24Z</time>
      </trkpt>
      <trkpt lat="59.974900608214" lon="23.377216832954">
        <ele>31</ele>
        <time>2014-06-30T16:53:29Z</time>
      </trkpt>
      <trkpt lat="59.974826009304" lon="23.376989683464">
        <ele>31</ele>
        <time>2014-06-30T16:53:34Z</time>
      </trkpt>
      <trkpt lat="59.974775466447" lon="23.376804946388">
        <ele>31</ele>
        <time>2014-06-30T16:53:38Z</time>
      </trkpt>
      <trkpt lat="59.974696844225" lon="23.37649213388">
        <ele>31</ele>
        <time>2014-06-30T16:53:45Z</time>
      </trkpt>
      <trkpt lat="59.974615372157" lon="23.376278646887">
        <ele>31.2</ele>
        <time>2014-06-30T16:53:50Z</time>
      </trkpt>
      <trkpt lat="59.974516717194" lon="23.376018305073">
        <ele>31.2</ele>
        <time>2014-06-30T16:53:56Z</time>
      </trkpt>
      <trkpt lat="59.974434406936" lon="23.37579140704">
        <ele>31.2</ele>
        <time>2014-06-30T16:54:02Z</time>
      </trkpt>
      <trkpt lat="59.974344972063" lon="23.375544224809">
        <ele>31.2</ele>
        <time>2014-06-30T16:54:07Z</time>
      </trkpt>
      <trkpt lat="59.97426978642" lon="23.375306178849">
        <ele>31.2</ele>
        <time>2014-06-30T16:54:12Z</time>
      </trkpt>
      <trkpt lat="59.974257465027" lon="23.375254713983">
        <ele>31.2</ele>
        <time>2014-06-30T16:54:13Z</time>
      </trkpt>
      <trkpt lat="59.974213208595" lon="23.375070060726">
        <ele>30.4</ele>
        <time>2014-06-30T16:54:17Z</time>
      </trkpt>
      <trkpt lat="59.974145482843" lon="23.374814580414">
        <ele>29.8</ele>
        <time>2014-06-30T16:54:23Z</time>
      </trkpt>
      <trkpt lat="59.974058897816" lon="23.374590616046">
        <ele>29.4</ele>
        <time>2014-06-30T16:54:28Z</time>
      </trkpt>
      <trkpt lat="59.973995195376" lon="23.374365729669">
        <ele>29.2</ele>
        <time>2014-06-30T16:54:33Z</time>
      </trkpt>
      <trkpt lat="59.973946328899" lon="23.374112093375">
        <ele>29.2</ele>
        <time>2014-06-30T16:54:38Z</time>
      </trkpt>
      <trkpt lat="59.973871478532" lon="23.373811686079">
        <ele>29</ele>
        <time>2014-06-30T16:54:44Z</time>
      </trkpt>
      <trkpt lat="59.973795957613" lon="23.373522594348">
        <ele>29</ele>
        <time>2014-06-30T16:54:50Z</time>
      </trkpt>
      <trkpt lat="59.973732255173" lon="23.373344562792">
        <ele>29</ele>
        <time>2014-06-30T16:54:54Z</time>
      </trkpt>
      <trkpt lat="59.973635444228" lon="23.373078018372">
        <ele>29</ele>
        <time>2014-06-30T16:55:00Z</time>
      </trkpt>
      <trkpt lat="59.973561012956" lon="23.372884899396">
        <ele>29</ele>
        <time>2014-06-30T16:55:05Z</time>
      </trkpt>
      <trkpt lat="59.973454562826" lon="23.372656995535">
        <ele>29</ele>
        <time>2014-06-30T16:55:11Z</time>
      </trkpt>
      <trkpt lat="59.973395470431" lon="23.372500086367">
        <ele>29</ele>
        <time>2014-06-30T16:55:15Z</time>
      </trkpt>
      <trkpt lat="59.9733243081" lon="23.372265309348">
        <ele>29</ele>
        <time>2014-06-30T16:55:20Z</time>
      </trkpt>
      <trkpt lat="59.973267227361" lon="23.372042518446">
        <ele>29</ele>
        <time>2014-06-30T16:55:25Z</time>
      </trkpt>
      <trkpt lat="59.97321953435" lon="23.371864654528">
        <ele>29</ele>
        <time>2014-06-30T16:55:29Z</time>
      </trkpt>
      <trkpt lat="59.973163291801" lon="23.37163482283">
        <ele>29</ele>
        <time>2014-06-30T16:55:34Z</time>
      </trkpt>
      <trkpt lat="59.973104953777" lon="23.371462826242">
        <ele>29</ele>
        <time>2014-06-30T16:55:38Z</time>
      </trkpt>
      <trkpt lat="59.973074443661" lon="23.371376492672">
        <ele>29</ele>
        <time>2014-06-30T16:55:40Z</time>
      </trkpt>
      <trkpt lat="59.973030354867" lon="23.371200556591">
        <ele>29.8</ele>
        <time>2014-06-30T16:55:44Z</time>
      </trkpt>
      <trkpt lat="59.972963132029" lon="23.370889588101">
        <ele>30.6</ele>
        <time>2014-06-30T16:55:51Z</time>
      </trkpt>
      <trkpt lat="59.972885347997" lon="23.370573171376">
        <ele>32</ele>
        <time>2014-06-30T16:55:58Z</time>
      </trkpt>
      <trkpt lat="59.97284737799" lon="23.370320205634">
        <ele>32.4</ele>
        <time>2014-06-30T16:56:04Z</time>
      </trkpt>
      <trkpt lat="59.972808737431" lon="23.370079058371">
        <ele>32.8</ele>
        <time>2014-06-30T16:56:09Z</time>
      </trkpt>
      <trkpt lat="59.972790548708" lon="23.369995155552">
        <ele>32.8</ele>
        <time>2014-06-30T16:56:11Z</time>
      </trkpt>
      <trkpt lat="59.972766241198" lon="23.36963993063">
        <ele>33</ele>
        <time>2014-06-30T16:56:18Z</time>
      </trkpt>
      <trkpt lat="59.972767917578" lon="23.369398699548">
        <ele>33</ele>
        <time>2014-06-30T16:56:23Z</time>
      </trkpt>
      <trkpt lat="59.972767247026" lon="23.369359053161">
        <ele>33</ele>
        <time>2014-06-30T16:56:24Z</time>
      </trkpt>
      <trkpt lat="59.972772108528" lon="23.369211950816">
        <ele>33</ele>
        <time>2014-06-30T16:56:27Z</time>
      </trkpt>
      <trkpt lat="59.972772443804" lon="23.36900709718">
        <ele>33</ele>
        <time>2014-06-30T16:56:31Z</time>
      </trkpt>
      <trkpt lat="59.972789291423" lon="23.368661092348">
        <ele>33.2</ele>
        <time>2014-06-30T16:56:38Z</time>
      </trkpt>
      <trkpt lat="59.972790548708" lon="23.368624714902">
        <ele>33.2</ele>
        <time>2014-06-30T16:56:39Z</time>
      </trkpt>
      <trkpt lat="59.972803205377" lon="23.368378035585">
        <ele>33.2</ele>
        <time>2014-06-30T16:56:44Z</time>
      </trkpt>
      <trkpt lat="59.97282893781" lon="23.368148539163">
        <ele>33.2</ele>
        <time>2014-06-30T16:56:48Z</time>
      </trkpt>
      <trkpt lat="59.972844444325" lon="23.36791325923">
        <ele>33.2</ele>
        <time>2014-06-30T16:56:53Z</time>
      </trkpt>
      <trkpt lat="59.972907979127" lon="23.367364412418">
        <ele>33.2</ele>
        <time>2014-06-30T16:57:03Z</time>
      </trkpt>
      <trkpt lat="59.972920049063" lon="23.36728126397">
        <ele>33.2</ele>
        <time>2014-06-30T16:57:05Z</time>
      </trkpt>
      <trkpt lat="59.972927592773" lon="23.36692000408">
        <ele>33.2</ele>
        <time>2014-06-30T16:57:12Z</time>
      </trkpt>
      <trkpt lat="59.972924910565" lon="23.36687222725">
        <ele>33.2</ele>
        <time>2014-06-30T16:57:13Z</time>
      </trkpt>
      <trkpt lat="59.972932454275" lon="23.366654381669">
        <ele>33.2</ele>
        <time>2014-06-30T16:57:17Z</time>
      </trkpt>
      <trkpt lat="59.972981572209" lon="23.366352465631">
        <ele>33.2</ele>
        <time>2014-06-30T16:57:22Z</time>
      </trkpt>
      <trkpt lat="59.973030857781" lon="23.366122214838">
        <ele>33.2</ele>
        <time>2014-06-30T16:57:26Z</time>
      </trkpt>
      <trkpt lat="59.973049884694" lon="23.365787525571">
        <ele>33.2</ele>
        <time>2014-06-30T16:57:32Z</time>
      </trkpt>
      <trkpt lat="59.973036976568" lon="23.365605051608">
        <ele>33.2</ele>
        <time>2014-06-30T16:57:35Z</time>
      </trkpt>
      <trkpt lat="59.972972519757" lon="23.365349319839">
        <ele>33.2</ele>
        <time>2014-06-30T16:57:40Z</time>
      </trkpt>
      <trkpt lat="59.97289431663" lon="23.365057294443">
        <ele>33.2</ele>
        <time>2014-06-30T16:57:46Z</time>
      </trkpt>
      <trkpt lat="59.972841175384" lon="23.364880436353">
        <ele>33.2</ele>
        <time>2014-06-30T16:57:50Z</time>
      </trkpt>
      <trkpt lat="59.972783507912" lon="23.364643815316">
        <ele>33.2</ele>
        <time>2014-06-30T16:57:55Z</time>
      </trkpt>
      <trkpt lat="59.972722990594" lon="23.364471315814">
        <ele>33.2</ele>
        <time>2014-06-30T16:57:59Z</time>
      </trkpt>
      <trkpt lat="59.972659539611" lon="23.364100584377">
        <ele>33.2</ele>
        <time>2014-06-30T16:58:07Z</time>
      </trkpt>
      <trkpt lat="59.972656941222" lon="23.364060518895">
        <ele>33.2</ele>
        <time>2014-06-30T16:58:08Z</time>
      </trkpt>
      <trkpt lat="59.972591562402" lon="23.363613428349">
        <ele>33.2</ele>
        <time>2014-06-30T16:58:18Z</time>
      </trkpt>
      <trkpt lat="59.972590640393" lon="23.363571854125">
        <ele>33.2</ele>
        <time>2014-06-30T16:58:19Z</time>
      </trkpt>
      <trkpt lat="59.972595837171" lon="23.363292653036">
        <ele>33.2</ele>
        <time>2014-06-30T16:58:25Z</time>
      </trkpt>
      <trkpt lat="59.972604219071" lon="23.363196512643">
        <ele>33.2</ele>
        <time>2014-06-30T16:58:27Z</time>
      </trkpt>
      <trkpt lat="59.972620312319" lon="23.362974392293">
        <ele>33.2</ele>
        <time>2014-06-30T16:58:32Z</time>
      </trkpt>
      <trkpt lat="59.972628778038" lon="23.362923430341">
        <ele>33.2</ele>
        <time>2014-06-30T16:58:33Z</time>
      </trkpt>
      <trkpt lat="59.972651157711" lon="23.362779932213">
        <ele>33.2</ele>
        <time>2014-06-30T16:58:36Z</time>
      </trkpt>
      <trkpt lat="59.972690133546" lon="23.362564182107">
        <ele>33.2</ele>
        <time>2014-06-30T16:58:41Z</time>
      </trkpt>
      <trkpt lat="59.972755344728" lon="23.362292440909">
        <ele>33.2</ele>
        <time>2014-06-30T16:58:47Z</time>
      </trkpt>
      <trkpt lat="59.972799684979" lon="23.362072835129">
        <ele>33.2</ele>
        <time>2014-06-30T16:58:52Z</time>
      </trkpt>
      <trkpt lat="59.972824495403" lon="23.361842919612">
        <ele>34</ele>
        <time>2014-06-30T16:58:57Z</time>
      </trkpt>
      <trkpt lat="59.972861291944" lon="23.36152541324">
        <ele>35.2</ele>
        <time>2014-06-30T16:59:04Z</time>
      </trkpt>
      <trkpt lat="59.972863387419" lon="23.361371940651">
        <ele>35.8</ele>
        <time>2014-06-30T16:59:07Z</time>
      </trkpt>
      <trkpt lat="59.972862968324" lon="23.361146467541">
        <ele>36.4</ele>
        <time>2014-06-30T16:59:12Z</time>
      </trkpt>
      <trkpt lat="59.972874032432" lon="23.360882018596">
        <ele>37.2</ele>
        <time>2014-06-30T16:59:17Z</time>
      </trkpt>
      <trkpt lat="59.972886186187" lon="23.360549927718">
        <ele>38.4</ele>
        <time>2014-06-30T16:59:24Z</time>
      </trkpt>
      <trkpt lat="59.972924240013" lon="23.36025639358">
        <ele>39</ele>
        <time>2014-06-30T16:59:30Z</time>
      </trkpt>
      <trkpt lat="59.972971513929" lon="23.360006948236">
        <ele>39.2</ele>
        <time>2014-06-30T16:59:35Z</time>
      </trkpt>
      <trkpt lat="59.973020212768" lon="23.359713497917">
        <ele>40.2</ele>
        <time>2014-06-30T16:59:41Z</time>
      </trkpt>
      <trkpt lat="59.973042257165" lon="23.359466064229">
        <ele>40.8</ele>
        <time>2014-06-30T16:59:46Z</time>
      </trkpt>
      <trkpt lat="59.973036892749" lon="23.35918518676">
        <ele>41</ele>
        <time>2014-06-30T16:59:52Z</time>
      </trkpt>
      <trkpt lat="59.973034378179" lon="23.358854269348">
        <ele>41.2</ele>
        <time>2014-06-30T16:59:58Z</time>
      </trkpt>
      <trkpt lat="59.973035048731" lon="23.358290251297">
        <ele>42.2</ele>
        <time>2014-06-30T17:00:09Z</time>
      </trkpt>
      <trkpt lat="59.973065475028" lon="23.357970565631">
        <ele>42.8</ele>
        <time>2014-06-30T17:00:15Z</time>
      </trkpt>
      <trkpt lat="59.973112916582" lon="23.357646772834">
        <ele>43.2</ele>
        <time>2014-06-30T17:00:21Z</time>
      </trkpt>
      <trkpt lat="59.973141666499" lon="23.357396824576">
        <ele>43.4</ele>
        <time>2014-06-30T17:00:26Z</time>
      </trkpt>
      <trkpt lat="59.973143510517" lon="23.357364721899">
        <ele>43.4</ele>
        <time>2014-06-30T17:00:27Z</time>
      </trkpt>
      <trkpt lat="59.973174020633" lon="23.357158527159">
        <ele>43.4</ele>
        <time>2014-06-30T17:00:32Z</time>
      </trkpt>
      <trkpt lat="59.973195897392" lon="23.356962977432">
        <ele>43.4</ele>
        <time>2014-06-30T17:00:36Z</time>
      </trkpt>
      <trkpt lat="59.973209978984" lon="23.356684363076">
        <ele>43.4</ele>
        <time>2014-06-30T17:00:41Z</time>
      </trkpt>
      <trkpt lat="59.973223138567" lon="23.356400551942">
        <ele>43.6</ele>
        <time>2014-06-30T17:00:46Z</time>
      </trkpt>
      <trkpt lat="59.973217355056" lon="23.356204080206">
        <ele>43.6</ele>
        <time>2014-06-30T17:00:50Z</time>
      </trkpt>
      <trkpt lat="59.973192041718" lon="23.355932674284">
        <ele>43.6</ele>
        <time>2014-06-30T17:00:56Z</time>
      </trkpt>
      <trkpt lat="59.973158095023" lon="23.355615084093">
        <ele>43.6</ele>
        <time>2014-06-30T17:01:02Z</time>
      </trkpt>
      <trkpt lat="59.973115431152" lon="23.355324064525">
        <ele>43.6</ele>
        <time>2014-06-30T17:01:08Z</time>
      </trkpt>
      <trkpt lat="59.973066899951" lon="23.355043857608">
        <ele>43.6</ele>
        <time>2014-06-30T17:01:14Z</time>
      </trkpt>
      <trkpt lat="59.973020799501" lon="23.354684860831">
        <ele>43.6</ele>
        <time>2014-06-30T17:01:21Z</time>
      </trkpt>
      <trkpt lat="59.97300663409" lon="23.35440247462">
        <ele>43.6</ele>
        <time>2014-06-30T17:01:26Z</time>
      </trkpt>
      <trkpt lat="59.973017698198" lon="23.354191334559">
        <ele>43.6</ele>
        <time>2014-06-30T17:01:30Z</time>
      </trkpt>
      <trkpt lat="59.973007891375" lon="23.353861255337">
        <ele>43.6</ele>
        <time>2014-06-30T17:01:36Z</time>
      </trkpt>
      <trkpt lat="59.972936729044" lon="23.353556321815">
        <ele>43.6</ele>
        <time>2014-06-30T17:01:42Z</time>
      </trkpt>
      <trkpt lat="59.972836230063" lon="23.353269912292">
        <ele>43.6</ele>
        <time>2014-06-30T17:01:49Z</time>
      </trkpt>
      <trkpt lat="59.972797673323" lon="23.353088444157">
        <ele>43.6</ele>
        <time>2014-06-30T17:01:54Z</time>
      </trkpt>
      <trkpt lat="59.97272835501" lon="23.352859869744">
        <ele>43.6</ele>
        <time>2014-06-30T17:02:00Z</time>
      </trkpt>
      <trkpt lat="59.972707484079" lon="23.352806141765">
        <ele>43.6</ele>
        <time>2014-06-30T17:02:02Z</time>
      </trkpt>
      <trkpt lat="59.972697928713" lon="23.352773787631">
        <ele>43.6</ele>
        <time>2014-06-30T17:02:04Z</time>
      </trkpt>
      <trkpt lat="59.972724247879" lon="23.35275543127">
        <ele>43.6</ele>
        <time>2014-06-30T17:02:17Z</time>
      </trkpt>
      <trkpt lat="59.972698850722" lon="23.352769093767">
        <ele>43.6</ele>
        <time>2014-06-30T17:02:30Z</time>
      </trkpt>
      <trkpt lat="59.972686361691" lon="23.352642610896">
        <ele>43.6</ele>
        <time>2014-06-30T17:02:45Z</time>
      </trkpt>
      <trkpt lat="59.972636405567" lon="23.352356620468">
        <ele>43.6</ele>
        <time>2014-06-30T17:02:51Z</time>
      </trkpt>
      <trkpt lat="59.97260514108" lon="23.352146318597">
        <ele>43.6</ele>
        <time>2014-06-30T17:02:55Z</time>
      </trkpt>
      <trkpt lat="59.972511012343" lon="23.351856304857">
        <ele>43.6</ele>
        <time>2014-06-30T17:03:01Z</time>
      </trkpt>
      <trkpt lat="59.97242493023" lon="23.351551706611">
        <ele>43.6</ele>
        <time>2014-06-30T17:03:07Z</time>
      </trkpt>
      <trkpt lat="59.972338177565" lon="23.351303434733">
        <ele>43.6</ele>
        <time>2014-06-30T17:03:12Z</time>
      </trkpt>
      <trkpt lat="59.972260812628" lon="23.351059102348">
        <ele>43.6</ele>
        <time>2014-06-30T17:03:17Z</time>
      </trkpt>
      <trkpt lat="59.972200127672" lon="23.350830360297">
        <ele>43.6</ele>
        <time>2014-06-30T17:03:22Z</time>
      </trkpt>
      <trkpt lat="59.97211312355" lon="23.350497934143">
        <ele>43.6</ele>
        <time>2014-06-30T17:03:29Z</time>
      </trkpt>
      <trkpt lat="59.972049672567" lon="23.350319567311">
        <ele>43.6</ele>
        <time>2014-06-30T17:03:33Z</time>
      </trkpt>
      <trkpt lat="59.971952107251" lon="23.350000887473">
        <ele>43.6</ele>
        <time>2014-06-30T17:03:40Z</time>
      </trkpt>
      <trkpt lat="59.971895277969" lon="23.349755130165">
        <ele>43.6</ele>
        <time>2014-06-30T17:03:45Z</time>
      </trkpt>
      <trkpt lat="59.971840125067" lon="23.349515994558">
        <ele>43.6</ele>
        <time>2014-06-30T17:03:50Z</time>
      </trkpt>
      <trkpt lat="59.971789498391" lon="23.349294712398">
        <ele>43.6</ele>
        <time>2014-06-30T17:03:55Z</time>
      </trkpt>
      <trkpt lat="59.971740715733" lon="23.349017774422">
        <ele>43.6</ele>
        <time>2014-06-30T17:04:01Z</time>
      </trkpt>
      <trkpt lat="59.971708613056" lon="23.348774699322">
        <ele>43.6</ele>
        <time>2014-06-30T17:04:06Z</time>
      </trkpt>
      <trkpt lat="59.971713726015" lon="23.348470184895">
        <ele>43.6</ele>
        <time>2014-06-30T17:04:12Z</time>
      </trkpt>
      <trkpt lat="59.971753875316" lon="23.348183440096">
        <ele>43.6</ele>
        <time>2014-06-30T17:04:18Z</time>
      </trkpt>
      <trkpt lat="59.971783631061" lon="23.347900718609">
        <ele>43.6</ele>
        <time>2014-06-30T17:04:24Z</time>
      </trkpt>
      <trkpt lat="59.971787402916" lon="23.347587906101">
        <ele>43.6</ele>
        <time>2014-06-30T17:04:30Z</time>
      </trkpt>
      <trkpt lat="59.971791090952" lon="23.347380873171">
        <ele>43.6</ele>
        <time>2014-06-30T17:04:34Z</time>
      </trkpt>
      <trkpt lat="59.971782206138" lon="23.347143497763">
        <ele>43.6</ele>
        <time>2014-06-30T17:04:39Z</time>
      </trkpt>
      <trkpt lat="59.97178120031" lon="23.346912157323">
        <ele>42.8</ele>
        <time>2014-06-30T17:04:44Z</time>
      </trkpt>
      <trkpt lat="59.971766280528" lon="23.346605882697">
        <ele>42.2</ele>
        <time>2014-06-30T17:04:50Z</time>
      </trkpt>
      <trkpt lat="59.971757395714" lon="23.346408908047">
        <ele>42</ele>
        <time>2014-06-30T17:04:54Z</time>
      </trkpt>
      <trkpt lat="59.971726801779" lon="23.346106572914">
        <ele>41.8</ele>
        <time>2014-06-30T17:05:01Z</time>
      </trkpt>
      <trkpt lat="59.97171163054" lon="23.345818403192">
        <ele>41</ele>
        <time>2014-06-30T17:05:07Z</time>
      </trkpt>
      <trkpt lat="59.971696626939" lon="23.345584632001">
        <ele>40.6</ele>
        <time>2014-06-30T17:05:11Z</time>
      </trkpt>
      <trkpt lat="59.971660249493" lon="23.345352704828">
        <ele>40.2</ele>
        <time>2014-06-30T17:05:16Z</time>
      </trkpt>
      <trkpt lat="59.971622363305" lon="23.345100325819">
        <ele>39.8</ele>
        <time>2014-06-30T17:05:21Z</time>
      </trkpt>
      <trkpt lat="59.971564360557" lon="23.344820202721">
        <ele>39.6</ele>
        <time>2014-06-30T17:05:27Z</time>
      </trkpt>
      <trkpt lat="59.971506860723" lon="23.344604620253">
        <ele>39.6</ele>
        <time>2014-06-30T17:05:32Z</time>
      </trkpt>
      <trkpt lat="59.971456653142" lon="23.34434922376">
        <ele>39.4</ele>
        <time>2014-06-30T17:05:37Z</time>
      </trkpt>
      <trkpt lat="59.971415581832" lon="23.344098353493">
        <ele>39.4</ele>
        <time>2014-06-30T17:05:42Z</time>
      </trkpt>
      <trkpt lat="59.971390184675" lon="23.343865420492">
        <ele>39.4</ele>
        <time>2014-06-30T17:05:47Z</time>
      </trkpt>
      <trkpt lat="59.97137216359" lon="23.343561408979">
        <ele>40.2</ele>
        <time>2014-06-30T17:05:53Z</time>
      </trkpt>
      <trkpt lat="59.971350035374" lon="23.343189336438">
        <ele>40.8</ele>
        <time>2014-06-30T17:06:00Z</time>
      </trkpt>
      <trkpt lat="59.971325644045" lon="23.342881385432">
        <ele>41.8</ele>
        <time>2014-06-30T17:06:06Z</time>
      </trkpt>
      <trkpt lat="59.971311059539" lon="23.342634789934">
        <ele>42.6</ele>
        <time>2014-06-30T17:06:11Z</time>
      </trkpt>
      <trkpt lat="59.971303683467" lon="23.342386350418">
        <ele>43</ele>
        <time>2014-06-30T17:06:16Z</time>
      </trkpt>
      <trkpt lat="59.971299911612" lon="23.342340585244">
        <ele>43</ele>
        <time>2014-06-30T17:06:17Z</time>
      </trkpt>
      <trkpt lat="59.971292032626" lon="23.342093822108">
        <ele>44</ele>
        <time>2014-06-30T17:06:22Z</time>
      </trkpt>
      <trkpt lat="59.971283650726" lon="23.341726443431">
        <ele>44.8</ele>
        <time>2014-06-30T17:06:29Z</time>
      </trkpt>
      <trkpt lat="59.971280465604" lon="23.341336433624">
        <ele>45.2</ele>
        <time>2014-06-30T17:06:37Z</time>
      </trkpt>
      <trkpt lat="59.971287674038" lon="23.341056059069">
        <ele>45.4</ele>
        <time>2014-06-30T17:06:43Z</time>
      </trkpt>
      <trkpt lat="59.971287925495" lon="23.340753137203">
        <ele>45.4</ele>
        <time>2014-06-30T17:06:49Z</time>
      </trkpt>
      <trkpt lat="59.97128666821" lon="23.340510062103">
        <ele>45.4</ele>
        <time>2014-06-30T17:06:54Z</time>
      </trkpt>
      <trkpt lat="59.97132271038" lon="23.340123824151">
        <ele>46</ele>
        <time>2014-06-30T17:07:01Z</time>
      </trkpt>
      <trkpt lat="59.971349700098" lon="23.339876390463">
        <ele>46.6</ele>
        <time>2014-06-30T17:07:06Z</time>
      </trkpt>
      <trkpt lat="59.971368056459" lon="23.339638344503">
        <ele>47</ele>
        <time>2014-06-30T17:07:10Z</time>
      </trkpt>
      <trkpt lat="59.971409714502" lon="23.339341289967">
        <ele>47.2</ele>
        <time>2014-06-30T17:07:16Z</time>
      </trkpt>
      <trkpt lat="59.971428070863" lon="23.339077343936">
        <ele>47.4</ele>
        <time>2014-06-30T17:07:21Z</time>
      </trkpt>
      <trkpt lat="59.971426813578" lon="23.338812643534">
        <ele>47.4</ele>
        <time>2014-06-30T17:07:26Z</time>
      </trkpt>
      <trkpt lat="59.971400578231" lon="23.338495723895">
        <ele>47.6</ele>
        <time>2014-06-30T17:07:32Z</time>
      </trkpt>
      <trkpt lat="59.97136964902" lon="23.338229682389">
        <ele>47.6</ele>
        <time>2014-06-30T17:07:37Z</time>
      </trkpt>
      <trkpt lat="59.971338216895" lon="23.337900441357">
        <ele>47.6</ele>
        <time>2014-06-30T17:07:43Z</time>
      </trkpt>
      <trkpt lat="59.971337211067" lon="23.337628951616">
        <ele>47.6</ele>
        <time>2014-06-30T17:07:48Z</time>
      </trkpt>
      <trkpt lat="59.971360764206" lon="23.337365759956">
        <ele>47.6</ele>
        <time>2014-06-30T17:07:53Z</time>
      </trkpt>
      <trkpt lat="59.971379791119" lon="23.336986227524">
        <ele>47.6</ele>
        <time>2014-06-30T17:08:00Z</time>
      </trkpt>
      <trkpt lat="59.97139228015" lon="23.336657740863">
        <ele>47.6</ele>
        <time>2014-06-30T17:08:06Z</time>
      </trkpt>
      <trkpt lat="59.971375683988" lon="23.336362362707">
        <ele>47.6</ele>
        <time>2014-06-30T17:08:12Z</time>
      </trkpt>
      <trkpt lat="59.9713713254" lon="23.33610562511">
        <ele>47.6</ele>
        <time>2014-06-30T17:08:17Z</time>
      </trkpt>
      <trkpt lat="59.97134953246" lon="23.335823406537">
        <ele>47.6</ele>
        <time>2014-06-30T17:08:22Z</time>
      </trkpt>
      <trkpt lat="59.971339725637" lon="23.335568429139">
        <ele>47.6</ele>
        <time>2014-06-30T17:08:27Z</time>
      </trkpt>
      <trkpt lat="59.971342072569" lon="23.3352263638">
        <ele>47.6</ele>
        <time>2014-06-30T17:08:33Z</time>
      </trkpt>
      <trkpt lat="59.971347688442" lon="23.334921597916">
        <ele>47.6</ele>
        <time>2014-06-30T17:08:39Z</time>
      </trkpt>
      <trkpt lat="59.971355232152" lon="23.334665027957">
        <ele>47.6</ele>
        <time>2014-06-30T17:08:44Z</time>
      </trkpt>
      <trkpt lat="59.971348945727" lon="23.334351796354">
        <ele>47.6</ele>
        <time>2014-06-30T17:08:50Z</time>
      </trkpt>
      <trkpt lat="59.97132773952" lon="23.334046024642">
        <ele>46.6</ele>
        <time>2014-06-30T17:08:56Z</time>
      </trkpt>
      <trkpt lat="59.971313238833" lon="23.333775037815">
        <ele>46.2</ele>
        <time>2014-06-30T17:09:01Z</time>
      </trkpt>
      <trkpt lat="59.971314412299" lon="23.333452921398">
        <ele>45.8</ele>
        <time>2014-06-30T17:09:07Z</time>
      </trkpt>
      <trkpt lat="59.971349281003" lon="23.33316693097">
        <ele>45.8</ele>
        <time>2014-06-30T17:09:12Z</time>
      </trkpt>
      <trkpt lat="59.971402589887" lon="23.332808772383">
        <ele>45.6</ele>
        <time>2014-06-30T17:09:19Z</time>
      </trkpt>
      <trkpt lat="59.971385993725" lon="23.332550442225">
        <ele>45.6</ele>
        <time>2014-06-30T17:09:24Z</time>
      </trkpt>
      <trkpt lat="59.971318854706" lon="23.332300493967">
        <ele>45.6</ele>
        <time>2014-06-30T17:09:29Z</time>
      </trkpt>
      <trkpt lat="59.971224474512" lon="23.332046354759">
        <ele>45.6</ele>
        <time>2014-06-30T17:09:35Z</time>
      </trkpt>
      <trkpt lat="59.971198322984" lon="23.331969492736">
        <ele>45.6</ele>
        <time>2014-06-30T17:09:37Z</time>
      </trkpt>
      <trkpt lat="59.971158508959" lon="23.331780732348">
        <ele>45.6</ele>
        <time>2014-06-30T17:09:41Z</time>
      </trkpt>
      <trkpt lat="59.971148618317" lon="23.331466746374">
        <ele>45.6</ele>
        <time>2014-06-30T17:09:47Z</time>
      </trkpt>
      <trkpt lat="59.971161358805" lon="23.33115192221">
        <ele>45.6</ele>
        <time>2014-06-30T17:09:53Z</time>
      </trkpt>
      <trkpt lat="59.971131435422" lon="23.330770629579">
        <ele>45.6</ele>
        <time>2014-06-30T17:10:01Z</time>
      </trkpt>
      <trkpt lat="59.971094052148" lon="23.330459158175">
        <ele>45.4</ele>
        <time>2014-06-30T17:10:07Z</time>
      </trkpt>
      <trkpt lat="59.971061698014" lon="23.330210886297">
        <ele>44.6</ele>
        <time>2014-06-30T17:10:12Z</time>
      </trkpt>
      <trkpt lat="59.971034121563" lon="23.329841663602">
        <ele>44</ele>
        <time>2014-06-30T17:10:19Z</time>
      </trkpt>
      <trkpt lat="59.971030852622" lon="23.329552907147">
        <ele>43.8</ele>
        <time>2014-06-30T17:10:24Z</time>
      </trkpt>
      <trkpt lat="59.971078210357" lon="23.329268676918">
        <ele>43.6</ele>
        <time>2014-06-30T17:10:29Z</time>
      </trkpt>
      <trkpt lat="59.971154485647" lon="23.328968185803">
        <ele>43.6</ele>
        <time>2014-06-30T17:10:35Z</time>
      </trkpt>
      <trkpt lat="59.971268563306" lon="23.328719830106">
        <ele>43.6</ele>
        <time>2014-06-30T17:10:41Z</time>
      </trkpt>
      <trkpt lat="59.971362440586" lon="23.328546743871">
        <ele>43.4</ele>
        <time>2014-06-30T17:10:46Z</time>
      </trkpt>
      <trkpt lat="59.971451037269" lon="23.328350355954">
        <ele>43.4</ele>
        <time>2014-06-30T17:10:51Z</time>
      </trkpt>
      <trkpt lat="59.971565366385" lon="23.328062605327">
        <ele>42.6</ele>
        <time>2014-06-30T17:10:58Z</time>
      </trkpt>
      <trkpt lat="59.971629823196" lon="23.327794803622">
        <ele>42</ele>
        <time>2014-06-30T17:11:04Z</time>
      </trkpt>
      <trkpt lat="59.971669301945" lon="23.327563547001">
        <ele>41.8</ele>
        <time>2014-06-30T17:11:08Z</time>
      </trkpt>
      <trkpt lat="59.97171246873" lon="23.3272551769">
        <ele>41.6</ele>
        <time>2014-06-30T17:11:14Z</time>
      </trkpt>
      <trkpt lat="59.971745074321" lon="23.3269450466">
        <ele>41.6</ele>
        <time>2014-06-30T17:11:20Z</time>
      </trkpt>
      <trkpt lat="59.971779188654" lon="23.326691326487">
        <ele>41.6</ele>
        <time>2014-06-30T17:11:25Z</time>
      </trkpt>
      <trkpt lat="59.971815817557" lon="23.326452023242">
        <ele>41.4</ele>
        <time>2014-06-30T17:11:30Z</time>
      </trkpt>
      <trkpt lat="59.971860576903" lon="23.326236943688">
        <ele>41.4</ele>
        <time>2014-06-30T17:11:35Z</time>
      </trkpt>
      <trkpt lat="59.971894942693" lon="23.326060839969">
        <ele>41.4</ele>
        <time>2014-06-30T17:11:39Z</time>
      </trkpt>
      <trkpt lat="59.971958142219" lon="23.325832936108">
        <ele>41.4</ele>
        <time>2014-06-30T17:11:44Z</time>
      </trkpt>
      <trkpt lat="59.972038105545" lon="23.325618359468">
        <ele>41.4</ele>
        <time>2014-06-30T17:11:49Z</time>
      </trkpt>
      <trkpt lat="59.97213575468" lon="23.325393976005">
        <ele>41.4</ele>
        <time>2014-06-30T17:11:55Z</time>
      </trkpt>
      <trkpt lat="59.972252179271" lon="23.325118379133">
        <ele>41.4</ele>
        <time>2014-06-30T17:12:02Z</time>
      </trkpt>
      <trkpt lat="59.972327867828" lon="23.324925343976">
        <ele>41.4</ele>
        <time>2014-06-30T17:12:07Z</time>
      </trkpt>
      <trkpt lat="59.972413614665" lon="23.324713868639">
        <ele>41.4</ele>
        <time>2014-06-30T17:12:12Z</time>
      </trkpt>
      <trkpt lat="59.972495086733" lon="23.324507254804">
        <ele>41.4</ele>
        <time>2014-06-30T17:12:17Z</time>
      </trkpt>
      <trkpt lat="59.972602710329" lon="23.324206344594">
        <ele>41</ele>
        <time>2014-06-30T17:12:24Z</time>
      </trkpt>
      <trkpt lat="59.972682841293" lon="23.323961425476">
        <ele>40.4</ele>
        <time>2014-06-30T17:12:30Z</time>
      </trkpt>
      <trkpt lat="59.972780658066" lon="23.323734527443">
        <ele>39.8</ele>
        <time>2014-06-30T17:12:36Z</time>
      </trkpt>
      <trkpt lat="59.972884593626" lon="23.323498744596">
        <ele>39.6</ele>
        <time>2014-06-30T17:12:42Z</time>
      </trkpt>
      <trkpt lat="59.972992636317" lon="23.323245862673">
        <ele>39.6</ele>
        <time>2014-06-30T17:12:48Z</time>
      </trkpt>
      <trkpt lat="59.973090285452" lon="23.323019383735">
        <ele>39.4</ele>
        <time>2014-06-30T17:12:54Z</time>
      </trkpt>
      <trkpt lat="59.973190365338" lon="23.322783684707">
        <ele>39.4</ele>
        <time>2014-06-30T17:13:00Z</time>
      </trkpt>
      <trkpt lat="59.973296480192" lon="23.322551757534">
        <ele>39.4</ele>
        <time>2014-06-30T17:13:06Z</time>
      </trkpt>
      <trkpt lat="59.973392620585" lon="23.322330643012">
        <ele>40</ele>
        <time>2014-06-30T17:13:12Z</time>
      </trkpt>
      <trkpt lat="59.973471661902" lon="23.322119754408">
        <ele>40.6</ele>
        <time>2014-06-30T17:13:17Z</time>
      </trkpt>
      <trkpt lat="59.973572579978" lon="23.321888330149">
        <ele>41</ele>
        <time>2014-06-30T17:13:23Z</time>
      </trkpt>
      <trkpt lat="59.973590265787" lon="23.321851030694">
        <ele>41</ele>
        <time>2014-06-30T17:13:24Z</time>
      </trkpt>
      <trkpt lat="59.973682550506" lon="23.321598567866">
        <ele>41.2</ele>
        <time>2014-06-30T17:13:30Z</time>
      </trkpt>
      <trkpt lat="59.973699398125" lon="23.321556742185">
        <ele>41.2</ele>
        <time>2014-06-30T17:13:31Z</time>
      </trkpt>
      <trkpt lat="59.973813894879" lon="23.321235799234">
        <ele>41.4</ele>
        <time>2014-06-30T17:13:38Z</time>
      </trkpt>
      <trkpt lat="59.973882458821" lon="23.321078470971">
        <ele>41.4</ele>
        <time>2014-06-30T17:13:42Z</time>
      </trkpt>
      <trkpt lat="59.973968289477" lon="23.320898930673">
        <ele>41.4</ele>
        <time>2014-06-30T17:13:47Z</time>
      </trkpt>
      <trkpt lat="59.974038948894" lon="23.320754259079">
        <ele>41.4</ele>
        <time>2014-06-30T17:13:52Z</time>
      </trkpt>
      <trkpt lat="59.97406945901" lon="23.320569270546">
        <ele>41.4</ele>
        <time>2014-06-30T17:13:57Z</time>
      </trkpt>
      <trkpt lat="59.974099130936" lon="23.320322842686">
        <ele>41.4</ele>
        <time>2014-06-30T17:14:02Z</time>
      </trkpt>
      <trkpt lat="59.974134670192" lon="23.320085551097">
        <ele>41.4</ele>
        <time>2014-06-30T17:14:07Z</time>
      </trkpt>
      <trkpt lat="59.974183369031" lon="23.319832417717">
        <ele>41.4</ele>
        <time>2014-06-30T17:14:12Z</time>
      </trkpt>
      <trkpt lat="59.974264254366" lon="23.319511558585">
        <ele>41.4</ele>
        <time>2014-06-30T17:14:19Z</time>
      </trkpt>
      <trkpt lat="59.974325023141" lon="23.319284325276">
        <ele>42.2</ele>
        <time>2014-06-30T17:14:24Z</time>
      </trkpt>
      <trkpt lat="59.974418313688" lon="23.319020127788">
        <ele>42.8</ele>
        <time>2014-06-30T17:14:30Z</time>
      </trkpt>
      <trkpt lat="59.974515124633" lon="23.318730533143">
        <ele>43.2</ele>
        <time>2014-06-30T17:14:37Z</time>
      </trkpt>
      <trkpt lat="59.974512358606" lon="23.318544538782">
        <ele>43.2</ele>
        <time>2014-06-30T17:14:41Z</time>
      </trkpt>
      <trkpt lat="59.974495175711" lon="23.318321999337">
        <ele>43.4</ele>
        <time>2014-06-30T17:14:46Z</time>
      </trkpt>
      <trkpt lat="59.974468856545" lon="23.318060903152">
        <ele>43.4</ele>
        <time>2014-06-30T17:14:52Z</time>
      </trkpt>
      <trkpt lat="59.974457457161" lon="23.317827383418">
        <ele>43.4</ele>
        <time>2014-06-30T17:14:57Z</time>
      </trkpt>
      <trkpt lat="59.974462486301" lon="23.317541057714">
        <ele>43.4</ele>
        <time>2014-06-30T17:15:01Z</time>
      </trkpt>
      <trkpt lat="59.97456231473" lon="23.317168649897">
        <ele>43.4</ele>
        <time>2014-06-30T17:15:06Z</time>
      </trkpt>
      <trkpt lat="59.974649402671" lon="23.316998664965">
        <ele>43.4</ele>
        <time>2014-06-30T17:15:10Z</time>
      </trkpt>
      <trkpt lat="59.974814023187" lon="23.316875115759">
        <ele>43.6</ele>
        <time>2014-06-30T17:15:16Z</time>
      </trkpt>
      <trkpt lat="59.97490261987" lon="23.316840582331">
        <ele>43.6</ele>
        <time>2014-06-30T17:15:19Z</time>
      </trkpt>
      <trkpt lat="59.975091128801" lon="23.31672164317">
        <ele>43.6</ele>
        <time>2014-06-30T17:15:26Z</time>
      </trkpt>
      <trkpt lat="59.975209481229" lon="23.316632543573">
        <ele>43.6</ele>
        <time>2014-06-30T17:15:30Z</time>
      </trkpt>
      <trkpt lat="59.975310650762" lon="23.316567500029">
        <ele>43.6</ele>
        <time>2014-06-30T17:15:34Z</time>
      </trkpt>
      <trkpt lat="59.975448784474" lon="23.316444369918">
        <ele>43.6</ele>
        <time>2014-06-30T17:15:40Z</time>
      </trkpt>
      <trkpt lat="59.975465632093" lon="23.316417715476">
        <ele>43.6</ele>
        <time>2014-06-30T17:15:41Z</time>
      </trkpt>
      <trkpt lat="59.975553222948" lon="23.316234570961">
        <ele>43.6</ele>
        <time>2014-06-30T17:15:46Z</time>
      </trkpt>
      <trkpt lat="59.975645172391" lon="23.315965176695">
        <ele>43.6</ele>
        <time>2014-06-30T17:15:52Z</time>
      </trkpt>
      <trkpt lat="59.975710718849" lon="23.315694944239">
        <ele>43.6</ele>
        <time>2014-06-30T17:15:57Z</time>
      </trkpt>
      <trkpt lat="59.97577349928" lon="23.315351118701">
        <ele>43.6</ele>
        <time>2014-06-30T17:16:04Z</time>
      </trkpt>
      <trkpt lat="59.97582379068" lon="23.315109468524">
        <ele>43.6</ele>
        <time>2014-06-30T17:16:09Z</time>
      </trkpt>
      <trkpt lat="59.975885649102" lon="23.314768911927">
        <ele>43.6</ele>
        <time>2014-06-30T17:16:16Z</time>
      </trkpt>
      <trkpt lat="59.975929570258" lon="23.314516868194">
        <ele>43.6</ele>
        <time>2014-06-30T17:16:21Z</time>
      </trkpt>
      <trkpt lat="59.975978772011" lon="23.314173964665">
        <ele>43.6</ele>
        <time>2014-06-30T17:16:28Z</time>
      </trkpt>
      <trkpt lat="59.976003917711" lon="23.313903229295">
        <ele>43.6</ele>
        <time>2014-06-30T17:16:33Z</time>
      </trkpt>
      <trkpt lat="59.976064099753" lon="23.313599217782">
        <ele>43.6</ele>
        <time>2014-06-30T17:16:39Z</time>
      </trkpt>
      <trkpt lat="59.976157809395" lon="23.313384976418">
        <ele>43.6</ele>
        <time>2014-06-30T17:16:45Z</time>
      </trkpt>
      <trkpt lat="59.976244059146" lon="23.31325488933">
        <ele>43.6</ele>
        <time>2014-06-30T17:16:50Z</time>
      </trkpt>
      <trkpt lat="59.976330727992" lon="23.313148690657">
        <ele>43.6</ele>
        <time>2014-06-30T17:16:54Z</time>
      </trkpt>
      <trkpt lat="59.976391412948" lon="23.312986584711">
        <ele>43.6</ele>
        <time>2014-06-30T17:16:58Z</time>
      </trkpt>
      <trkpt lat="59.976374649148" lon="23.312678466067">
        <ele>43.6</ele>
        <time>2014-06-30T17:17:04Z</time>
      </trkpt>
      <trkpt lat="59.976350928371" lon="23.312351571967">
        <ele>43.6</ele>
        <time>2014-06-30T17:17:10Z</time>
      </trkpt>
      <trkpt lat="59.976351179828" lon="23.312301196748">
        <ele>43.6</ele>
        <time>2014-06-30T17:17:11Z</time>
      </trkpt>
      <trkpt lat="59.976376074071" lon="23.312040184382">
        <ele>43.6</ele>
        <time>2014-06-30T17:17:16Z</time>
      </trkpt>
      <trkpt lat="59.976407422377" lon="23.311744973864">
        <ele>43.6</ele>
        <time>2014-06-30T17:17:21Z</time>
      </trkpt>
      <trkpt lat="59.976424689091" lon="23.311596446596">
        <ele>43.6</ele>
        <time>2014-06-30T17:17:24Z</time>
      </trkpt>
      <trkpt lat="59.976465676582" lon="23.311209035178">
        <ele>43.6</ele>
        <time>2014-06-30T17:17:32Z</time>
      </trkpt>
      <trkpt lat="59.976514962154" lon="23.31091214828">
        <ele>44.4</ele>
        <time>2014-06-30T17:17:38Z</time>
      </trkpt>
      <trkpt lat="59.976599367887" lon="23.310579722126">
        <ele>45</ele>
        <time>2014-06-30T17:17:45Z</time>
      </trkpt>
      <trkpt lat="59.97663180584" lon="23.310435972541">
        <ele>45.2</ele>
        <time>2014-06-30T17:17:48Z</time>
      </trkpt>
      <trkpt lat="59.976776645072" lon="23.310207565766">
        <ele>45.4</ele>
        <time>2014-06-30T17:17:54Z</time>
      </trkpt>
      <trkpt lat="59.976839006408" lon="23.310037161739">
        <ele>45.4</ele>
        <time>2014-06-30T17:17:57Z</time>
      </trkpt>
      <trkpt lat="59.977030449004" lon="23.309764917627">
        <ele>45.4</ele>
        <time>2014-06-30T17:18:06Z</time>
      </trkpt>
      <trkpt lat="59.977051403754" lon="23.309748489103">
        <ele>45.4</ele>
        <time>2014-06-30T17:18:07Z</time>
      </trkpt>
      <trkpt lat="59.977167493069" lon="23.309731641484">
        <ele>45.4</ele>
        <time>2014-06-30T17:18:11Z</time>
      </trkpt>
      <trkpt lat="59.977323815504" lon="23.309608930468">
        <ele>44.4</ele>
        <time>2014-06-30T17:18:17Z</time>
      </trkpt>
      <trkpt lat="59.977456249524" lon="23.309474317154">
        <ele>44</ele>
        <time>2014-06-30T17:18:23Z</time>
      </trkpt>
      <trkpt lat="59.977600082928" lon="23.30933299832">
        <ele>43.8</ele>
        <time>2014-06-30T17:18:29Z</time>
      </trkpt>
      <trkpt lat="59.977710640189" lon="23.309200061386">
        <ele>43.6</ele>
        <time>2014-06-30T17:18:34Z</time>
      </trkpt>
      <trkpt lat="59.977831758644" lon="23.309057401448">
        <ele>43.6</ele>
        <time>2014-06-30T17:18:40Z</time>
      </trkpt>
      <trkpt lat="59.977941142439" lon="23.308949610214">
        <ele>42.8</ele>
        <time>2014-06-30T17:18:45Z</time>
      </trkpt>
      <trkpt lat="59.978064859283" lon="23.308833688537">
        <ele>42.2</ele>
        <time>2014-06-30T17:18:50Z</time>
      </trkpt>
      <trkpt lat="59.97813970965" lon="23.308756239781">
        <ele>42</ele>
        <time>2014-06-30T17:18:53Z</time>
      </trkpt>
      <trkpt lat="59.9783283024" lon="23.308583321184">
        <ele>41.6</ele>
        <time>2014-06-30T17:19:01Z</time>
      </trkpt>
      <trkpt lat="59.978424526612" lon="23.308532275413">
        <ele>41.6</ele>
        <time>2014-06-30T17:19:05Z</time>
      </trkpt>
      <trkpt lat="59.97853449714" lon="23.308447702042">
        <ele>41.4</ele>
        <time>2014-06-30T17:19:10Z</time>
      </trkpt>
      <trkpt lat="59.978556876813" lon="23.308432866079">
        <ele>41.2</ele>
        <time>2014-06-30T17:19:11Z</time>
      </trkpt>
      <trkpt lat="59.978722419338" lon="23.308292636892">
        <ele>40.2</ele>
        <time>2014-06-30T17:19:18Z</time>
      </trkpt>
      <trkpt lat="59.978828618011" lon="23.308119466838">
        <ele>40</ele>
        <time>2014-06-30T17:19:23Z</time>
      </trkpt>
      <trkpt lat="59.978929200811" lon="23.30788041505">
        <ele>39.8</ele>
        <time>2014-06-30T17:19:28Z</time>
      </trkpt>
      <trkpt lat="59.978949065914" lon="23.307832051487">
        <ele>39.4</ele>
        <time>2014-06-30T17:19:29Z</time>
      </trkpt>
      <trkpt lat="59.979024167738" lon="23.307618983589">
        <ele>38.6</ele>
        <time>2014-06-30T17:19:34Z</time>
      </trkpt>
      <trkpt lat="59.979109327842" lon="23.307353528816">
        <ele>38</ele>
        <time>2014-06-30T17:19:40Z</time>
      </trkpt>
      <trkpt lat="59.979138077759" lon="23.307082793446">
        <ele>37.8</ele>
        <time>2014-06-30T17:19:45Z</time>
      </trkpt>
      <trkpt lat="59.979160122156" lon="23.306794791362">
        <ele>37.6</ele>
        <time>2014-06-30T17:19:50Z</time>
      </trkpt>
      <trkpt lat="59.979195493774" lon="23.306446858693">
        <ele>37.6</ele>
        <time>2014-06-30T17:19:56Z</time>
      </trkpt>
      <trkpt lat="59.979249557029" lon="23.306085682622">
        <ele>38.4</ele>
        <time>2014-06-30T17:20:03Z</time>
      </trkpt>
      <trkpt lat="59.979334884771" lon="23.305734900107">
        <ele>38.8</ele>
        <time>2014-06-30T17:20:09Z</time>
      </trkpt>
      <trkpt lat="59.97941627302" lon="23.305479168338">
        <ele>39</ele>
        <time>2014-06-30T17:20:14Z</time>
      </trkpt>
      <trkpt lat="59.979506965178" lon="23.305330054337">
        <ele>39.2</ele>
        <time>2014-06-30T17:20:18Z</time>
      </trkpt>
      <trkpt lat="59.979638141913" lon="23.305274566159">
        <ele>39.2</ele>
        <time>2014-06-30T17:20:22Z</time>
      </trkpt>
      <trkpt lat="59.979812653071" lon="23.305379759004">
        <ele>38.4</ele>
        <time>2014-06-30T17:20:28Z</time>
      </trkpt>
      <trkpt lat="59.979997725423" lon="23.305560891863">
        <ele>37.8</ele>
        <time>2014-06-30T17:20:35Z</time>
      </trkpt>
      <trkpt lat="59.980134518031" lon="23.305705395819">
        <ele>37.6</ele>
        <time>2014-06-30T17:20:41Z</time>
      </trkpt>
      <trkpt lat="59.980258402513" lon="23.305842020789">
        <ele>37.4</ele>
        <time>2014-06-30T17:20:46Z</time>
      </trkpt>
      <trkpt lat="59.980333085242" lon="23.305932880585">
        <ele>37.4</ele>
        <time>2014-06-30T17:20:49Z</time>
      </trkpt>
      <trkpt lat="59.980375078561" lon="23.305994068455">
        <ele>37.4</ele>
        <time>2014-06-30T17:20:51Z</time>
      </trkpt>
      <trkpt lat="59.980468955841" lon="23.306144020646">
        <ele>36.8</ele>
        <time>2014-06-30T17:20:56Z</time>
      </trkpt>
      <trkpt lat="59.980647322673" lon="23.306339738011">
        <ele>35.8</ele>
        <time>2014-06-30T17:21:04Z</time>
      </trkpt>
      <trkpt lat="59.980755449183" lon="23.306412073808">
        <ele>35.6</ele>
        <time>2014-06-30T17:21:09Z</time>
      </trkpt>
      <trkpt lat="59.980899198768" lon="23.306433950567">
        <ele>35.4</ele>
        <time>2014-06-30T17:21:15Z</time>
      </trkpt>
      <trkpt lat="59.981016293911" lon="23.306441578096">
        <ele>35.4</ele>
        <time>2014-06-30T17:21:20Z</time>
      </trkpt>
      <trkpt lat="59.981184267187" lon="23.306444930856">
        <ele>35.2</ele>
        <time>2014-06-30T17:21:27Z</time>
      </trkpt>
      <trkpt lat="59.981268589101" lon="23.306482146492">
        <ele>35.2</ele>
        <time>2014-06-30T17:21:31Z</time>
      </trkpt>
      <trkpt lat="59.981316114474" lon="23.306501508681">
        <ele>35.2</ele>
        <time>2014-06-30T17:21:33Z</time>
      </trkpt>
      <trkpt lat="59.981436478558" lon="23.30658960245">
        <ele>35.8</ele>
        <time>2014-06-30T17:21:38Z</time>
      </trkpt>
      <trkpt lat="59.981461121344" lon="23.306616005435">
        <ele>36</ele>
        <time>2014-06-30T17:21:39Z</time>
      </trkpt>
      <trkpt lat="59.981649378818" lon="23.306723209936">
        <ele>36.6</ele>
        <time>2014-06-30T17:21:47Z</time>
      </trkpt>
      <trkpt lat="59.981688857567" lon="23.306745421971">
        <ele>37</ele>
        <time>2014-06-30T17:21:49Z</time>
      </trkpt>
      <trkpt lat="59.981809724565" lon="23.306862684752">
        <ele>38</ele>
        <time>2014-06-30T17:21:55Z</time>
      </trkpt>
      <trkpt lat="59.98184618583" lon="23.306879113276">
        <ele>38.4</ele>
        <time>2014-06-30T17:21:57Z</time>
      </trkpt>
      <trkpt lat="59.981935201608" lon="23.306959830973">
        <ele>39.6</ele>
        <time>2014-06-30T17:22:02Z</time>
      </trkpt>
      <trkpt lat="59.982040059177" lon="23.307019174825">
        <ele>40.4</ele>
        <time>2014-06-30T17:22:07Z</time>
      </trkpt>
      <trkpt lat="59.982148604782" lon="23.307094360468">
        <ele>41.6</ele>
        <time>2014-06-30T17:22:12Z</time>
      </trkpt>
      <trkpt lat="59.982252875618" lon="23.307169462292">
        <ele>43</ele>
        <time>2014-06-30T17:22:17Z</time>
      </trkpt>
      <trkpt lat="59.982354045151" lon="23.307207264661">
        <ele>44</ele>
        <time>2014-06-30T17:22:22Z</time>
      </trkpt>
      <trkpt lat="59.982454795589" lon="23.307247330143">
        <ele>45.4</ele>
        <time>2014-06-30T17:22:27Z</time>
      </trkpt>
      <trkpt lat="59.982576919872" lon="23.307297453905">
        <ele>46.4</ele>
        <time>2014-06-30T17:22:33Z</time>
      </trkpt>
      <trkpt lat="59.982694182653" lon="23.307359312327">
        <ele>47.6</ele>
        <time>2014-06-30T17:22:39Z</time>
      </trkpt>
      <trkpt lat="59.982701894001" lon="23.307366017847">
        <ele>47.8</ele>
        <time>2014-06-30T17:22:40Z</time>
      </trkpt>
      <trkpt lat="59.982744641691" lon="23.307396695601">
        <ele>48.6</ele>
        <time>2014-06-30T17:22:46Z</time>
      </trkpt>
      <trkpt lat="59.982833238374" lon="23.307493422727">
        <ele>49.4</ele>
        <time>2014-06-30T17:22:58Z</time>
      </trkpt>
      <trkpt lat="59.982930971328" lon="23.307513958382">
        <ele>49.6</ele>
        <time>2014-06-30T17:23:03Z</time>
      </trkpt>
      <trkpt lat="59.983055442543" lon="23.307581851772">
        <ele>49.6</ele>
        <time>2014-06-30T17:23:08Z</time>
      </trkpt>
      <trkpt lat="59.983175638989" lon="23.307624515643">
        <ele>50.4</ele>
        <time>2014-06-30T17:23:14Z</time>
      </trkpt>
      <trkpt lat="59.98334654593" lon="23.307699785105">
        <ele>51.2</ele>
        <time>2014-06-30T17:23:22Z</time>
      </trkpt>
      <trkpt lat="59.983459869218" lon="23.307760972975">
        <ele>51.4</ele>
        <time>2014-06-30T17:23:27Z</time>
      </trkpt>
      <trkpt lat="59.983611246332" lon="23.307837248265">
        <ele>51.6</ele>
        <time>2014-06-30T17:23:33Z</time>
      </trkpt>
      <trkpt lat="59.983737645384" lon="23.307899944877">
        <ele>51.6</ele>
        <time>2014-06-30T17:23:38Z</time>
      </trkpt>
      <trkpt lat="59.98389053124" lon="23.307968927914">
        <ele>51.6</ele>
        <time>2014-06-30T17:23:44Z</time>
      </trkpt>
      <trkpt lat="59.98399111404" lon="23.308031205431">
        <ele>51.8</ele>
        <time>2014-06-30T17:23:48Z</time>
      </trkpt>
      <trkpt lat="59.984135198901" lon="23.308103876504">
        <ele>51.8</ele>
        <time>2014-06-30T17:23:54Z</time>
      </trkpt>
      <trkpt lat="59.984284731997" lon="23.308222648027">
        <ele>52</ele>
        <time>2014-06-30T17:24:01Z</time>
      </trkpt>
      <trkpt lat="59.984307782222" lon="23.308230359375">
        <ele>52.2</ele>
        <time>2014-06-30T17:24:02Z</time>
      </trkpt>
      <trkpt lat="59.984472318919" lon="23.308323230827">
        <ele>53</ele>
        <time>2014-06-30T17:24:09Z</time>
      </trkpt>
      <trkpt lat="59.984565860923" lon="23.308342593016">
        <ele>53.2</ele>
        <time>2014-06-30T17:24:13Z</time>
      </trkpt>
      <trkpt lat="59.984693768717" lon="23.308354411495">
        <ele>53.4</ele>
        <time>2014-06-30T17:24:18Z</time>
      </trkpt>
      <trkpt lat="59.984716483666" lon="23.308343179749">
        <ele>53.4</ele>
        <time>2014-06-30T17:24:19Z</time>
      </trkpt>
      <trkpt lat="59.984817401742" lon="23.308304203914">
        <ele>53.6</ele>
        <time>2014-06-30T17:24:24Z</time>
      </trkpt>
      <trkpt lat="59.984938939292" lon="23.3082785553">
        <ele>53.6</ele>
        <time>2014-06-30T17:24:29Z</time>
      </trkpt>
      <trkpt lat="59.985082185963" lon="23.308341754826">
        <ele>53.8</ele>
        <time>2014-06-30T17:24:34Z</time>
      </trkpt>
      <trkpt lat="59.985184026048" lon="23.30847552995">
        <ele>53.8</ele>
        <time>2014-06-30T17:24:38Z</time>
      </trkpt>
      <trkpt lat="59.98528863216" lon="23.308650208746">
        <ele>53.8</ele>
        <time>2014-06-30T17:24:43Z</time>
      </trkpt>
      <trkpt lat="59.985361219414" lon="23.309013145016">
        <ele>53.8</ele>
        <time>2014-06-30T17:24:51Z</time>
      </trkpt>
      <trkpt lat="59.985440260731" lon="23.309257309763">
        <ele>53.8</ele>
        <time>2014-06-30T17:24:57Z</time>
      </trkpt>
      <trkpt lat="59.985532964545" lon="23.309417571691">
        <ele>53.8</ele>
        <time>2014-06-30T17:25:02Z</time>
      </trkpt>
      <trkpt lat="59.985624159617" lon="23.309543803105">
        <ele>53.8</ele>
        <time>2014-06-30T17:25:06Z</time>
      </trkpt>
      <trkpt lat="59.985745026615" lon="23.309716302607">
        <ele>53.8</ele>
        <time>2014-06-30T17:25:12Z</time>
      </trkpt>
      <trkpt lat="59.985837059877" lon="23.309874133784">
        <ele>53.8</ele>
        <time>2014-06-30T17:25:17Z</time>
      </trkpt>
      <trkpt lat="59.985928254949" lon="23.310024924165">
        <ele>53.8</ele>
        <time>2014-06-30T17:25:22Z</time>
      </trkpt>
      <trkpt lat="59.986036130002" lon="23.31025752189">
        <ele>53.8</ele>
        <time>2014-06-30T17:25:28Z</time>
      </trkpt>
      <trkpt lat="59.986126151608" lon="23.310452652522">
        <ele>53.4</ele>
        <time>2014-06-30T17:25:33Z</time>
      </trkpt>
      <trkpt lat="59.986144172693" lon="23.310487856502">
        <ele>53.2</ele>
        <time>2014-06-30T17:25:34Z</time>
      </trkpt>
      <trkpt lat="59.986249281719" lon="23.310669995189">
        <ele>52.6</ele>
        <time>2014-06-30T17:25:39Z</time>
      </trkpt>
      <trkpt lat="59.986349864519" lon="23.310840231578">
        <ele>52.2</ele>
        <time>2014-06-30T17:25:44Z</time>
      </trkpt>
      <trkpt lat="59.986455141183" lon="23.311013066356">
        <ele>52</ele>
        <time>2014-06-30T17:25:49Z</time>
      </trkpt>
      <trkpt lat="59.986531332654" lon="23.311147092937">
        <ele>52</ele>
        <time>2014-06-30T17:25:53Z</time>
      </trkpt>
      <trkpt lat="59.986653289299" lon="23.31133208147">
        <ele>51.8</ele>
        <time>2014-06-30T17:25:59Z</time>
      </trkpt>
      <trkpt lat="59.986855125451" lon="23.311644139607">
        <ele>51.8</ele>
        <time>2014-06-30T17:26:11Z</time>
      </trkpt>
      <trkpt lat="59.986995354638" lon="23.311811861426">
        <ele>51.8</ele>
        <time>2014-06-30T17:26:17Z</time>
      </trkpt>
      <trkpt lat="59.987106750089" lon="23.31195653302">
        <ele>51.8</ele>
        <time>2014-06-30T17:26:22Z</time>
      </trkpt>
      <trkpt lat="59.987244632344" lon="23.31211662731">
        <ele>51.8</ele>
        <time>2014-06-30T17:26:28Z</time>
      </trkpt>
      <trkpt lat="59.987403134073" lon="23.31220296088">
        <ele>51.8</ele>
        <time>2014-06-30T17:26:34Z</time>
      </trkpt>
      <trkpt lat="59.987554511187" lon="23.312201787414">
        <ele>51.6</ele>
        <time>2014-06-30T17:26:40Z</time>
      </trkpt>
      <trkpt lat="59.987718796427" lon="23.312165409968">
        <ele>50.8</ele>
        <time>2014-06-30T17:26:46Z</time>
      </trkpt>
      <trkpt lat="59.987859528528" lon="23.312110843799">
        <ele>50.2</ele>
        <time>2014-06-30T17:26:52Z</time>
      </trkpt>
      <trkpt lat="59.988043343595" lon="23.312024929324">
        <ele>50</ele>
        <time>2014-06-30T17:26:59Z</time>
      </trkpt>
      <trkpt lat="59.988224644092" lon="23.312018307623">
        <ele>49.8</ele>
        <time>2014-06-30T17:27:07Z</time>
      </trkpt>
      <trkpt lat="59.988354563542" lon="23.312022079478">
        <ele>49.8</ele>
        <time>2014-06-30T17:27:12Z</time>
      </trkpt>
      <trkpt lat="59.988509963968" lon="23.312038172726">
        <ele>49</ele>
        <time>2014-06-30T17:27:18Z</time>
      </trkpt>
      <trkpt lat="59.98869419813" lon="23.312053343965">
        <ele>48.4</ele>
        <time>2014-06-30T17:27:25Z</time>
      </trkpt>
      <trkpt lat="59.988846329615" lon="23.312036747803">
        <ele>48</ele>
        <time>2014-06-30T17:27:31Z</time>
      </trkpt>
      <trkpt lat="59.9890319887" lon="23.312021576564">
        <ele>48</ele>
        <time>2014-06-30T17:27:38Z</time>
      </trkpt>
      <trkpt lat="59.989211528998" lon="23.311988048964">
        <ele>47.8</ele>
        <time>2014-06-30T17:27:45Z</time>
      </trkpt>
      <trkpt lat="59.989364666311" lon="23.311940188315">
        <ele>46.8</ele>
        <time>2014-06-30T17:27:51Z</time>
      </trkpt>
      <trkpt lat="59.989482599644" lon="23.311859554437">
        <ele>46.4</ele>
        <time>2014-06-30T17:27:56Z</time>
      </trkpt>
      <trkpt lat="59.989657026983" lon="23.311743297484">
        <ele>46</ele>
        <time>2014-06-30T17:28:03Z</time>
      </trkpt>
      <trkpt lat="59.989798261998" lon="23.311644558702">
        <ele>45.8</ele>
        <time>2014-06-30T17:28:09Z</time>
      </trkpt>
      <trkpt lat="59.989953913881" lon="23.311547663938">
        <ele>45.8</ele>
        <time>2014-06-30T17:28:15Z</time>
      </trkpt>
      <trkpt lat="59.990127838306" lon="23.311444901844">
        <ele>44.6</ele>
        <time>2014-06-30T17:28:22Z</time>
      </trkpt>
      <trkpt lat="59.99028172999" lon="23.311415732832">
        <ele>44.2</ele>
        <time>2014-06-30T17:28:28Z</time>
      </trkpt>
      <trkpt lat="59.990392538708" lon="23.311445823853">
        <ele>44</ele>
        <time>2014-06-30T17:28:32Z</time>
      </trkpt>
      <trkpt lat="59.990562439821" lon="23.311478429444">
        <ele>43.8</ele>
        <time>2014-06-30T17:28:38Z</time>
      </trkpt>
      <trkpt lat="59.990682720086" lon="23.311505502981">
        <ele>43.8</ele>
        <time>2014-06-30T17:28:43Z</time>
      </trkpt>
      <trkpt lat="59.990837785236" lon="23.311536096916">
        <ele>43.2</ele>
        <time>2014-06-30T17:28:49Z</time>
      </trkpt>
      <trkpt lat="59.990955467112" lon="23.311579179882">
        <ele>42.6</ele>
        <time>2014-06-30T17:28:54Z</time>
      </trkpt>
      <trkpt lat="59.991063342165" lon="23.31165143186">
        <ele>42.2</ele>
        <time>2014-06-30T17:28:58Z</time>
      </trkpt>
      <trkpt lat="59.991169540838" lon="23.311747404615">
        <ele>42</ele>
        <time>2014-06-30T17:29:02Z</time>
      </trkpt>
      <trkpt lat="59.99130683636" lon="23.311874138943">
        <ele>42</ele>
        <time>2014-06-30T17:29:08Z</time>
      </trkpt>
      <trkpt lat="59.991417645078" lon="23.311939433944">
        <ele>41</ele>
        <time>2014-06-30T17:29:12Z</time>
      </trkpt>
      <trkpt lat="59.991548570356" lon="23.311997017597">
        <ele>40.4</ele>
        <time>2014-06-30T17:29:17Z</time>
      </trkpt>
      <trkpt lat="59.99165217064" lon="23.312054768888">
        <ele>40.2</ele>
        <time>2014-06-30T17:29:21Z</time>
      </trkpt>
      <trkpt lat="59.991752250526" lon="23.312110257066">
        <ele>40</ele>
        <time>2014-06-30T17:29:25Z</time>
      </trkpt>
      <trkpt lat="59.991885774193" lon="23.312247049674">
        <ele>39.8</ele>
        <time>2014-06-30T17:29:31Z</time>
      </trkpt>
      <trkpt lat="59.991997924015" lon="23.312478138657">
        <ele>39.8</ele>
        <time>2014-06-30T17:29:37Z</time>
      </trkpt>
      <trkpt lat="59.991986189355" lon="23.312736804091">
        <ele>39.8</ele>
        <time>2014-06-30T17:29:42Z</time>
      </trkpt>
      <trkpt lat="59.991935059765" lon="23.312960936097">
        <ele>39.6</ele>
        <time>2014-06-30T17:29:47Z</time>
      </trkpt>
      <trkpt lat="59.991884600727" lon="23.313164448629">
        <ele>39.6</ele>
        <time>2014-06-30T17:29:52Z</time>
      </trkpt>
      <trkpt lat="59.991817042613" lon="23.313434513447">
        <ele>39.6</ele>
        <time>2014-06-30T17:29:58Z</time>
      </trkpt>
      <trkpt lat="59.991753507811" lon="23.313682030954">
        <ele>39.6</ele>
        <time>2014-06-30T17:30:04Z</time>
      </trkpt>
      <trkpt lat="59.991740348228" lon="23.313916388878">
        <ele>39.6</ele>
        <time>2014-06-30T17:30:09Z</time>
      </trkpt>
      <trkpt lat="59.991772283267" lon="23.314151836449">
        <ele>39.6</ele>
        <time>2014-06-30T17:30:14Z</time>
      </trkpt>
      <trkpt lat="59.991773875828" lon="23.314199697098">
        <ele>39.6</ele>
        <time>2014-06-30T17:30:15Z</time>
      </trkpt>
      <trkpt lat="59.991766248299" lon="23.314356941542">
        <ele>39.6</ele>
        <time>2014-06-30T17:30:19Z</time>
      </trkpt>
      <trkpt lat="59.991788125058" lon="23.314453249573">
        <ele>39.6</ele>
        <time>2014-06-30T17:30:22Z</time>
      </trkpt>
      <trkpt lat="59.991792064551" lon="23.314707640238">
        <ele>39.6</ele>
        <time>2014-06-30T17:30:27Z</time>
      </trkpt>
      <trkpt lat="59.991789130886" lon="23.314915595177">
        <ele>39.6</ele>
        <time>2014-06-30T17:30:31Z</time>
      </trkpt>
      <trkpt lat="59.991797512786" lon="23.3151433314">
        <ele>39.6</ele>
        <time>2014-06-30T17:30:36Z</time>
      </trkpt>
      <trkpt lat="59.991800865546" lon="23.315187671651">
        <ele>39.6</ele>
        <time>2014-06-30T17:30:37Z</time>
      </trkpt>
      <trkpt lat="59.991823748133" lon="23.315417000435">
        <ele>39.6</ele>
        <time>2014-06-30T17:30:42Z</time>
      </trkpt>
      <trkpt lat="59.991842858865" lon="23.315614310361">
        <ele>39.6</ele>
        <time>2014-06-30T17:30:46Z</time>
      </trkpt>
      <trkpt lat="59.991875296818" lon="23.315781110171">
        <ele>39.6</ele>
        <time>2014-06-30T17:30:50Z</time>
      </trkpt>
      <trkpt lat="59.991936233231" lon="23.316041200528">
        <ele>39.6</ele>
        <time>2014-06-30T17:30:56Z</time>
      </trkpt>
      <trkpt lat="59.992010832141" lon="23.316296429383">
        <ele>39.6</ele>
        <time>2014-06-30T17:31:02Z</time>
      </trkpt>
      <trkpt lat="59.992044275922" lon="23.316457110406">
        <ele>39.6</ele>
        <time>2014-06-30T17:31:07Z</time>
      </trkpt>
      <trkpt lat="59.992066655595" lon="23.316774113864">
        <ele>39.6</ele>
        <time>2014-06-30T17:31:13Z</time>
      </trkpt>
      <trkpt lat="59.992083754671" lon="23.31703847899">
        <ele>39.6</ele>
        <time>2014-06-30T17:31:18Z</time>
      </trkpt>
      <trkpt lat="59.99213412989" lon="23.317290941818">
        <ele>39.6</ele>
        <time>2014-06-30T17:31:23Z</time>
      </trkpt>
      <trkpt lat="59.992205962773" lon="23.317510128503">
        <ele>39.6</ele>
        <time>2014-06-30T17:31:28Z</time>
      </trkpt>
      <trkpt lat="59.992304031003" lon="23.317762088417">
        <ele>39.6</ele>
        <time>2014-06-30T17:31:34Z</time>
      </trkpt>
      <trkpt lat="59.992361614656" lon="23.317918662309">
        <ele>39.6</ele>
        <time>2014-06-30T17:31:38Z</time>
      </trkpt>
      <trkpt lat="59.992442164715" lon="23.318138519546">
        <ele>39.6</ele>
        <time>2014-06-30T17:31:43Z</time>
      </trkpt>
      <trkpt lat="59.992511063933" lon="23.31834270263">
        <ele>39.6</ele>
        <time>2014-06-30T17:31:48Z</time>
      </trkpt>
      <trkpt lat="59.992552219062" lon="23.318475555745">
        <ele>39.6</ele>
        <time>2014-06-30T17:31:51Z</time>
      </trkpt>
      <trkpt lat="59.992653891509" lon="23.318740759061">
        <ele>39.6</ele>
        <time>2014-06-30T17:31:58Z</time>
      </trkpt>
      <trkpt lat="59.992745002762" lon="23.319092798861">
        <ele>40.4</ele>
        <time>2014-06-30T17:32:07Z</time>
      </trkpt>
      <trkpt lat="59.99274768497" lon="23.319124314805">
        <ele>40.4</ele>
        <time>2014-06-30T17:32:08Z</time>
      </trkpt>
      <trkpt lat="59.992758413802" lon="23.319415837287">
        <ele>41</ele>
        <time>2014-06-30T17:32:14Z</time>
      </trkpt>
      <trkpt lat="59.992803927519" lon="23.319655727265">
        <ele>41.4</ele>
        <time>2014-06-30T17:32:19Z</time>
      </trkpt>
      <trkpt lat="59.99287844261" lon="23.319901484573">
        <ele>41.6</ele>
        <time>2014-06-30T17:32:24Z</time>
      </trkpt>
      <trkpt lat="59.992984557464" lon="23.320106338209">
        <ele>41.6</ele>
        <time>2014-06-30T17:32:30Z</time>
      </trkpt>
      <trkpt lat="59.993094360354" lon="23.320327117455">
        <ele>42.4</ele>
        <time>2014-06-30T17:32:36Z</time>
      </trkpt>
      <trkpt lat="59.993195781344" lon="23.320514788196">
        <ele>43</ele>
        <time>2014-06-30T17:32:41Z</time>
      </trkpt>
      <trkpt lat="59.993287982244" lon="23.32070975119">
        <ele>43.2</ele>
        <time>2014-06-30T17:32:46Z</time>
      </trkpt>
      <trkpt lat="59.993423349929" lon="23.320983587863">
        <ele>43.6</ele>
        <time>2014-06-30T17:32:53Z</time>
      </trkpt>
      <trkpt lat="59.993522675444" lon="23.321280307123">
        <ele>43</ele>
        <time>2014-06-30T17:33:00Z</time>
      </trkpt>
      <trkpt lat="59.993574475586" lon="23.321552467416">
        <ele>42.4</ele>
        <time>2014-06-30T17:33:06Z</time>
      </trkpt>
      <trkpt lat="59.993624850805" lon="23.321771905558">
        <ele>42.2</ele>
        <time>2014-06-30T17:33:11Z</time>
      </trkpt>
      <trkpt lat="59.993684027019" lon="23.322006263482">
        <ele>42</ele>
        <time>2014-06-30T17:33:16Z</time>
      </trkpt>
      <trkpt lat="59.993782430525" lon="23.32226543183">
        <ele>41</ele>
        <time>2014-06-30T17:33:22Z</time>
      </trkpt>
      <trkpt lat="59.993840181816" lon="23.322406666845">
        <ele>40.6</ele>
        <time>2014-06-30T17:33:25Z</time>
      </trkpt>
      <trkpt lat="59.993844540404" lon="23.322636833819">
        <ele>40.2</ele>
        <time>2014-06-30T17:33:30Z</time>
      </trkpt>
      <trkpt lat="59.993826016405" lon="23.322658207664">
        <ele>40.2</ele>
        <time>2014-06-30T17:33:31Z</time>
      </trkpt>
      <trkpt lat="59.99372333813" lon="23.322817882859">
        <ele>40</ele>
        <time>2014-06-30T17:33:36Z</time>
      </trkpt>
      <trkpt lat="59.993677321499" lon="23.322970014344">
        <ele>39.6</ele>
        <time>2014-06-30T17:33:40Z</time>
      </trkpt>
      <trkpt lat="59.993608338462" lon="23.323139161086">
        <ele>38.8</ele>
        <time>2014-06-30T17:33:44Z</time>
      </trkpt>
      <trkpt lat="59.993526279661" lon="23.323359605056">
        <ele>38.4</ele>
        <time>2014-06-30T17:33:49Z</time>
      </trkpt>
      <trkpt lat="59.993441873928" lon="23.323576109533">
        <ele>37.2</ele>
        <time>2014-06-30T17:33:54Z</time>
      </trkpt>
      <trkpt lat="59.993382530076" lon="23.323794793304">
        <ele>36.6</ele>
        <time>2014-06-30T17:33:59Z</time>
      </trkpt>
      <trkpt lat="59.993352941969" lon="23.323890933697">
        <ele>36.4</ele>
        <time>2014-06-30T17:34:01Z</time>
      </trkpt>
      <trkpt lat="59.993334837065" lon="23.323956647793">
        <ele>36.2</ele>
        <time>2014-06-30T17:34:03Z</time>
      </trkpt>
      <trkpt lat="59.993358306385" lon="23.324284380083">
        <ele>35.8</ele>
        <time>2014-06-30T17:34:11Z</time>
      </trkpt>
      <trkpt lat="59.993365431" lon="23.3243298938">
        <ele>35.8</ele>
        <time>2014-06-30T17:34:12Z</time>
      </trkpt>
      <trkpt lat="59.993356294729" lon="23.324596270582">
        <ele>35.6</ele>
        <time>2014-06-30T17:34:18Z</time>
      </trkpt>
      <trkpt lat="59.993310697193" lon="23.324808584109">
        <ele>35.6</ele>
        <time>2014-06-30T17:34:23Z</time>
      </trkpt>
      <trkpt lat="59.99325562811" lon="23.324942107776">
        <ele>35.4</ele>
        <time>2014-06-30T17:34:26Z</time>
      </trkpt>
      <trkpt lat="59.993141718089" lon="23.325148134878">
        <ele>35.4</ele>
        <time>2014-06-30T17:34:31Z</time>
      </trkpt>
      <trkpt lat="59.993071058672" lon="23.3252602847">
        <ele>35</ele>
        <time>2014-06-30T17:34:34Z</time>
      </trkpt>
      <trkpt lat="59.993001991816" lon="23.325355083989">
        <ele>34.6</ele>
        <time>2014-06-30T17:34:37Z</time>
      </trkpt>
      <trkpt lat="59.992859667154" lon="23.325575695597">
        <ele>34</ele>
        <time>2014-06-30T17:34:43Z</time>
      </trkpt>
      <trkpt lat="59.992829659952" lon="23.325636212915">
        <ele>34</ele>
        <time>2014-06-30T17:34:45Z</time>
      </trkpt>
      <trkpt lat="59.992747936427" lon="23.32583276847">
        <ele>33.6</ele>
        <time>2014-06-30T17:34:51Z</time>
      </trkpt>
      <trkpt lat="59.992732010817" lon="23.325859842007">
        <ele>33.6</ele>
        <time>2014-06-30T17:34:52Z</time>
      </trkpt>
      <trkpt lat="59.99260100172" lon="23.326017505546">
        <ele>33.6</ele>
        <time>2014-06-30T17:34:58Z</time>
      </trkpt>
      <trkpt lat="59.992511147752" lon="23.326132253757">
        <ele>33.6</ele>
        <time>2014-06-30T17:35:01Z</time>
      </trkpt>
      <trkpt lat="59.992456665402" lon="23.326261251198">
        <ele>33.4</ele>
        <time>2014-06-30T17:35:04Z</time>
      </trkpt>
      <trkpt lat="59.99241240897" lon="23.326361750179">
        <ele>33.4</ele>
        <time>2014-06-30T17:35:08Z</time>
      </trkpt>
      <trkpt lat="59.992394387885" lon="23.326378178703">
        <ele>33.4</ele>
        <time>2014-06-30T17:35:15Z</time>
      </trkpt>
      <trkpt lat="59.992382988501" lon="23.326342723266">
        <ele>33.4</ele>
        <time>2014-06-30T17:35:20Z</time>
      </trkpt>
      <trkpt lat="59.99237133766" lon="23.326351943356">
        <ele>33.4</ele>
        <time>2014-06-30T17:35:21Z</time>
      </trkpt>
      <trkpt lat="59.992304701555" lon="23.326502817556">
        <ele>33.4</ele>
        <time>2014-06-30T17:35:26Z</time>
      </trkpt>
      <trkpt lat="59.992226666066" lon="23.326659139991">
        <ele>33.4</ele>
        <time>2014-06-30T17:35:30Z</time>
      </trkpt>
      <trkpt lat="59.992133040243" lon="23.326806829069">
        <ele>33.4</ele>
        <time>2014-06-30T17:35:35Z</time>
      </trkpt>
      <trkpt lat="59.992073947848" lon="23.326873716631">
        <ele>34</ele>
        <time>2014-06-30T17:35:38Z</time>
      </trkpt>
      <trkpt lat="59.992019633136" lon="23.32710765546">
        <ele>34.6</ele>
        <time>2014-06-30T17:35:43Z</time>
      </trkpt>
      <trkpt lat="59.992014603996" lon="23.327335810778">
        <ele>35</ele>
        <time>2014-06-30T17:35:48Z</time>
      </trkpt>
      <trkpt lat="59.991985015889" lon="23.327593470384">
        <ele>35.2</ele>
        <time>2014-06-30T17:35:54Z</time>
      </trkpt>
      <trkpt lat="59.991923325105" lon="23.327825313738">
        <ele>36.2</ele>
        <time>2014-06-30T17:35:59Z</time>
      </trkpt>
      <trkpt lat="59.991865406176" lon="23.328005608407">
        <ele>36.6</ele>
        <time>2014-06-30T17:36:04Z</time>
      </trkpt>
      <trkpt lat="59.99180304484" lon="23.328088253941">
        <ele>37</ele>
        <time>2014-06-30T17:36:08Z</time>
      </trkpt>
      <trkpt lat="59.991733139794" lon="23.328237870856">
        <ele>37.2</ele>
        <time>2014-06-30T17:36:13Z</time>
      </trkpt>
      <trkpt lat="59.991694163959" lon="23.328291263559">
        <ele>37.2</ele>
        <time>2014-06-30T17:36:15Z</time>
      </trkpt>
      <trkpt lat="59.991583019965" lon="23.328433588221">
        <ele>37.4</ele>
        <time>2014-06-30T17:36:21Z</time>
      </trkpt>
      <trkpt lat="59.991566842898" lon="23.328451022573">
        <ele>37.4</ele>
        <time>2014-06-30T17:36:22Z</time>
      </trkpt>
      <trkpt lat="59.99149123816" lon="23.328608099379">
        <ele>37.4</ele>
        <time>2014-06-30T17:36:27Z</time>
      </trkpt>
      <trkpt lat="59.991422841856" lon="23.328712370215">
        <ele>37.4</ele>
        <time>2014-06-30T17:36:31Z</time>
      </trkpt>
      <trkpt lat="59.991372885732" lon="23.328797362681">
        <ele>37.4</ele>
        <time>2014-06-30T17:36:34Z</time>
      </trkpt>
      <trkpt lat="59.991329886585" lon="23.32886198713">
        <ele>37.4</ele>
        <time>2014-06-30T17:36:37Z</time>
      </trkpt>
      <trkpt lat="59.991263501937" lon="23.329022584334">
        <ele>37.4</ele>
        <time>2014-06-30T17:36:42Z</time>
      </trkpt>
      <trkpt lat="59.991209773958" lon="23.329213356378">
        <ele>37.4</ele>
        <time>2014-06-30T17:36:47Z</time>
      </trkpt>
      <trkpt lat="59.991154034323" lon="23.329384682414">
        <ele>37.4</ele>
        <time>2014-06-30T17:36:51Z</time>
      </trkpt>
      <trkpt lat="59.991133750125" lon="23.329481493359">
        <ele>37.4</ele>
        <time>2014-06-30T17:36:53Z</time>
      </trkpt>
      <trkpt lat="59.991070299142" lon="23.329797490989">
        <ele>37.4</ele>
        <time>2014-06-30T17:36:59Z</time>
      </trkpt>
      <trkpt lat="59.991059151215" lon="23.329890278622">
        <ele>37.4</ele>
        <time>2014-06-30T17:37:01Z</time>
      </trkpt>
      <trkpt lat="59.991088487865" lon="23.330067891083">
        <ele>37.4</ele>
        <time>2014-06-30T17:37:05Z</time>
      </trkpt>
      <trkpt lat="59.991162080947" lon="23.33038916931">
        <ele>37.4</ele>
        <time>2014-06-30T17:37:12Z</time>
      </trkpt>
      <trkpt lat="59.991179599118" lon="23.330642889423">
        <ele>37.4</ele>
        <time>2014-06-30T17:37:17Z</time>
      </trkpt>
      <trkpt lat="59.991149005183" lon="23.330861824651">
        <ele>37.4</ele>
        <time>2014-06-30T17:37:22Z</time>
      </trkpt>
      <trkpt lat="59.991071724065" lon="23.330957965044">
        <ele>37.4</ele>
        <time>2014-06-30T17:37:26Z</time>
      </trkpt>
      <trkpt lat="59.990936524018" lon="23.331048070469">
        <ele>37.4</ele>
        <time>2014-06-30T17:37:32Z</time>
      </trkpt>
      <trkpt lat="59.990815573201" lon="23.331088303589">
        <ele>37.4</ele>
        <time>2014-06-30T17:37:37Z</time>
      </trkpt>
      <trkpt lat="59.990702752827" lon="23.331165417069">
        <ele>36.8</ele>
        <time>2014-06-30T17:37:42Z</time>
      </trkpt>
      <trkpt lat="59.990586160598" lon="23.33126591605">
        <ele>36.2</ele>
        <time>2014-06-30T17:37:47Z</time>
      </trkpt>
      <trkpt lat="59.9905658764" lon="23.331296593804">
        <ele>36.2</ele>
        <time>2014-06-30T17:37:48Z</time>
      </trkpt>
      <trkpt lat="59.990490942214" lon="23.331533801574">
        <ele>36</ele>
        <time>2014-06-30T17:37:53Z</time>
      </trkpt>
      <trkpt lat="59.990412152354" lon="23.331828592997">
        <ele>35.6</ele>
        <time>2014-06-30T17:38:00Z</time>
      </trkpt>
      <trkpt lat="59.99036303442" lon="23.332058173238">
        <ele>35.6</ele>
        <time>2014-06-30T17:38:05Z</time>
      </trkpt>
      <trkpt lat="59.99031861035" lon="23.332330752626">
        <ele>35.6</ele>
        <time>2014-06-30T17:38:11Z</time>
      </trkpt>
      <trkpt lat="59.990265469104" lon="23.332567038387">
        <ele>35.6</ele>
        <time>2014-06-30T17:38:16Z</time>
      </trkpt>
      <trkpt lat="59.990193300945" lon="23.332756888422">
        <ele>35.6</ele>
        <time>2014-06-30T17:38:22Z</time>
      </trkpt>
      <trkpt lat="59.990135801111" lon="23.332892507564">
        <ele>35.6</ele>
        <time>2014-06-30T17:38:26Z</time>
      </trkpt>
      <trkpt lat="59.990052820301" lon="23.3331225069">
        <ele>35.4</ele>
        <time>2014-06-30T17:38:32Z</time>
      </trkpt>
      <trkpt lat="59.989980652142" lon="23.333310512917">
        <ele>35.4</ele>
        <time>2014-06-30T17:38:37Z</time>
      </trkpt>
      <trkpt lat="59.989926505068" lon="23.33342257892">
        <ele>35.4</ele>
        <time>2014-06-30T17:38:41Z</time>
      </trkpt>
      <trkpt lat="59.989828772114" lon="23.333574123672">
        <ele>35.4</ele>
        <time>2014-06-30T17:38:47Z</time>
      </trkpt>
      <trkpt lat="59.989789796279" lon="23.333623157787">
        <ele>35.4</ele>
        <time>2014-06-30T17:38:49Z</time>
      </trkpt>
      <trkpt lat="59.989666330892" lon="23.333865227059">
        <ele>35.4</ele>
        <time>2014-06-30T17:38:56Z</time>
      </trkpt>
      <trkpt lat="59.989591229068" lon="23.334018280553">
        <ele>35.4</ele>
        <time>2014-06-30T17:39:01Z</time>
      </trkpt>
      <trkpt lat="59.989532723406" lon="23.334160772853">
        <ele>35.4</ele>
        <time>2014-06-30T17:39:05Z</time>
      </trkpt>
      <trkpt lat="59.989421076498" lon="23.334395298415">
        <ele>36.4</ele>
        <time>2014-06-30T17:39:11Z</time>
      </trkpt>
      <trkpt lat="59.98930104769" lon="23.334582298604">
        <ele>37</ele>
        <time>2014-06-30T17:39:17Z</time>
      </trkpt>
      <trkpt lat="59.98916442272" lon="23.334761671264">
        <ele>37.2</ele>
        <time>2014-06-30T17:39:23Z</time>
      </trkpt>
      <trkpt lat="59.989100636461" lon="23.334847418101">
        <ele>37.4</ele>
        <time>2014-06-30T17:39:26Z</time>
      </trkpt>
      <trkpt lat="59.989034670908" lon="23.334934254585">
        <ele>37.4</ele>
        <time>2014-06-30T17:39:29Z</time>
      </trkpt>
      <trkpt lat="59.98893727323" lon="23.335058809619">
        <ele>37.4</ele>
        <time>2014-06-30T17:39:34Z</time>
      </trkpt>
      <trkpt lat="59.988906595476" lon="23.335099042739">
        <ele>37.6</ele>
        <time>2014-06-30T17:39:36Z</time>
      </trkpt>
      <trkpt lat="59.988856471714" lon="23.335195266951">
        <ele>37.6</ele>
        <time>2014-06-30T17:39:40Z</time>
      </trkpt>
      <trkpt lat="59.988843479769" lon="23.335248827292">
        <ele>37.6</ele>
        <time>2014-06-30T17:39:41Z</time>
      </trkpt>
      <trkpt lat="59.988826464512" lon="23.335340441459">
        <ele>37.6</ele>
        <time>2014-06-30T17:39:43Z</time>
      </trkpt>
      <trkpt lat="59.988900979603" lon="23.335513276237">
        <ele>37.6</ele>
        <time>2014-06-30T17:39:48Z</time>
      </trkpt>
      <trkpt lat="59.988964179129" lon="23.335581840179">
        <ele>38.2</ele>
        <time>2014-06-30T17:39:51Z</time>
      </trkpt>
      <trkpt lat="59.989101307013" lon="23.335757943898">
        <ele>38.8</ele>
        <time>2014-06-30T17:39:57Z</time>
      </trkpt>
      <trkpt lat="59.989214630301" lon="23.335912589953">
        <ele>39.2</ele>
        <time>2014-06-30T17:40:03Z</time>
      </trkpt>
      <trkpt lat="59.989283529519" lon="23.335995570763">
        <ele>39.4</ele>
        <time>2014-06-30T17:40:06Z</time>
      </trkpt>
      <trkpt lat="59.989444964913" lon="23.336221043873">
        <ele>39.4</ele>
        <time>2014-06-30T17:40:13Z</time>
      </trkpt>
      <trkpt lat="59.989555605993" lon="23.336393208099">
        <ele>39.6</ele>
        <time>2014-06-30T17:40:18Z</time>
      </trkpt>
      <trkpt lat="59.989653422766" lon="23.336580543564">
        <ele>39.6</ele>
        <time>2014-06-30T17:40:23Z</time>
      </trkpt>
      <trkpt lat="59.989734559558" lon="23.336669559342">
        <ele>39.6</ele>
        <time>2014-06-30T17:40:27Z</time>
      </trkpt>
      <trkpt lat="59.989830532313" lon="23.336812554556">
        <ele>39.6</ele>
        <time>2014-06-30T17:40:32Z</time>
      </trkpt>
      <trkpt lat="59.989909322173" lon="23.336968876991">
        <ele>39.6</ele>
        <time>2014-06-30T17:40:36Z</time>
      </trkpt>
      <trkpt lat="59.989948717103" lon="23.337051438706">
        <ele>39.6</ele>
        <time>2014-06-30T17:40:39Z</time>
      </trkpt>
      <trkpt lat="59.990086180263" lon="23.337176580473">
        <ele>39.8</ele>
        <time>2014-06-30T17:40:45Z</time>
      </trkpt>
      <trkpt lat="59.990170166901" lon="23.33736458649">
        <ele>40.6</ele>
        <time>2014-06-30T17:40:50Z</time>
      </trkpt>
      <trkpt lat="59.990206376709" lon="23.337557286371">
        <ele>41</ele>
        <time>2014-06-30T17:40:55Z</time>
      </trkpt>
      <trkpt lat="59.990226157993" lon="23.337778819988">
        <ele>41.4</ele>
        <time>2014-06-30T17:41:00Z</time>
      </trkpt>
      <trkpt lat="59.99023646773" lon="23.337853418898">
        <ele>41.4</ele>
        <time>2014-06-30T17:41:02Z</time>
      </trkpt>
      <trkpt lat="59.990275946479" lon="23.338192885848">
        <ele>41.6</ele>
        <time>2014-06-30T17:41:11Z</time>
      </trkpt>
      <trkpt lat="59.990289022243" lon="23.338376365639">
        <ele>42.4</ele>
        <time>2014-06-30T17:41:15Z</time>
      </trkpt>
      <trkpt lat="59.990320873463" lon="23.338565209846">
        <ele>43</ele>
        <time>2014-06-30T17:41:20Z</time>
      </trkpt>
      <trkpt lat="59.990327914259" lon="23.33861516597">
        <ele>43</ele>
        <time>2014-06-30T17:41:21Z</time>
      </trkpt>
      <trkpt lat="59.990350545389" lon="23.338823456185">
        <ele>43.4</ele>
        <time>2014-06-30T17:41:26Z</time>
      </trkpt>
      <trkpt lat="59.990386168464" lon="23.339024370328">
        <ele>43.6</ele>
        <time>2014-06-30T17:41:30Z</time>
      </trkpt>
      <trkpt lat="59.990432520371" lon="23.339282532848">
        <ele>43.6</ele>
        <time>2014-06-30T17:41:35Z</time>
      </trkpt>
      <trkpt lat="59.990452469293" lon="23.33955477696">
        <ele>43.8</ele>
        <time>2014-06-30T17:41:40Z</time>
      </trkpt>
      <trkpt lat="59.990480967753" lon="23.339747812117">
        <ele>43.8</ele>
        <time>2014-06-30T17:41:44Z</time>
      </trkpt>
      <trkpt lat="59.990515249724" lon="23.339981667127">
        <ele>43.8</ele>
        <time>2014-06-30T17:41:49Z</time>
      </trkpt>
      <trkpt lat="59.990535533922" lon="23.34010798236">
        <ele>43.8</ele>
        <time>2014-06-30T17:41:52Z</time>
      </trkpt>
      <trkpt lat="59.990569564436" lon="23.340409227846">
        <ele>43.8</ele>
        <time>2014-06-30T17:41:58Z</time>
      </trkpt>
      <trkpt lat="59.990594291041" lon="23.340638975725">
        <ele>43.8</ele>
        <time>2014-06-30T17:42:03Z</time>
      </trkpt>
      <trkpt lat="59.990615748705" lon="23.340942735781">
        <ele>43.8</ele>
        <time>2014-06-30T17:42:09Z</time>
      </trkpt>
      <trkpt lat="59.990619604379" lon="23.341131999083">
        <ele>43.8</ele>
        <time>2014-06-30T17:42:13Z</time>
      </trkpt>
      <trkpt lat="59.990624633519" lon="23.34141136781">
        <ele>43.8</ele>
        <time>2014-06-30T17:42:18Z</time>
      </trkpt>
      <trkpt lat="59.990631171401" lon="23.341529384962">
        <ele>43.8</ele>
        <time>2014-06-30T17:42:21Z</time>
      </trkpt>
      <trkpt lat="59.990620694026" lon="23.341765251628">
        <ele>43.8</ele>
        <time>2014-06-30T17:42:26Z</time>
      </trkpt>
      <trkpt lat="59.990619352922" lon="23.341919394769">
        <ele>43.8</ele>
        <time>2014-06-30T17:42:29Z</time>
      </trkpt>
      <trkpt lat="59.990662854983" lon="23.342188118483">
        <ele>43.8</ele>
        <time>2014-06-30T17:42:34Z</time>
      </trkpt>
      <trkpt lat="59.990703674836" lon="23.342416860534">
        <ele>43.8</ele>
        <time>2014-06-30T17:42:39Z</time>
      </trkpt>
      <trkpt lat="59.990752373675" lon="23.342662366385">
        <ele>43.8</ele>
        <time>2014-06-30T17:42:44Z</time>
      </trkpt>
      <trkpt lat="59.990762767231" lon="23.34275582457">
        <ele>43.8</ele>
        <time>2014-06-30T17:42:46Z</time>
      </trkpt>
      <trkpt lat="59.990821189074" lon="23.34303913279">
        <ele>43.8</ele>
        <time>2014-06-30T17:42:52Z</time>
      </trkpt>
      <trkpt lat="59.99091288706" lon="23.343349011633">
        <ele>43.8</ele>
        <time>2014-06-30T17:42:59Z</time>
      </trkpt>
      <trkpt lat="59.9909682076" lon="23.343534335442">
        <ele>43.8</ele>
        <time>2014-06-30T17:43:03Z</time>
      </trkpt>
      <trkpt lat="59.990991425463" lon="23.343685880194">
        <ele>43.8</ele>
        <time>2014-06-30T17:43:07Z</time>
      </trkpt>
      <trkpt lat="59.991047165098" lon="23.343863492655">
        <ele>43.8</ele>
        <time>2014-06-30T17:43:12Z</time>
      </trkpt>
      <trkpt lat="59.991071724065" lon="23.343957118478">
        <ele>43.8</ele>
        <time>2014-06-30T17:43:14Z</time>
      </trkpt>
      <trkpt lat="59.991127212243" lon="23.344223411441">
        <ele>43.8</ele>
        <time>2014-06-30T17:43:20Z</time>
      </trkpt>
      <trkpt lat="59.991173899426" lon="23.344519879244">
        <ele>43.8</ele>
        <time>2014-06-30T17:43:26Z</time>
      </trkpt>
      <trkpt lat="59.991233578554" lon="23.344746274363">
        <ele>43.8</ele>
        <time>2014-06-30T17:43:31Z</time>
      </trkpt>
      <trkpt lat="59.991304405609" lon="23.345032432429">
        <ele>43.8</ele>
        <time>2014-06-30T17:43:37Z</time>
      </trkpt>
      <trkpt lat="59.991327372015" lon="23.345123292225">
        <ele>43.8</ele>
        <time>2014-06-30T17:43:39Z</time>
      </trkpt>
      <trkpt lat="59.991396103595" lon="23.345326218024">
        <ele>43.8</ele>
        <time>2014-06-30T17:43:44Z</time>
      </trkpt>
      <trkpt lat="59.991432816317" lon="23.345413389784">
        <ele>43.8</ele>
        <time>2014-06-30T17:43:46Z</time>
      </trkpt>
      <trkpt lat="59.991525771588" lon="23.345651519563">
        <ele>43.8</ele>
        <time>2014-06-30T17:43:52Z</time>
      </trkpt>
      <trkpt lat="59.991539517904" lon="23.345701391868">
        <ele>43.8</ele>
        <time>2014-06-30T17:43:53Z</time>
      </trkpt>
      <trkpt lat="59.991582433232" lon="23.345965673175">
        <ele>43.8</ele>
        <time>2014-06-30T17:43:58Z</time>
      </trkpt>
      <trkpt lat="59.991599029394" lon="23.345998697861">
        <ele>43.8</ele>
        <time>2014-06-30T17:43:59Z</time>
      </trkpt>
      <trkpt lat="59.991672538657" lon="23.346072458581">
        <ele>43.2</ele>
        <time>2014-06-30T17:44:03Z</time>
      </trkpt>
      <trkpt lat="59.991838751734" lon="23.346204389687">
        <ele>42.6</ele>
        <time>2014-06-30T17:44:09Z</time>
      </trkpt>
      <trkpt lat="59.991922570734" lon="23.346268930317">
        <ele>42.4</ele>
        <time>2014-06-30T17:44:13Z</time>
      </trkpt>
      <trkpt lat="59.992089119087" lon="23.346347803996">
        <ele>42</ele>
        <time>2014-06-30T17:44:19Z</time>
      </trkpt>
      <trkpt lat="59.992254242517" lon="23.346399017405">
        <ele>42</ele>
        <time>2014-06-30T17:44:25Z</time>
      </trkpt>
      <trkpt lat="59.992418108662" lon="23.346454924678">
        <ele>41.8</ele>
        <time>2014-06-30T17:44:31Z</time>
      </trkpt>
      <trkpt lat="59.992536209633" lon="23.346571349269">
        <ele>41.8</ele>
        <time>2014-06-30T17:44:36Z</time>
      </trkpt>
      <trkpt lat="59.99254735756" lon="23.346601188833">
        <ele>41.8</ele>
        <time>2014-06-30T17:44:37Z</time>
      </trkpt>
      <trkpt lat="59.992587003947" lon="23.346716523777">
        <ele>41.8</ele>
        <time>2014-06-30T17:44:40Z</time>
      </trkpt>
      <trkpt lat="59.992674846259" lon="23.347009052087">
        <ele>41.8</ele>
        <time>2014-06-30T17:44:47Z</time>
      </trkpt>
      <trkpt lat="59.992742739649" lon="23.347280038914">
        <ele>41.8</ele>
        <time>2014-06-30T17:44:53Z</time>
      </trkpt>
      <trkpt lat="59.99281557836" lon="23.347575500889">
        <ele>40.8</ele>
        <time>2014-06-30T17:44:59Z</time>
      </trkpt>
      <trkpt lat="59.992909707097" lon="23.347781192715">
        <ele>40.2</ele>
        <time>2014-06-30T17:45:05Z</time>
      </trkpt>
      <trkpt lat="59.993011128087" lon="23.347962325574">
        <ele>40</ele>
        <time>2014-06-30T17:45:10Z</time>
      </trkpt>
      <trkpt lat="59.993155799681" lon="23.348132226687">
        <ele>39.2</ele>
        <time>2014-06-30T17:45:16Z</time>
      </trkpt>
      <trkpt lat="59.993326287527" lon="23.348212525289">
        <ele>38.4</ele>
        <time>2014-06-30T17:45:22Z</time>
      </trkpt>
      <trkpt lat="59.993408597785" lon="23.348229456727">
        <ele>38.2</ele>
        <time>2014-06-30T17:45:25Z</time>
      </trkpt>
      <trkpt lat="59.993485627446" lon="23.348245298518">
        <ele>38</ele>
        <time>2014-06-30T17:45:28Z</time>
      </trkpt>
      <trkpt lat="59.993667849952" lon="23.348290728416">
        <ele>37.8</ele>
        <time>2014-06-30T17:45:35Z</time>
      </trkpt>
      <trkpt lat="59.993798439954" lon="23.348315455021">
        <ele>37.8</ele>
        <time>2014-06-30T17:45:40Z</time>
      </trkpt>
      <trkpt lat="59.993958366606" lon="23.348328195509">
        <ele>37.8</ele>
        <time>2014-06-30T17:45:46Z</time>
      </trkpt>
      <trkpt lat="59.994107145331" lon="23.348293578262">
        <ele>37.6</ele>
        <time>2014-06-30T17:45:52Z</time>
      </trkpt>
      <trkpt lat="59.994208147226" lon="23.348220571913">
        <ele>37.6</ele>
        <time>2014-06-30T17:45:56Z</time>
      </trkpt>
      <trkpt lat="59.99437880271" lon="23.348087215884">
        <ele>37.6</ele>
        <time>2014-06-30T17:46:03Z</time>
      </trkpt>
      <trkpt lat="59.994518528983" lon="23.348012197879">
        <ele>37.6</ele>
        <time>2014-06-30T17:46:09Z</time>
      </trkpt>
      <trkpt lat="59.994644173664" lon="23.348024938367">
        <ele>37.6</ele>
        <time>2014-06-30T17:46:14Z</time>
      </trkpt>
      <trkpt lat="59.994794461131" lon="23.348072547559">
        <ele>37</ele>
        <time>2014-06-30T17:46:20Z</time>
      </trkpt>
      <trkpt lat="59.99492194983" lon="23.348119150923">
        <ele>36.4</ele>
        <time>2014-06-30T17:46:25Z</time>
      </trkpt>
      <trkpt lat="59.995050863452" lon="23.348164916097">
        <ele>36</ele>
        <time>2014-06-30T17:46:30Z</time>
      </trkpt>
      <trkpt lat="59.995173825925" lon="23.348232055116">
        <ele>36</ele>
        <time>2014-06-30T17:46:35Z</time>
      </trkpt>
      <trkpt lat="59.995261584418" lon="23.348293662081">
        <ele>35.8</ele>
        <time>2014-06-30T17:46:39Z</time>
      </trkpt>
      <trkpt lat="59.99537457243" lon="23.34839516689">
        <ele>35.8</ele>
        <time>2014-06-30T17:46:44Z</time>
      </trkpt>
      <trkpt lat="59.995458475249" lon="23.34850748435">
        <ele>35.6</ele>
        <time>2014-06-30T17:46:48Z</time>
      </trkpt>
      <trkpt lat="59.995557046393" lon="23.348650060469">
        <ele>35.6</ele>
        <time>2014-06-30T17:46:53Z</time>
      </trkpt>
      <trkpt lat="59.995662406876" lon="23.348811831139">
        <ele>35.6</ele>
        <time>2014-06-30T17:46:58Z</time>
      </trkpt>
      <trkpt lat="59.995796768733" lon="23.349051302022">
        <ele>35.6</ele>
        <time>2014-06-30T17:47:05Z</time>
      </trkpt>
      <trkpt lat="59.995927358735" lon="23.349244085722">
        <ele>35.6</ele>
        <time>2014-06-30T17:47:11Z</time>
      </trkpt>
      <trkpt lat="59.996066498275" lon="23.349404180012">
        <ele>35.6</ele>
        <time>2014-06-30T17:47:17Z</time>
      </trkpt>
      <trkpt lat="59.996195579535" lon="23.349604842698">
        <ele>35.6</ele>
        <time>2014-06-30T17:47:23Z</time>
      </trkpt>
      <trkpt lat="59.996283757123" lon="23.34978907686">
        <ele>35.6</ele>
        <time>2014-06-30T17:47:28Z</time>
      </trkpt>
      <trkpt lat="59.996360870603" lon="23.349997031799">
        <ele>35.4</ele>
        <time>2014-06-30T17:47:33Z</time>
      </trkpt>
      <trkpt lat="59.996445611612" lon="23.350239855442">
        <ele>34.6</ele>
        <time>2014-06-30T17:47:39Z</time>
      </trkpt>
      <trkpt lat="59.996593552147" lon="23.350468597493">
        <ele>34</ele>
        <time>2014-06-30T17:47:46Z</time>
      </trkpt>
      <trkpt lat="59.996730847669" lon="23.350624584652">
        <ele>33.8</ele>
        <time>2014-06-30T17:47:52Z</time>
      </trkpt>
      <trkpt lat="59.996843584224" lon="23.350758108319">
        <ele>33.8</ele>
        <time>2014-06-30T17:47:57Z</time>
      </trkpt>
      <trkpt lat="59.996958835349" lon="23.35089716404">
        <ele>33.6</ele>
        <time>2014-06-30T17:48:02Z</time>
      </trkpt>
      <trkpt lat="59.997044666005" lon="23.351086511161">
        <ele>33.6</ele>
        <time>2014-06-30T17:48:07Z</time>
      </trkpt>
      <trkpt lat="59.997083725659" lon="23.35120310339">
        <ele>33.6</ele>
        <time>2014-06-30T17:48:10Z</time>
      </trkpt>
      <trkpt lat="59.997136112534" lon="23.351423882636">
        <ele>33.6</ele>
        <time>2014-06-30T17:48:15Z</time>
      </trkpt>
      <trkpt lat="59.997216578774" lon="23.351702161716">
        <ele>32.8</ele>
        <time>2014-06-30T17:48:21Z</time>
      </trkpt>
      <trkpt lat="59.997294781901" lon="23.351972142715">
        <ele>32.2</ele>
        <time>2014-06-30T17:48:27Z</time>
      </trkpt>
      <trkpt lat="59.997367452974" lon="23.352178253636">
        <ele>32</ele>
        <time>2014-06-30T17:48:32Z</time>
      </trkpt>
      <trkpt lat="59.99741807965" lon="23.352294091494">
        <ele>31.8</ele>
        <time>2014-06-30T17:48:35Z</time>
      </trkpt>
      <trkpt lat="59.997475579484" lon="23.352418730347">
        <ele>31.8</ele>
        <time>2014-06-30T17:48:39Z</time>
      </trkpt>
      <trkpt lat="59.997494606397" lon="23.352450497748">
        <ele>31.8</ele>
        <time>2014-06-30T17:48:40Z</time>
      </trkpt>
      <trkpt lat="59.997530061834" lon="23.352508584315">
        <ele>31.6</ele>
        <time>2014-06-30T17:48:42Z</time>
      </trkpt>
      <trkpt lat="59.997676409808" lon="23.352662308361">
        <ele>31.6</ele>
        <time>2014-06-30T17:48:48Z</time>
      </trkpt>
      <trkpt lat="59.997746398673" lon="23.352744870076">
        <ele>31.6</ele>
        <time>2014-06-30T17:48:51Z</time>
      </trkpt>
      <trkpt lat="59.998000789338" lon="23.352972438661">
        <ele>32.8</ele>
        <time>2014-06-30T17:49:02Z</time>
      </trkpt>
      <trkpt lat="59.998144455104" lon="23.353097328971">
        <ele>33.2</ele>
        <time>2014-06-30T17:49:08Z</time>
      </trkpt>
      <trkpt lat="59.998255766736" lon="23.35327427088">
        <ele>34.2</ele>
        <time>2014-06-30T17:49:14Z</time>
      </trkpt>
      <trkpt lat="59.998342100306" lon="23.353455571377">
        <ele>34.8</ele>
        <time>2014-06-30T17:49:19Z</time>
      </trkpt>
      <trkpt lat="59.998478557638" lon="23.353734521009">
        <ele>35.2</ele>
        <time>2014-06-30T17:49:26Z</time>
      </trkpt>
      <trkpt lat="59.998490711393" lon="23.353769892627">
        <ele>35.2</ele>
        <time>2014-06-30T17:49:27Z</time>
      </trkpt>
      <trkpt lat="59.998561622267" lon="23.353979607765">
        <ele>35.4</ele>
        <time>2014-06-30T17:49:32Z</time>
      </trkpt>
      <trkpt lat="59.998602106844" lon="23.354048423164">
        <ele>35.4</ele>
        <time>2014-06-30T17:49:34Z</time>
      </trkpt>
      <trkpt lat="59.998743593316" lon="23.354237099733">
        <ele>35.6</ele>
        <time>2014-06-30T17:49:41Z</time>
      </trkpt>
      <trkpt lat="59.998892707317" lon="23.354323014208">
        <ele>35.6</ele>
        <time>2014-06-30T17:49:47Z</time>
      </trkpt>
      <trkpt lat="59.998986584597" lon="23.354367773554">
        <ele>35.6</ele>
        <time>2014-06-30T17:49:51Z</time>
      </trkpt>
      <trkpt lat="59.999091861261" lon="23.35442510575">
        <ele>36.4</ele>
        <time>2014-06-30T17:49:55Z</time>
      </trkpt>
      <trkpt lat="59.999225636385" lon="23.354493082959">
        <ele>37</ele>
        <time>2014-06-30T17:50:00Z</time>
      </trkpt>
      <trkpt lat="59.999374834205" lon="23.354561563082">
        <ele>38.2</ele>
        <time>2014-06-30T17:50:06Z</time>
      </trkpt>
      <trkpt lat="59.999518080876" lon="23.354659715131">
        <ele>39</ele>
        <time>2014-06-30T17:50:12Z</time>
      </trkpt>
      <trkpt lat="59.999605923188" lon="23.354720232449">
        <ele>39.4</ele>
        <time>2014-06-30T17:50:16Z</time>
      </trkpt>
      <trkpt lat="59.999713965879" lon="23.354849313709">
        <ele>40</ele>
        <time>2014-06-30T17:50:21Z</time>
      </trkpt>
      <trkpt lat="59.999734250077" lon="23.354876638703">
        <ele>40.2</ele>
        <time>2014-06-30T17:50:22Z</time>
      </trkpt>
      <trkpt lat="59.999798874526" lon="23.355006139058">
        <ele>40.8</ele>
        <time>2014-06-30T17:50:26Z</time>
      </trkpt>
      <trkpt lat="59.999809770996" lon="23.355046288359">
        <ele>41</ele>
        <time>2014-06-30T17:50:27Z</time>
      </trkpt>
      <trkpt lat="59.999851261401" lon="23.355263463388">
        <ele>41.4</ele>
        <time>2014-06-30T17:50:32Z</time>
      </trkpt>
      <trkpt lat="59.999829049366" lon="23.355606702193">
        <ele>41.6</ele>
        <time>2014-06-30T17:50:38Z</time>
      </trkpt>
      <trkpt lat="59.999799796535" lon="23.355887244386">
        <ele>41.8</ele>
        <time>2014-06-30T17:50:43Z</time>
      </trkpt>
      <trkpt lat="59.999774315559" lon="23.356196787953">
        <ele>41.8</ele>
        <time>2014-06-30T17:50:48Z</time>
      </trkpt>
      <trkpt lat="59.99975411518" lon="23.356418908303">
        <ele>41.8</ele>
        <time>2014-06-30T17:50:52Z</time>
      </trkpt>
      <trkpt lat="59.999731819326" lon="23.356660642299">
        <ele>41.8</ele>
        <time>2014-06-30T17:50:57Z</time>
      </trkpt>
      <trkpt lat="59.99970969111" lon="23.35695979231">
        <ele>42</ele>
        <time>2014-06-30T17:51:02Z</time>
      </trkpt>
      <trkpt lat="59.999685215962" lon="23.357260870158">
        <ele>42</ele>
        <time>2014-06-30T17:51:07Z</time>
      </trkpt>
      <trkpt lat="59.99967448713" lon="23.357456336066">
        <ele>42</ele>
        <time>2014-06-30T17:51:11Z</time>
      </trkpt>
      <trkpt lat="59.999661662823" lon="23.357567228603">
        <ele>42</ele>
        <time>2014-06-30T17:51:13Z</time>
      </trkpt>
      <trkpt lat="59.999645821032" lon="23.357784655089">
        <ele>42</ele>
        <time>2014-06-30T17:51:17Z</time>
      </trkpt>
      <trkpt lat="59.999622603169" lon="23.358072489535">
        <ele>42</ele>
        <time>2014-06-30T17:51:22Z</time>
      </trkpt>
      <trkpt lat="59.999602235152" lon="23.358313552979">
        <ele>42</ele>
        <time>2014-06-30T17:51:27Z</time>
      </trkpt>
      <trkpt lat="59.999580358393" lon="23.358489908155">
        <ele>42</ele>
        <time>2014-06-30T17:51:31Z</time>
      </trkpt>
      <trkpt lat="59.999563762231" lon="23.358754524738">
        <ele>42</ele>
        <time>2014-06-30T17:51:36Z</time>
      </trkpt>
      <trkpt lat="59.999569881018" lon="23.358805654328">
        <ele>42.2</ele>
        <time>2014-06-30T17:51:37Z</time>
      </trkpt>
      <trkpt lat="59.999620172418" lon="23.35903850351">
        <ele>42.8</ele>
        <time>2014-06-30T17:51:42Z</time>
      </trkpt>
      <trkpt lat="59.99970130921" lon="23.359212260297">
        <ele>43.4</ele>
        <time>2014-06-30T17:51:47Z</time>
      </trkpt>
      <trkpt lat="59.999720336123" lon="23.359259366575">
        <ele>43.4</ele>
        <time>2014-06-30T17:51:48Z</time>
      </trkpt>
      <trkpt lat="59.99979267192" lon="23.359402361789">
        <ele>43.6</ele>
        <time>2014-06-30T17:51:52Z</time>
      </trkpt>
      <trkpt lat="59.999838688551" lon="23.359535298723">
        <ele>43.6</ele>
        <time>2014-06-30T17:51:55Z</time>
      </trkpt>
      <trkpt lat="59.99996114811" lon="23.359887422342">
        <ele>43.8</ele>
        <time>2014-06-30T17:52:03Z</time>
      </trkpt>
      <trkpt lat="60.000032645717" lon="23.360056652903">
        <ele>43.8</ele>
        <time>2014-06-30T17:52:07Z</time>
      </trkpt>
      <trkpt lat="60.000110094473" lon="23.360213226795">
        <ele>43.8</ele>
        <time>2014-06-30T17:52:11Z</time>
      </trkpt>
      <trkpt lat="60.000195086939" lon="23.360404250296">
        <ele>44</ele>
        <time>2014-06-30T17:52:16Z</time>
      </trkpt>
      <trkpt lat="60.00025954375" lon="23.360554118668">
        <ele>44</ele>
        <time>2014-06-30T17:52:20Z</time>
      </trkpt>
      <trkpt lat="60.000388373553" lon="23.360855196516">
        <ele>44</ele>
        <time>2014-06-30T17:52:28Z</time>
      </trkpt>
      <trkpt lat="60.000408993027" lon="23.360899201491">
        <ele>44</ele>
        <time>2014-06-30T17:52:29Z</time>
      </trkpt>
      <trkpt lat="60.000488034344" lon="23.36103255752">
        <ele>44</ele>
        <time>2014-06-30T17:52:33Z</time>
      </trkpt>
      <trkpt lat="60.000629688454" lon="23.361348387512">
        <ele>43.8</ele>
        <time>2014-06-30T17:52:41Z</time>
      </trkpt>
      <trkpt lat="60.000729433064" lon="23.361631779551">
        <ele>42.8</ele>
        <time>2014-06-30T17:52:48Z</time>
      </trkpt>
      <trkpt lat="60.000745861588" lon="23.361659775097">
        <ele>42.6</ele>
        <time>2014-06-30T17:52:49Z</time>
      </trkpt>
      <trkpt lat="60.000799421929" lon="23.361856749747">
        <ele>42.2</ele>
        <time>2014-06-30T17:52:54Z</time>
      </trkpt>
      <trkpt lat="60.000818867937" lon="23.3620652076">
        <ele>41.4</ele>
        <time>2014-06-30T17:52:58Z</time>
      </trkpt>
      <trkpt lat="60.000850132424" lon="23.36244406948">
        <ele>40.6</ele>
        <time>2014-06-30T17:53:05Z</time>
      </trkpt>
      <trkpt lat="60.000851389709" lon="23.362634422429">
        <ele>40.2</ele>
        <time>2014-06-30T17:53:09Z</time>
      </trkpt>
      <trkpt lat="60.000859603971" lon="23.36284640068">
        <ele>40</ele>
        <time>2014-06-30T17:53:13Z</time>
      </trkpt>
      <trkpt lat="60.000870500441" lon="23.363034322878">
        <ele>40</ele>
        <time>2014-06-30T17:53:17Z</time>
      </trkpt>
      <trkpt lat="60.000882151282" lon="23.363066341736">
        <ele>40</ele>
        <time>2014-06-30T17:53:18Z</time>
      </trkpt>
      <trkpt lat="60.000921546212" lon="23.363264406033">
        <ele>39.8</ele>
        <time>2014-06-30T17:53:23Z</time>
      </trkpt>
      <trkpt lat="60.000951134319" lon="23.363512091178">
        <ele>39.8</ele>
        <time>2014-06-30T17:53:27Z</time>
      </trkpt>
      <trkpt lat="60.001009891438" lon="23.363848456825">
        <ele>40.2</ele>
        <time>2014-06-30T17:53:33Z</time>
      </trkpt>
      <trkpt lat="60.001099493949" lon="23.364114498331">
        <ele>40.8</ele>
        <time>2014-06-30T17:53:39Z</time>
      </trkpt>
      <trkpt lat="60.001161603828" lon="23.364334858482">
        <ele>41.2</ele>
        <time>2014-06-30T17:53:44Z</time>
      </trkpt>
      <trkpt lat="60.001219522757" lon="23.364528983286">
        <ele>41.4</ele>
        <time>2014-06-30T17:53:49Z</time>
      </trkpt>
      <trkpt lat="60.001308035621" lon="23.364782871037">
        <ele>41.8</ele>
        <time>2014-06-30T17:53:55Z</time>
      </trkpt>
      <trkpt lat="60.001317926263" lon="23.364822936519">
        <ele>42</ele>
        <time>2014-06-30T17:53:56Z</time>
      </trkpt>
      <trkpt lat="60.001507524841" lon="23.365395252651">
        <ele>43.8</ele>
        <time>2014-06-30T17:54:09Z</time>
      </trkpt>
      <trkpt lat="60.001596540619" lon="23.365659450139">
        <ele>44.8</ele>
        <time>2014-06-30T17:54:15Z</time>
      </trkpt>
      <trkpt lat="60.001639120671" lon="23.365807055398">
        <ele>45.2</ele>
        <time>2014-06-30T17:54:19Z</time>
      </trkpt>
      <trkpt lat="60.001722520576" lon="23.3660298463">
        <ele>45.4</ele>
        <time>2014-06-30T17:54:25Z</time>
      </trkpt>
      <trkpt lat="60.001790330147" lon="23.366242327465">
        <ele>45.8</ele>
        <time>2014-06-30T17:54:31Z</time>
      </trkpt>
      <trkpt lat="60.001796197477" lon="23.366277447626">
        <ele>46</ele>
        <time>2014-06-30T17:54:32Z</time>
      </trkpt>
      <trkpt lat="60.001824947394" lon="23.366423208867">
        <ele>46.6</ele>
        <time>2014-06-30T17:54:35Z</time>
      </trkpt>
      <trkpt lat="60.001857888261" lon="23.366519768355">
        <ele>46.8</ele>
        <time>2014-06-30T17:54:37Z</time>
      </trkpt>
      <trkpt lat="60.001941623442" lon="23.366869377404">
        <ele>47.4</ele>
        <time>2014-06-30T17:54:44Z</time>
      </trkpt>
      <trkpt lat="60.00202058094" lon="23.367126953191">
        <ele>47.6</ele>
        <time>2014-06-30T17:54:50Z</time>
      </trkpt>
      <trkpt lat="60.002036087455" lon="23.367164420284">
        <ele>47.6</ele>
        <time>2014-06-30T17:54:51Z</time>
      </trkpt>
      <trkpt lat="60.002082858457" lon="23.367290735517">
        <ele>47.6</ele>
        <time>2014-06-30T17:54:54Z</time>
      </trkpt>
      <trkpt lat="60.002110015813" lon="23.367387881738">
        <ele>47.8</ele>
        <time>2014-06-30T17:54:56Z</time>
      </trkpt>
      <trkpt lat="60.00218989532" lon="23.367629280458">
        <ele>47.8</ele>
        <time>2014-06-30T17:55:02Z</time>
      </trkpt>
      <trkpt lat="60.002265416239" lon="23.367997497325">
        <ele>47.8</ele>
        <time>2014-06-30T17:55:09Z</time>
      </trkpt>
      <trkpt lat="60.002294249975" lon="23.368229508317">
        <ele>47.8</ele>
        <time>2014-06-30T17:55:14Z</time>
      </trkpt>
      <trkpt lat="60.002329453955" lon="23.368444587871">
        <ele>47.8</ele>
        <time>2014-06-30T17:55:19Z</time>
      </trkpt>
      <trkpt lat="60.002333561086" lon="23.368557911159">
        <ele>47.8</ele>
        <time>2014-06-30T17:55:21Z</time>
      </trkpt>
      <trkpt lat="60.00235166599" lon="23.368862341767">
        <ele>47.8</ele>
        <time>2014-06-30T17:55:27Z</time>
      </trkpt>
      <trkpt lat="60.002350743981" lon="23.369069458516">
        <ele>47.8</ele>
        <time>2014-06-30T17:55:31Z</time>
      </trkpt>
      <trkpt lat="60.00235669513" lon="23.369416888271">
        <ele>47.8</ele>
        <time>2014-06-30T17:55:37Z</time>
      </trkpt>
      <trkpt lat="60.002361891908" lon="23.369694245342">
        <ele>48.2</ele>
        <time>2014-06-30T17:55:42Z</time>
      </trkpt>
      <trkpt lat="60.002364322659" lon="23.369907229421">
        <ele>48.8</ele>
        <time>2014-06-30T17:55:46Z</time>
      </trkpt>
      <trkpt lat="60.002358287691" lon="23.369999178864">
        <ele>49</ele>
        <time>2014-06-30T17:55:48Z</time>
      </trkpt>
      <trkpt lat="60.002370273808" lon="23.370303022739">
        <ele>49.4</ele>
        <time>2014-06-30T17:55:54Z</time>
      </trkpt>
      <trkpt lat="60.002390893282" lon="23.370543080355">
        <ele>50.4</ele>
        <time>2014-06-30T17:55:59Z</time>
      </trkpt>
      <trkpt lat="60.002416122801" lon="23.370837452683">
        <ele>51</ele>
        <time>2014-06-30T17:56:04Z</time>
      </trkpt>
      <trkpt lat="60.002478484137" lon="23.371152276847">
        <ele>51.8</ele>
        <time>2014-06-30T17:56:10Z</time>
      </trkpt>
      <trkpt lat="60.002551658124" lon="23.371469196486">
        <ele>52.8</ele>
        <time>2014-06-30T17:56:16Z</time>
      </trkpt>
      <trkpt lat="60.002605386103" lon="23.371758791131">
        <ele>54</ele>
        <time>2014-06-30T17:56:22Z</time>
      </trkpt>
      <trkpt lat="60.002653833485" lon="23.371978732187">
        <ele>54.8</ele>
        <time>2014-06-30T17:56:27Z</time>
      </trkpt>
      <trkpt lat="60.002677302805" lon="23.372065987766">
        <ele>55</ele>
        <time>2014-06-30T17:56:29Z</time>
      </trkpt>
      <trkpt lat="60.002722900341" lon="23.372318869689">
        <ele>55.6</ele>
        <time>2014-06-30T17:56:35Z</time>
      </trkpt>
      <trkpt lat="60.002736227562" lon="23.372365389234">
        <ele>55.6</ele>
        <time>2014-06-30T17:56:36Z</time>
      </trkpt>
      <trkpt lat="60.002768749334" lon="23.372498409987">
        <ele>55.8</ele>
        <time>2014-06-30T17:56:39Z</time>
      </trkpt>
      <trkpt lat="60.002806970798" lon="23.372685745452">
        <ele>55.8</ele>
        <time>2014-06-30T17:56:43Z</time>
      </trkpt>
      <trkpt lat="60.002822393494" lon="23.372816586911">
        <ele>56</ele>
        <time>2014-06-30T17:56:46Z</time>
      </trkpt>
      <trkpt lat="60.002905793399" lon="23.373130908161">
        <ele>56</ele>
        <time>2014-06-30T17:56:53Z</time>
      </trkpt>
      <trkpt lat="60.002952732039" lon="23.373296785962">
        <ele>56</ele>
        <time>2014-06-30T17:56:57Z</time>
      </trkpt>
      <trkpt lat="60.002963293233" lon="23.373351268312">
        <ele>56</ele>
        <time>2014-06-30T17:56:58Z</time>
      </trkpt>
      <trkpt lat="60.002980643766" lon="23.373440116452">
        <ele>56</ele>
        <time>2014-06-30T17:57:00Z</time>
      </trkpt>
      <trkpt lat="60.003006962932" lon="23.373625021166">
        <ele>56.2</ele>
        <time>2014-06-30T17:57:04Z</time>
      </trkpt>
      <trkpt lat="60.003076616521" lon="23.373886536446">
        <ele>57</ele>
        <time>2014-06-30T17:57:10Z</time>
      </trkpt>
      <trkpt lat="60.003120118582" lon="23.374077476128">
        <ele>57.4</ele>
        <time>2014-06-30T17:57:14Z</time>
      </trkpt>
      <trkpt lat="60.003127578473" lon="23.374126929338">
        <ele>57.4</ele>
        <time>2014-06-30T17:57:15Z</time>
      </trkpt>
      <trkpt lat="60.003183821022" lon="23.374393389939">
        <ele>57.8</ele>
        <time>2014-06-30T17:57:21Z</time>
      </trkpt>
      <trkpt lat="60.003228580368" lon="23.37456094412">
        <ele>58</ele>
        <time>2014-06-30T17:57:25Z</time>
      </trkpt>
      <trkpt lat="60.003264622538" lon="23.374792787474">
        <ele>58</ele>
        <time>2014-06-30T17:57:30Z</time>
      </trkpt>
      <trkpt lat="60.003301921993" lon="23.375012812349">
        <ele>58</ele>
        <time>2014-06-30T17:57:34Z</time>
      </trkpt>
      <trkpt lat="60.003360762931" lon="23.375342807752">
        <ele>58</ele>
        <time>2014-06-30T17:57:40Z</time>
      </trkpt>
      <trkpt lat="60.003405187001" lon="23.375697697398">
        <ele>58.2</ele>
        <time>2014-06-30T17:57:47Z</time>
      </trkpt>
      <trkpt lat="60.003426728484" lon="23.376013862666">
        <ele>58.2</ele>
        <time>2014-06-30T17:57:53Z</time>
      </trkpt>
      <trkpt lat="60.003405773734" lon="23.376295410687">
        <ele>58.2</ele>
        <time>2014-06-30T17:57:58Z</time>
      </trkpt>
      <trkpt lat="60.003296473758" lon="23.376605373349">
        <ele>58.2</ele>
        <time>2014-06-30T17:58:04Z</time>
      </trkpt>
      <trkpt lat="60.003084076412" lon="23.377137875456">
        <ele>58.2</ele>
        <time>2014-06-30T17:58:16Z</time>
      </trkpt>
      <trkpt lat="60.002978883567" lon="23.377433505069">
        <ele>57</ele>
        <time>2014-06-30T17:58:23Z</time>
      </trkpt>
      <trkpt lat="60.002903614105" lon="23.377635257402">
        <ele>56.6</ele>
        <time>2014-06-30T17:58:28Z</time>
      </trkpt>
      <trkpt lat="60.002850808135" lon="23.377903059107">
        <ele>56.4</ele>
        <time>2014-06-30T17:58:33Z</time>
      </trkpt>
      <trkpt lat="60.002880144785" lon="23.378075223333">
        <ele>56.4</ele>
        <time>2014-06-30T17:58:37Z</time>
      </trkpt>
      <trkpt lat="60.002964550518" lon="23.378265911558">
        <ele>56.2</ele>
        <time>2014-06-30T17:58:43Z</time>
      </trkpt>
      <trkpt lat="60.00302389437" lon="23.37846439495">
        <ele>56.2</ele>
        <time>2014-06-30T17:58:48Z</time>
      </trkpt>
      <trkpt lat="60.003072928485" lon="23.37862868019">
        <ele>56.2</ele>
        <time>2014-06-30T17:58:52Z</time>
      </trkpt>
      <trkpt lat="60.00312699174" lon="23.378884160502">
        <ele>55.8</ele>
        <time>2014-06-30T17:58:58Z</time>
      </trkpt>
      <trkpt lat="60.003156496028" lon="23.379045512077">
        <ele>55</ele>
        <time>2014-06-30T17:59:02Z</time>
      </trkpt>
      <trkpt lat="60.00317895952" lon="23.379145256687">
        <ele>54.8</ele>
        <time>2014-06-30T17:59:05Z</time>
      </trkpt>
      <trkpt lat="60.003237716639" lon="23.379357570214">
        <ele>54.4</ele>
        <time>2014-06-30T17:59:10Z</time>
      </trkpt>
      <trkpt lat="60.003244170702" lon="23.379402078103">
        <ele>54.2</ele>
        <time>2014-06-30T17:59:11Z</time>
      </trkpt>
      <trkpt lat="60.003302760183" lon="23.379654876207">
        <ele>54</ele>
        <time>2014-06-30T17:59:17Z</time>
      </trkpt>
      <trkpt lat="60.003313489015" lon="23.379705670521">
        <ele>54</ele>
        <time>2014-06-30T17:59:18Z</time>
      </trkpt>
      <trkpt lat="60.003413401263" lon="23.379957965711">
        <ele>54</ele>
        <time>2014-06-30T17:59:24Z</time>
      </trkpt>
      <trkpt lat="60.003496717349" lon="23.380169105772">
        <ele>53.4</ele>
        <time>2014-06-30T17:59:29Z</time>
      </trkpt>
      <trkpt lat="60.00356117416" lon="23.380452916906">
        <ele>52.6</ele>
        <time>2014-06-30T17:59:35Z</time>
      </trkpt>
      <trkpt lat="60.003570729526" lon="23.380733459099">
        <ele>52.2</ele>
        <time>2014-06-30T17:59:41Z</time>
      </trkpt>
      <trkpt lat="60.0035745852" lon="23.380807387457">
        <ele>52.2</ele>
        <time>2014-06-30T17:59:43Z</time>
      </trkpt>
      <trkpt lat="60.003578943788" lon="23.381095808636">
        <ele>52</ele>
        <time>2014-06-30T17:59:49Z</time>
      </trkpt>
      <trkpt lat="60.00360056909" lon="23.381282641187">
        <ele>52</ele>
        <time>2014-06-30T17:59:53Z</time>
      </trkpt>
      <trkpt lat="60.003616578519" lon="23.381459750734">
        <ele>51.8</ele>
        <time>2014-06-30T17:59:57Z</time>
      </trkpt>
      <trkpt lat="60.003617584347" lon="23.381724618774">
        <ele>51.8</ele>
        <time>2014-06-30T18:00:02Z</time>
      </trkpt>
      <trkpt lat="60.003617919623" lon="23.381989905909">
        <ele>51.8</ele>
        <time>2014-06-30T18:00:07Z</time>
      </trkpt>
      <trkpt lat="60.003623870772" lon="23.382182354333">
        <ele>51.8</ele>
        <time>2014-06-30T18:00:11Z</time>
      </trkpt>
      <trkpt lat="60.003638790554" lon="23.382515451039">
        <ele>52.4</ele>
        <time>2014-06-30T18:00:16Z</time>
      </trkpt>
      <trkpt lat="60.003607945162" lon="23.382798507802">
        <ele>53.4</ele>
        <time>2014-06-30T18:00:21Z</time>
      </trkpt>
      <trkpt lat="60.003539045944" lon="23.383077708891">
        <ele>54.6</ele>
        <time>2014-06-30T18:00:27Z</time>
      </trkpt>
      <trkpt lat="60.003479282997" lon="23.383227074349">
        <ele>55.8</ele>
        <time>2014-06-30T18:00:31Z</time>
      </trkpt>
      <trkpt lat="60.003377107636" lon="23.383352299935">
        <ele>56.8</ele>
        <time>2014-06-30T18:00:36Z</time>
      </trkpt>
      <trkpt lat="60.003343328579" lon="23.383399573851">
        <ele>57</ele>
        <time>2014-06-30T18:00:38Z</time>
      </trkpt>
      <trkpt lat="60.003244254521" lon="23.38351951884">
        <ele>58.2</ele>
        <time>2014-06-30T18:00:43Z</time>
      </trkpt>
      <trkpt lat="60.003179881529" lon="23.383562601806">
        <ele>58.8</ele>
        <time>2014-06-30T18:00:46Z</time>
      </trkpt>
      <trkpt lat="60.003133948717" lon="23.38368464227">
        <ele>59.4</ele>
        <time>2014-06-30T18:00:49Z</time>
      </trkpt>
      <trkpt lat="60.003052476649" lon="23.383855884487">
        <ele>60.6</ele>
        <time>2014-06-30T18:00:54Z</time>
      </trkpt>
      <trkpt lat="60.0029878522" lon="23.384006758687">
        <ele>61.2</ele>
        <time>2014-06-30T18:00:58Z</time>
      </trkpt>
      <trkpt lat="60.002886850305" lon="23.384231058331">
        <ele>62.6</ele>
        <time>2014-06-30T18:01:04Z</time>
      </trkpt>
      <trkpt lat="60.002870002686" lon="23.384263999198">
        <ele>62.8</ele>
        <time>2014-06-30T18:01:05Z</time>
      </trkpt>
      <trkpt lat="60.002777885605" lon="23.384504811185">
        <ele>63.6</ele>
        <time>2014-06-30T18:01:11Z</time>
      </trkpt>
      <trkpt lat="60.00269700027" lon="23.384753585977">
        <ele>64</ele>
        <time>2014-06-30T18:01:16Z</time>
      </trkpt>
      <trkpt lat="60.002623742464" lon="23.385076708222">
        <ele>64.2</ele>
        <time>2014-06-30T18:01:22Z</time>
      </trkpt>
      <trkpt lat="60.002616785487" lon="23.3851321964">
        <ele>64.2</ele>
        <time>2014-06-30T18:01:23Z</time>
      </trkpt>
      <trkpt lat="60.002570936494" lon="23.38536353684">
        <ele>64.2</ele>
        <time>2014-06-30T18:01:28Z</time>
      </trkpt>
      <trkpt lat="60.00253774417" lon="23.385554057427">
        <ele>64.4</ele>
        <time>2014-06-30T18:01:32Z</time>
      </trkpt>
      <trkpt lat="60.002489045331" lon="23.385903163562">
        <ele>65</ele>
        <time>2014-06-30T18:01:39Z</time>
      </trkpt>
      <trkpt lat="60.002433724791" lon="23.386235924992">
        <ele>65.6</ele>
        <time>2014-06-30T18:01:45Z</time>
      </trkpt>
      <trkpt lat="60.002399107544" lon="23.386443293198">
        <ele>66</ele>
        <time>2014-06-30T18:01:49Z</time>
      </trkpt>
      <trkpt lat="60.002367088686" lon="23.386698019139">
        <ele>66.6</ele>
        <time>2014-06-30T18:01:55Z</time>
      </trkpt>
      <trkpt lat="60.002340434244" lon="23.386973951287">
        <ele>67.4</ele>
        <time>2014-06-30T18:02:00Z</time>
      </trkpt>
      <trkpt lat="60.002315875277" lon="23.387263881208">
        <ele>67.8</ele>
        <time>2014-06-30T18:02:05Z</time>
      </trkpt>
      <trkpt lat="60.002291148672" lon="23.387565210513">
        <ele>68.2</ele>
        <time>2014-06-30T18:02:10Z</time>
      </trkpt>
      <trkpt lat="60.002265416239" lon="23.387879531763">
        <ele>68.4</ele>
        <time>2014-06-30T18:02:16Z</time>
      </trkpt>
      <trkpt lat="60.002245802593" lon="23.388088995444">
        <ele>68.4</ele>
        <time>2014-06-30T18:02:20Z</time>
      </trkpt>
      <trkpt lat="60.002233397381" lon="23.388297453297">
        <ele>68.4</ele>
        <time>2014-06-30T18:02:24Z</time>
      </trkpt>
      <trkpt lat="60.002194002451" lon="23.388634573315">
        <ele>68.8</ele>
        <time>2014-06-30T18:02:30Z</time>
      </trkpt>
      <trkpt lat="60.002149494562" lon="23.38892835891">
        <ele>69.6</ele>
        <time>2014-06-30T18:02:35Z</time>
      </trkpt>
      <trkpt lat="60.002095263669" lon="23.389259527779">
        <ele>70</ele>
        <time>2014-06-30T18:02:41Z</time>
      </trkpt>
      <trkpt lat="60.00206081406" lon="23.389501261775">
        <ele>70.2</ele>
        <time>2014-06-30T18:02:46Z</time>
      </trkpt>
      <trkpt lat="60.00205662311" lon="23.389544009465">
        <ele>70.4</ele>
        <time>2014-06-30T18:02:47Z</time>
      </trkpt>
      <trkpt lat="60.002054611454" lon="23.389755568621">
        <ele>70.4</ele>
        <time>2014-06-30T18:02:52Z</time>
      </trkpt>
      <trkpt lat="60.002037680016" lon="23.389969558528">
        <ele>70.6</ele>
        <time>2014-06-30T18:02:57Z</time>
      </trkpt>
      <trkpt lat="60.002045559002" lon="23.390247250875">
        <ele>70.6</ele>
        <time>2014-06-30T18:03:03Z</time>
      </trkpt>
      <trkpt lat="60.002045307545" lon="23.39030047594">
        <ele>70.6</ele>
        <time>2014-06-30T18:03:04Z</time>
      </trkpt>
      <trkpt lat="60.002025023347" lon="23.390571462767">
        <ele>70.6</ele>
        <time>2014-06-30T18:03:09Z</time>
      </trkpt>
      <trkpt lat="60.001996524887" lon="23.39087463609">
        <ele>70.6</ele>
        <time>2014-06-30T18:03:15Z</time>
      </trkpt>
      <trkpt lat="60.001965930952" lon="23.391026767575">
        <ele>70.6</ele>
        <time>2014-06-30T18:03:19Z</time>
      </trkpt>
      <trkpt lat="60.001936007569" lon="23.391244026423">
        <ele>70.6</ele>
        <time>2014-06-30T18:03:23Z</time>
      </trkpt>
      <trkpt lat="60.001902731426" lon="23.391479306356">
        <ele>70.6</ele>
        <time>2014-06-30T18:03:28Z</time>
      </trkpt>
      <trkpt lat="60.001876747536" lon="23.391719196334">
        <ele>70.6</ele>
        <time>2014-06-30T18:03:32Z</time>
      </trkpt>
      <trkpt lat="60.001842130289" lon="23.39203720562">
        <ele>70.6</ele>
        <time>2014-06-30T18:03:37Z</time>
      </trkpt>
      <trkpt lat="60.001823019557" lon="23.392314897967">
        <ele>70.6</ele>
        <time>2014-06-30T18:03:42Z</time>
      </trkpt>
      <trkpt lat="60.001812123087" lon="23.392427550703">
        <ele>70.6</ele>
        <time>2014-06-30T18:03:44Z</time>
      </trkpt>
      <trkpt lat="60.001796951848" lon="23.392753103699">
        <ele>70.6</ele>
        <time>2014-06-30T18:03:50Z</time>
      </trkpt>
      <trkpt lat="60.001787228844" lon="23.393031550417">
        <ele>70.6</ele>
        <time>2014-06-30T18:03:55Z</time>
      </trkpt>
      <trkpt lat="60.001789324319" lon="23.39311679434">
        <ele>70.6</ele>
        <time>2014-06-30T18:03:57Z</time>
      </trkpt>
      <trkpt lat="60.001777254383" lon="23.393401527483">
        <ele>70.6</ele>
        <time>2014-06-30T18:04:03Z</time>
      </trkpt>
      <trkpt lat="60.001770129768" lon="23.393475791117">
        <ele>70.6</ele>
        <time>2014-06-30T18:04:05Z</time>
      </trkpt>
      <trkpt lat="60.00176744756" lon="23.393530441105">
        <ele>70.6</ele>
        <time>2014-06-30T18:04:06Z</time>
      </trkpt>
      <trkpt lat="60.00179007869" lon="23.393745017745">
        <ele>70.6</ele>
        <time>2014-06-30T18:04:10Z</time>
      </trkpt>
      <trkpt lat="60.001793096174" lon="23.393844175622">
        <ele>70.6</ele>
        <time>2014-06-30T18:04:12Z</time>
      </trkpt>
      <trkpt lat="60.001796365115" lon="23.393916930514">
        <ele>70.6</ele>
        <time>2014-06-30T18:04:13Z</time>
      </trkpt>
      <trkpt lat="60.001784965731" lon="23.394146259298">
        <ele>70.6</ele>
        <time>2014-06-30T18:04:17Z</time>
      </trkpt>
      <trkpt lat="60.001784462817" lon="23.394407942216">
        <ele>70.6</ele>
        <time>2014-06-30T18:04:22Z</time>
      </trkpt>
      <trkpt lat="60.001802400083" lon="23.394685215468">
        <ele>70.6</ele>
        <time>2014-06-30T18:04:28Z</time>
      </trkpt>
      <trkpt lat="60.001815308209" lon="23.394887135439">
        <ele>70.6</ele>
        <time>2014-06-30T18:04:32Z</time>
      </trkpt>
      <trkpt lat="60.001838358434" lon="23.395113279101">
        <ele>70.6</ele>
        <time>2014-06-30T18:04:36Z</time>
      </trkpt>
      <trkpt lat="60.001850176913" lon="23.395432964767">
        <ele>70.6</ele>
        <time>2014-06-30T18:04:42Z</time>
      </trkpt>
      <trkpt lat="60.001846656515" lon="23.39568836126">
        <ele>70.6</ele>
        <time>2014-06-30T18:04:47Z</time>
      </trkpt>
      <trkpt lat="60.001810530526" lon="23.396078790162">
        <ele>69.6</ele>
        <time>2014-06-30T18:04:54Z</time>
      </trkpt>
      <trkpt lat="60.001769710673" lon="23.39635136955">
        <ele>69.2</ele>
        <time>2014-06-30T18:04:59Z</time>
      </trkpt>
      <trkpt lat="60.001713887219" lon="23.396665858438">
        <ele>68.4</ele>
        <time>2014-06-30T18:05:04Z</time>
      </trkpt>
      <trkpt lat="60.001649430408" lon="23.396945981536">
        <ele>67</ele>
        <time>2014-06-30T18:05:09Z</time>
      </trkpt>
      <trkpt lat="60.001497131285" lon="23.397053353675">
        <ele>64.8</ele>
        <time>2014-06-30T18:05:14Z</time>
      </trkpt>
      <trkpt lat="60.001337036995" lon="23.397206071893">
        <ele>62.2</ele>
        <time>2014-06-30T18:05:19Z</time>
      </trkpt>
      <trkpt lat="60.00124609338" lon="23.397354515342">
        <ele>59.6</ele>
        <time>2014-06-30T18:05:23Z</time>
      </trkpt>
      <trkpt lat="60.001117598853" lon="23.39752651193">
        <ele>55.4</ele>
        <time>2014-06-30T18:05:29Z</time>
      </trkpt>
      <trkpt lat="60.001015674949" lon="23.397715356137">
        <ele>51.4</ele>
        <time>2014-06-30T18:05:35Z</time>
      </trkpt>
      <trkpt lat="60.000976866752" lon="23.397796325291">
        <ele>49.6</ele>
        <time>2014-06-30T18:05:38Z</time>
      </trkpt>
      <trkpt lat="60.000869326975" lon="23.397992880846">
        <ele>46.6</ele>
        <time>2014-06-30T18:05:44Z</time>
      </trkpt>
      <trkpt lat="60.000762290112" lon="23.398107629057">
        <ele>44.4</ele>
        <time>2014-06-30T18:05:49Z</time>
      </trkpt>
      <trkpt lat="60.000614433396" lon="23.398106120315">
        <ele>42.2</ele>
        <time>2014-06-30T18:05:55Z</time>
      </trkpt>
      <trkpt lat="60.000489962181" lon="23.398031856681">
        <ele>41</ele>
        <time>2014-06-30T18:05:59Z</time>
      </trkpt>
      <trkpt lat="60.000471102906" lon="23.398004783144">
        <ele>40.6</ele>
        <time>2014-06-30T18:06:00Z</time>
      </trkpt>
      <trkpt lat="60.000381416576" lon="23.397930854786">
        <ele>39.6</ele>
        <time>2014-06-30T18:06:04Z</time>
      </trkpt>
      <trkpt lat="60.000344703854" lon="23.397849298899">
        <ele>39</ele>
        <time>2014-06-30T18:06:06Z</time>
      </trkpt>
      <trkpt lat="60.000233224584" lon="23.397739076914">
        <ele>37.6</ele>
        <time>2014-06-30T18:06:11Z</time>
      </trkpt>
      <trkpt lat="60.000070028991" lon="23.39771091373">
        <ele>36.2</ele>
        <time>2014-06-30T18:06:18Z</time>
      </trkpt>
      <trkpt lat="59.999984449792" lon="23.39776288151">
        <ele>35.2</ele>
        <time>2014-06-30T18:06:22Z</time>
      </trkpt>
      <trkpt lat="59.999876407101" lon="23.397845359406">
        <ele>34.2</ele>
        <time>2014-06-30T18:06:27Z</time>
      </trkpt>
      <trkpt lat="59.999783200373" lon="23.397938985229">
        <ele>33.8</ele>
        <time>2014-06-30T18:06:32Z</time>
      </trkpt>
      <trkpt lat="59.999762413261" lon="23.397973099562">
        <ele>33.6</ele>
        <time>2014-06-30T18:06:33Z</time>
      </trkpt>
      <trkpt lat="59.999718156829" lon="23.398059936046">
        <ele>33.4</ele>
        <time>2014-06-30T18:06:36Z</time>
      </trkpt>
      <trkpt lat="59.999653197104" lon="23.398238302878">
        <ele>33.2</ele>
        <time>2014-06-30T18:06:41Z</time>
      </trkpt>
      <trkpt lat="59.999589075569" lon="23.398428236732">
        <ele>33.2</ele>
        <time>2014-06-30T18:06:45Z</time>
      </trkpt>
      <trkpt lat="59.999539873816" lon="23.398604256632">
        <ele>33</ele>
        <time>2014-06-30T18:06:50Z</time>
      </trkpt>
      <trkpt lat="59.999509447519" lon="23.398696876627">
        <ele>33</ele>
        <time>2014-06-30T18:06:52Z</time>
      </trkpt>
      <trkpt lat="59.999459323757" lon="23.398937772433">
        <ele>33</ele>
        <time>2014-06-30T18:06:57Z</time>
      </trkpt>
      <trkpt lat="59.999417078981" lon="23.399107422089">
        <ele>33</ele>
        <time>2014-06-30T18:07:01Z</time>
      </trkpt>
      <trkpt lat="59.999325297176" lon="23.399309006784">
        <ele>33.4</ele>
        <time>2014-06-30T18:07:07Z</time>
      </trkpt>
      <trkpt lat="59.999261091822" lon="23.39943590875">
        <ele>33.8</ele>
        <time>2014-06-30T18:07:11Z</time>
      </trkpt>
      <trkpt lat="59.999185151808" lon="23.399621735473">
        <ele>35</ele>
        <time>2014-06-30T18:07:17Z</time>
      </trkpt>
      <trkpt lat="59.999169812931" lon="23.399654508702">
        <ele>35.2</ele>
        <time>2014-06-30T18:07:18Z</time>
      </trkpt>
      <trkpt lat="59.999106529586" lon="23.399780153383">
        <ele>35.8</ele>
        <time>2014-06-30T18:07:22Z</time>
      </trkpt>
      <trkpt lat="59.998999073628" lon="23.399980145517">
        <ele>37.2</ele>
        <time>2014-06-30T18:07:28Z</time>
      </trkpt>
      <trkpt lat="59.998850294903" lon="23.400189944474">
        <ele>38.4</ele>
        <time>2014-06-30T18:07:34Z</time>
      </trkpt>
      <trkpt lat="59.998775360717" lon="23.400230261413">
        <ele>39.2</ele>
        <time>2014-06-30T18:07:37Z</time>
      </trkpt>
      <trkpt lat="59.998641166498" lon="23.40023889477">
        <ele>40.2</ele>
        <time>2014-06-30T18:07:42Z</time>
      </trkpt>
      <trkpt lat="59.998528094667" lon="23.400272003275">
        <ele>41.4</ele>
        <time>2014-06-30T18:07:47Z</time>
      </trkpt>
      <trkpt lat="59.998396498837" lon="23.400305530875">
        <ele>42.8</ele>
        <time>2014-06-30T18:07:52Z</time>
      </trkpt>
      <trkpt lat="59.998377220467" lon="23.400307793988">
        <ele>43</ele>
        <time>2014-06-30T18:07:53Z</time>
      </trkpt>
      <trkpt lat="59.998228441742" lon="23.400372250799">
        <ele>44.6</ele>
        <time>2014-06-30T18:08:00Z</time>
      </trkpt>
      <trkpt lat="59.998100701586" lon="23.400409382616">
        <ele>46</ele>
        <time>2014-06-30T18:08:06Z</time>
      </trkpt>
      <trkpt lat="59.997936332527" lon="23.400526896854">
        <ele>47.2</ele>
        <time>2014-06-30T18:08:13Z</time>
      </trkpt>
      <trkpt lat="59.997822003411" lon="23.400658995598">
        <ele>48.2</ele>
        <time>2014-06-30T18:08:18Z</time>
      </trkpt>
      <trkpt lat="59.997724941009" lon="23.400755638905">
        <ele>48.8</ele>
        <time>2014-06-30T18:08:23Z</time>
      </trkpt>
      <trkpt lat="59.997614802843" lon="23.400812468187">
        <ele>49</ele>
        <time>2014-06-30T18:08:28Z</time>
      </trkpt>
      <trkpt lat="59.99760080507" lon="23.400818419336">
        <ele>49.2</ele>
        <time>2014-06-30T18:08:29Z</time>
      </trkpt>
      <trkpt lat="59.99751614788" lon="23.400803331916">
        <ele>49.2</ele>
        <time>2014-06-30T18:08:33Z</time>
      </trkpt>
      <trkpt lat="59.997479518977" lon="23.40081389311">
        <ele>49.4</ele>
        <time>2014-06-30T18:08:35Z</time>
      </trkpt>
      <trkpt lat="59.997389245914" lon="23.400825208675">
        <ele>49.4</ele>
        <time>2014-06-30T18:08:38Z</time>
      </trkpt>
      <trkpt lat="59.997230408909" lon="23.400794782378">
        <ele>49.8</ele>
        <time>2014-06-30T18:08:44Z</time>
      </trkpt>
      <trkpt lat="59.997117001802" lon="23.400735438526">
        <ele>50.6</ele>
        <time>2014-06-30T18:08:49Z</time>
      </trkpt>
      <trkpt lat="59.997010803129" lon="23.400722865676">
        <ele>51</ele>
        <time>2014-06-30T18:08:53Z</time>
      </trkpt>
      <trkpt lat="59.996853391047" lon="23.400704006401">
        <ele>51.2</ele>
        <time>2014-06-30T18:08:59Z</time>
      </trkpt>
      <trkpt lat="59.996717268991" lon="23.400706688609">
        <ele>51.4</ele>
        <time>2014-06-30T18:09:04Z</time>
      </trkpt>
      <trkpt lat="59.996693129119" lon="23.400714232319">
        <ele>51.4</ele>
        <time>2014-06-30T18:09:05Z</time>
      </trkpt>
      <trkpt lat="59.996539237435" lon="23.400756812371">
        <ele>51.6</ele>
        <time>2014-06-30T18:09:11Z</time>
      </trkpt>
      <trkpt lat="59.996393895289" lon="23.400721105477">
        <ele>51.6</ele>
        <time>2014-06-30T18:09:16Z</time>
      </trkpt>
      <trkpt lat="59.996371599435" lon="23.400704676953">
        <ele>51.6</ele>
        <time>2014-06-30T18:09:17Z</time>
      </trkpt>
      <trkpt lat="59.996230783515" lon="23.400637537934">
        <ele>51.6</ele>
        <time>2014-06-30T18:09:22Z</time>
      </trkpt>
      <trkpt lat="59.996099858237" lon="23.400618427202">
        <ele>51.6</ele>
        <time>2014-06-30T18:09:27Z</time>
      </trkpt>
      <trkpt lat="59.995958287946" lon="23.400614152433">
        <ele>51.6</ele>
        <time>2014-06-30T18:09:32Z</time>
      </trkpt>
      <trkpt lat="59.995810766506" lon="23.400637621753">
        <ele>51.6</ele>
        <time>2014-06-30T18:09:37Z</time>
      </trkpt>
      <trkpt lat="59.995745136229" lon="23.40063368226">
        <ele>51.6</ele>
        <time>2014-06-30T18:09:40Z</time>
      </trkpt>
      <trkpt lat="59.995659976125" lon="23.400670311163">
        <ele>51.6</ele>
        <time>2014-06-30T18:09:44Z</time>
      </trkpt>
      <trkpt lat="59.995549335045" lon="23.400734516517">
        <ele>51.4</ele>
        <time>2014-06-30T18:09:49Z</time>
      </trkpt>
      <trkpt lat="59.995411201333" lon="23.400862256673">
        <ele>50.6</ele>
        <time>2014-06-30T18:09:55Z</time>
      </trkpt>
      <trkpt lat="59.995260494771" lon="23.400965773138">
        <ele>50</ele>
        <time>2014-06-30T18:10:01Z</time>
      </trkpt>
      <trkpt lat="59.995120181765" lon="23.401013633787">
        <ele>49.8</ele>
        <time>2014-06-30T18:10:06Z</time>
      </trkpt>
      <trkpt lat="59.994977605646" lon="23.400982034024">
        <ele>49.8</ele>
        <time>2014-06-30T18:10:11Z</time>
      </trkpt>
      <trkpt lat="59.994910801903" lon="23.400964683491">
        <ele>49.6</ele>
        <time>2014-06-30T18:10:14Z</time>
      </trkpt>
      <trkpt lat="59.994703685154" lon="23.401122849944">
        <ele>49.6</ele>
        <time>2014-06-30T18:10:21Z</time>
      </trkpt>
      <trkpt lat="59.994598827585" lon="23.401226198771">
        <ele>49.6</ele>
        <time>2014-06-30T18:10:25Z</time>
      </trkpt>
      <trkpt lat="59.99444585791" lon="23.401385790147">
        <ele>49.6</ele>
        <time>2014-06-30T18:10:31Z</time>
      </trkpt>
      <trkpt lat="59.994326583473" lon="23.401487294956">
        <ele>50.2</ele>
        <time>2014-06-30T18:10:36Z</time>
      </trkpt>
      <trkpt lat="59.994193730358" lon="23.401612017628">
        <ele>50.8</ele>
        <time>2014-06-30T18:10:42Z</time>
      </trkpt>
      <trkpt lat="59.994106977693" lon="23.401723245441">
        <ele>51</ele>
        <time>2014-06-30T18:10:46Z</time>
      </trkpt>
      <trkpt lat="59.994037491742" lon="23.401866073017">
        <ele>51.2</ele>
        <time>2014-06-30T18:10:50Z</time>
      </trkpt>
      <trkpt lat="59.993967335239" lon="23.402101772045">
        <ele>51.4</ele>
        <time>2014-06-30T18:10:55Z</time>
      </trkpt>
      <trkpt lat="59.993884438248" lon="23.402405783558">
        <ele>52</ele>
        <time>2014-06-30T18:11:01Z</time>
      </trkpt>
      <trkpt lat="59.993805648388" lon="23.402697892773">
        <ele>52.8</ele>
        <time>2014-06-30T18:11:07Z</time>
      </trkpt>
      <trkpt lat="59.993731971487" lon="23.403010537643">
        <ele>53.4</ele>
        <time>2014-06-30T18:11:13Z</time>
      </trkpt>
      <trkpt lat="59.993682099182" lon="23.403342544702">
        <ele>54.4</ele>
        <time>2014-06-30T18:11:19Z</time>
      </trkpt>
      <trkpt lat="59.993616804181" lon="23.403667008051">
        <ele>55</ele>
        <time>2014-06-30T18:11:25Z</time>
      </trkpt>
      <trkpt lat="59.993573805034" lon="23.403947801701">
        <ele>55.2</ele>
        <time>2014-06-30T18:11:30Z</time>
      </trkpt>
      <trkpt lat="59.993545390393" lon="23.404229098265">
        <ele>55.4</ele>
        <time>2014-06-30T18:11:35Z</time>
      </trkpt>
      <trkpt lat="59.993516556657" lon="23.404514585779">
        <ele>55.6</ele>
        <time>2014-06-30T18:11:40Z</time>
      </trkpt>
      <trkpt lat="59.993475066252" lon="23.404720361424">
        <ele>55.6</ele>
        <time>2014-06-30T18:11:44Z</time>
      </trkpt>
      <trkpt lat="59.993419326617" lon="23.404898057704">
        <ele>55.8</ele>
        <time>2014-06-30T18:11:48Z</time>
      </trkpt>
      <trkpt lat="59.993356797643" lon="23.40498472655">
        <ele>56.4</ele>
        <time>2014-06-30T18:11:52Z</time>
      </trkpt>
      <trkpt lat="59.993280941448" lon="23.405044321859">
        <ele>57</ele>
        <time>2014-06-30T18:11:57Z</time>
      </trkpt>
      <trkpt lat="59.99316258902" lon="23.405089751757">
        <ele>57.4</ele>
        <time>2014-06-30T18:12:04Z</time>
      </trkpt>
      <trkpt lat="59.993027137516" lon="23.405110035955">
        <ele>57.6</ele>
        <time>2014-06-30T18:12:10Z</time>
      </trkpt>
      <trkpt lat="59.992919262463" lon="23.405108443394">
        <ele>57.6</ele>
        <time>2014-06-30T18:12:15Z</time>
      </trkpt>
      <trkpt lat="59.99290107374" lon="23.405105258272">
        <ele>57.6</ele>
        <time>2014-06-30T18:12:16Z</time>
      </trkpt>
      <trkpt lat="59.992763778218" lon="23.405069551378">
        <ele>58.4</ele>
        <time>2014-06-30T18:12:22Z</time>
      </trkpt>
      <trkpt lat="59.992650957844" lon="23.405034850312">
        <ele>58.8</ele>
        <time>2014-06-30T18:12:26Z</time>
      </trkpt>
      <trkpt lat="59.992499999825" lon="23.405062259125">
        <ele>59.2</ele>
        <time>2014-06-30T18:12:32Z</time>
      </trkpt>
      <trkpt lat="59.992405871088" lon="23.405134008189">
        <ele>59.4</ele>
        <time>2014-06-30T18:12:36Z</time>
      </trkpt>
      <trkpt lat="59.992310485066" lon="23.405257054481">
        <ele>60.2</ele>
        <time>2014-06-30T18:12:41Z</time>
      </trkpt>
      <trkpt lat="59.992238736002" lon="23.405467356352">
        <ele>60.8</ele>
        <time>2014-06-30T18:12:46Z</time>
      </trkpt>
      <trkpt lat="59.992169250051" lon="23.405668773409">
        <ele>61.2</ele>
        <time>2014-06-30T18:12:51Z</time>
      </trkpt>
      <trkpt lat="59.992070092174" lon="23.405809254053">
        <ele>61.4</ele>
        <time>2014-06-30T18:12:56Z</time>
      </trkpt>
      <trkpt lat="59.991951069194" lon="23.405885026429">
        <ele>61.6</ele>
        <time>2014-06-30T18:13:01Z</time>
      </trkpt>
      <trkpt lat="59.991891473885" lon="23.405908328111">
        <ele>61.6</ele>
        <time>2014-06-30T18:13:04Z</time>
      </trkpt>
      <trkpt lat="59.991764404281" lon="23.405950153792">
        <ele>61.6</ele>
        <time>2014-06-30T18:13:09Z</time>
      </trkpt>
      <trkpt lat="59.991654517572" lon="23.405989045808">
        <ele>61.8</ele>
        <time>2014-06-30T18:13:13Z</time>
      </trkpt>
      <trkpt lat="59.991573632237" lon="23.406022489589">
        <ele>61.8</ele>
        <time>2014-06-30T18:13:17Z</time>
      </trkpt>
      <trkpt lat="59.991547145433" lon="23.40603330224">
        <ele>61.8</ele>
        <time>2014-06-30T18:13:18Z</time>
      </trkpt>
      <trkpt lat="59.991417225983" lon="23.406098597241">
        <ele>61.8</ele>
        <time>2014-06-30T18:13:23Z</time>
      </trkpt>
      <trkpt lat="59.991391745007" lon="23.406126928063">
        <ele>61.8</ele>
        <time>2014-06-30T18:13:24Z</time>
      </trkpt>
      <trkpt lat="59.991319241572" lon="23.406150816478">
        <ele>61.8</ele>
        <time>2014-06-30T18:13:27Z</time>
      </trkpt>
      <trkpt lat="59.99115512397" lon="23.406202029887">
        <ele>61.8</ele>
        <time>2014-06-30T18:13:33Z</time>
      </trkpt>
      <trkpt lat="59.991043728519" lon="23.406258607712">
        <ele>61.8</ele>
        <time>2014-06-30T18:13:38Z</time>
      </trkpt>
      <trkpt lat="59.991016990258" lon="23.406283166679">
        <ele>61.8</ele>
        <time>2014-06-30T18:13:39Z</time>
      </trkpt>
      <trkpt lat="59.990936021104" lon="23.406348964594">
        <ele>61.8</ele>
        <time>2014-06-30T18:13:43Z</time>
      </trkpt>
      <trkpt lat="59.990847005326" lon="23.40645407362">
        <ele>61.8</ele>
        <time>2014-06-30T18:13:48Z</time>
      </trkpt>
      <trkpt lat="59.990787745293" lon="23.406549878737">
        <ele>61.8</ele>
        <time>2014-06-30T18:13:52Z</time>
      </trkpt>
      <trkpt lat="59.990720187179" lon="23.40689915251">
        <ele>61.8</ele>
        <time>2014-06-30T18:13:59Z</time>
      </trkpt>
      <trkpt lat="59.990694873841" lon="23.407166199844">
        <ele>61.8</ele>
        <time>2014-06-30T18:14:04Z</time>
      </trkpt>
      <trkpt lat="59.990669644322" lon="23.407418075939">
        <ele>61.8</ele>
        <time>2014-06-30T18:14:08Z</time>
      </trkpt>
      <trkpt lat="59.990628070098" lon="23.407643884325">
        <ele>61.8</ele>
        <time>2014-06-30T18:14:12Z</time>
      </trkpt>
      <trkpt lat="59.990599739276" lon="23.407749580084">
        <ele>61.8</ele>
        <time>2014-06-30T18:14:15Z</time>
      </trkpt>
      <trkpt lat="59.990590267729" lon="23.407797356914">
        <ele>62.4</ele>
        <time>2014-06-30T18:14:20Z</time>
      </trkpt>
      <trkpt lat="59.990564702934" lon="23.407815461818">
        <ele>63</ele>
        <time>2014-06-30T18:14:25Z</time>
      </trkpt>
      <trkpt lat="59.990535953017" lon="23.407856616947">
        <ele>63.6</ele>
        <time>2014-06-30T18:14:30Z</time>
      </trkpt>
      <trkpt lat="59.990518267208" lon="23.407912356582">
        <ele>64.6</ele>
        <time>2014-06-30T18:14:35Z</time>
      </trkpt>
      <trkpt lat="59.990509466213" lon="23.407926438174">
        <ele>64.8</ele>
        <time>2014-06-30T18:14:36Z</time>
      </trkpt>
      <trkpt lat="59.990496055173" lon="23.407936412635">
        <ele>65.4</ele>
        <time>2014-06-30T18:14:42Z</time>
      </trkpt>
      <trkpt lat="59.99045104437" lon="23.407962731801">
        <ele>66.4</ele>
        <time>2014-06-30T18:14:52Z</time>
      </trkpt>
      <trkpt lat="59.990358508194" lon="23.407967509484">
        <ele>67</ele>
        <time>2014-06-30T18:14:55Z</time>
      </trkpt>
      <trkpt lat="59.990285753302" lon="23.407976394298">
        <ele>67.2</ele>
        <time>2014-06-30T18:14:58Z</time>
      </trkpt>
      <trkpt lat="59.990134460007" lon="23.408050071199">
        <ele>67.6</ele>
        <time>2014-06-30T18:15:04Z</time>
      </trkpt>
      <trkpt lat="59.990059944916" lon="23.408237406664">
        <ele>67.8</ele>
        <time>2014-06-30T18:15:09Z</time>
      </trkpt>
      <trkpt lat="59.990025495307" lon="23.40848752256">
        <ele>68</ele>
        <time>2014-06-30T18:15:14Z</time>
      </trkpt>
      <trkpt lat="59.990036810872" lon="23.408703188847">
        <ele>68</ele>
        <time>2014-06-30T18:15:18Z</time>
      </trkpt>
      <trkpt lat="59.990052401206" lon="23.408730430022">
        <ele>67.8</ele>
        <time>2014-06-30T18:15:19Z</time>
      </trkpt>
      <trkpt lat="59.990186260149" lon="23.408949784345">
        <ele>67</ele>
        <time>2014-06-30T18:15:25Z</time>
      </trkpt>
      <trkpt lat="59.990240910137" lon="23.40917400017">
        <ele>66.4</ele>
        <time>2014-06-30T18:15:30Z</time>
      </trkpt>
      <trkpt lat="59.990322130748" lon="23.40945898477">
        <ele>65.4</ele>
        <time>2014-06-30T18:15:36Z</time>
      </trkpt>
      <trkpt lat="59.99033453596" lon="23.409510868731">
        <ele>65.2</ele>
        <time>2014-06-30T18:15:37Z</time>
      </trkpt>
      <trkpt lat="59.990371500139" lon="23.409655540325">
        <ele>64.6</ele>
        <time>2014-06-30T18:15:40Z</time>
      </trkpt>
      <trkpt lat="59.990484823427" lon="23.409988469393">
        <ele>63.2</ele>
        <time>2014-06-30T18:15:47Z</time>
      </trkpt>
      <trkpt lat="59.990602840579" lon="23.410179325256">
        <ele>62.8</ele>
        <time>2014-06-30T18:15:52Z</time>
      </trkpt>
      <trkpt lat="59.990778022289" lon="23.410229700475">
        <ele>62.2</ele>
        <time>2014-06-30T18:15:58Z</time>
      </trkpt>
      <trkpt lat="59.990932668344" lon="23.4100767308">
        <ele>60.2</ele>
        <time>2014-06-30T18:16:05Z</time>
      </trkpt>
      <trkpt lat="59.991027467633" lon="23.409931472473">
        <ele>57.8</ele>
        <time>2014-06-30T18:16:10Z</time>
      </trkpt>
      <trkpt lat="59.991118411248" lon="23.409828961836">
        <ele>55.6</ele>
        <time>2014-06-30T18:16:14Z</time>
      </trkpt>
      <trkpt lat="59.99127582333" lon="23.409629807892">
        <ele>50.6</ele>
        <time>2014-06-30T18:16:21Z</time>
      </trkpt>
      <trkpt lat="59.991399372536" lon="23.409557136819">
        <ele>46.8</ele>
        <time>2014-06-30T18:16:26Z</time>
      </trkpt>
      <trkpt lat="59.991545804329" lon="23.409488153782">
        <ele>43.4</ele>
        <time>2014-06-30T18:16:31Z</time>
      </trkpt>
      <trkpt lat="59.991740683504" lon="23.409448591214">
        <ele>39.2</ele>
        <time>2014-06-30T18:16:38Z</time>
      </trkpt>
      <trkpt lat="59.991903795278" lon="23.409463762453">
        <ele>36.4</ele>
        <time>2014-06-30T18:16:44Z</time>
      </trkpt>
      <trkpt lat="59.992027847398" lon="23.409522184296">
        <ele>34.2</ele>
        <time>2014-06-30T18:16:49Z</time>
      </trkpt>
      <trkpt lat="59.992226163152" lon="23.409577756293">
        <ele>31.8</ele>
        <time>2014-06-30T18:16:56Z</time>
      </trkpt>
      <trkpt lat="59.992417941024" lon="23.409670879202">
        <ele>30.2</ele>
        <time>2014-06-30T18:17:03Z</time>
      </trkpt>
      <trkpt lat="59.992564372817" lon="23.409806749801">
        <ele>29.2</ele>
        <time>2014-06-30T18:17:09Z</time>
      </trkpt>
      <trkpt lat="59.992717761587" lon="23.410067845986">
        <ele>28.2</ele>
        <time>2014-06-30T18:17:16Z</time>
      </trkpt>
      <trkpt lat="59.992811806505" lon="23.410358697916">
        <ele>27.4</ele>
        <time>2014-06-30T18:17:22Z</time>
      </trkpt>
      <trkpt lat="59.992865366846" lon="23.410603281758">
        <ele>26.6</ele>
        <time>2014-06-30T18:17:27Z</time>
      </trkpt>
      <trkpt lat="59.99293543953" lon="23.410845267211">
        <ele>26.2</ele>
        <time>2014-06-30T18:17:32Z</time>
      </trkpt>
      <trkpt lat="59.993007607689" lon="23.41114207029">
        <ele>25.8</ele>
        <time>2014-06-30T18:17:38Z</time>
      </trkpt>
      <trkpt lat="59.99305110975" lon="23.411394281661">
        <ele>25.8</ele>
        <time>2014-06-30T18:17:43Z</time>
      </trkpt>
      <trkpt lat="59.9930804464" lon="23.41166677723">
        <ele>25.6</ele>
        <time>2014-06-30T18:17:48Z</time>
      </trkpt>
      <trkpt lat="59.993094192716" lon="23.412004400162">
        <ele>25.6</ele>
        <time>2014-06-30T18:17:54Z</time>
      </trkpt>
      <trkpt lat="59.993090085585" lon="23.412396756901">
        <ele>25.6</ele>
        <time>2014-06-30T18:18:01Z</time>
      </trkpt>
      <trkpt lat="59.993074746708" lon="23.412764387035">
        <ele>25.6</ele>
        <time>2014-06-30T18:18:08Z</time>
      </trkpt>
      <trkpt lat="59.993060832754" lon="23.413094717714">
        <ele>26.6</ele>
        <time>2014-06-30T18:18:14Z</time>
      </trkpt>
      <trkpt lat="59.993042895488" lon="23.413436615415">
        <ele>27.2</ele>
        <time>2014-06-30T18:18:20Z</time>
      </trkpt>
      <trkpt lat="59.993017163055" lon="23.413752026312">
        <ele>28.4</ele>
        <time>2014-06-30T18:18:26Z</time>
      </trkpt>
      <trkpt lat="59.993001321264" lon="23.414025024795">
        <ele>29</ele>
        <time>2014-06-30T18:18:31Z</time>
      </trkpt>
      <trkpt lat="59.992989167509" lon="23.414311434318">
        <ele>29.8</ele>
        <time>2014-06-30T18:18:36Z</time>
      </trkpt>
      <trkpt lat="59.993017749788" lon="23.414661043367">
        <ele>30.8</ele>
        <time>2014-06-30T18:18:42Z</time>
      </trkpt>
      <trkpt lat="59.993061670944" lon="23.414891461798">
        <ele>31.6</ele>
        <time>2014-06-30T18:18:46Z</time>
      </trkpt>
      <trkpt lat="59.993109615412" lon="23.415125652084">
        <ele>32.6</ele>
        <time>2014-06-30T18:18:51Z</time>
      </trkpt>
      <trkpt lat="59.993150435265" lon="23.415332852652">
        <ele>33</ele>
        <time>2014-06-30T18:18:55Z</time>
      </trkpt>
      <trkpt lat="59.993199804656" lon="23.415575843933">
        <ele>34.2</ele>
        <time>2014-06-30T18:19:00Z</time>
      </trkpt>
      <trkpt lat="59.993311451564" lon="23.415905084965">
        <ele>35</ele>
        <time>2014-06-30T18:19:07Z</time>
      </trkpt>
      <trkpt lat="59.993398539505" lon="23.416113878094">
        <ele>35.4</ele>
        <time>2014-06-30T18:19:12Z</time>
      </trkpt>
      <trkpt lat="59.993469198922" lon="23.41631705535">
        <ele>35.6</ele>
        <time>2014-06-30T18:19:17Z</time>
      </trkpt>
      <trkpt lat="59.99348780674" lon="23.4163547739">
        <ele>35.6</ele>
        <time>2014-06-30T18:19:18Z</time>
      </trkpt>
      <trkpt lat="59.99355486194" lon="23.416558873165">
        <ele>35.8</ele>
        <time>2014-06-30T18:19:23Z</time>
      </trkpt>
      <trkpt lat="59.993627197737" lon="23.416792225261">
        <ele>35.8</ele>
        <time>2014-06-30T18:19:28Z</time>
      </trkpt>
      <trkpt lat="59.993675728938" lon="23.416928012041">
        <ele>36</ele>
        <time>2014-06-30T18:19:31Z</time>
      </trkpt>
      <trkpt lat="59.993789974235" lon="23.417185504009">
        <ele>35.6</ele>
        <time>2014-06-30T18:19:37Z</time>
      </trkpt>
      <trkpt lat="59.993942273358" lon="23.417416676811">
        <ele>34.8</ele>
        <time>2014-06-30T18:19:43Z</time>
      </trkpt>
      <trkpt lat="59.994085855305" lon="23.417537376171">
        <ele>34</ele>
        <time>2014-06-30T18:19:47Z</time>
      </trkpt>
      <trkpt lat="59.994247961251" lon="23.417691100217">
        <ele>33.2</ele>
        <time>2014-06-30T18:19:52Z</time>
      </trkpt>
      <trkpt lat="59.994278806643" lon="23.417721358876">
        <ele>33</ele>
        <time>2014-06-30T18:19:53Z</time>
      </trkpt>
      <trkpt lat="59.994384334764" lon="23.41797750974">
        <ele>32.4</ele>
        <time>2014-06-30T18:19:59Z</time>
      </trkpt>
      <trkpt lat="59.994410905387" lon="23.41805462322">
        <ele>32.4</ele>
        <time>2014-06-30T18:20:01Z</time>
      </trkpt>
      <trkpt lat="59.994515092404" lon="23.418430719073">
        <ele>32.2</ele>
        <time>2014-06-30T18:20:08Z</time>
      </trkpt>
      <trkpt lat="59.994602934716" lon="23.418770688937">
        <ele>32</ele>
        <time>2014-06-30T18:20:14Z</time>
      </trkpt>
      <trkpt lat="59.994629002425" lon="23.418893819048">
        <ele>31.8</ele>
        <time>2014-06-30T18:20:16Z</time>
      </trkpt>
      <trkpt lat="59.99467384559" lon="23.419077634115">
        <ele>31.2</ele>
        <time>2014-06-30T18:20:19Z</time>
      </trkpt>
      <trkpt lat="59.9947484445" lon="23.419418190712">
        <ele>30.6</ele>
        <time>2014-06-30T18:20:25Z</time>
      </trkpt>
      <trkpt lat="59.994821199392" lon="23.419732847238">
        <ele>30.2</ele>
        <time>2014-06-30T18:20:31Z</time>
      </trkpt>
      <trkpt lat="59.994888925144" lon="23.420055298931">
        <ele>30</ele>
        <time>2014-06-30T18:20:37Z</time>
      </trkpt>
      <trkpt lat="59.994933181576" lon="23.420315137831">
        <ele>30</ele>
        <time>2014-06-30T18:20:42Z</time>
      </trkpt>
      <trkpt lat="59.995011133246" lon="23.420634991135">
        <ele>29.8</ele>
        <time>2014-06-30T18:20:48Z</time>
      </trkpt>
      <trkpt lat="59.995077350256" lon="23.420977224112">
        <ele>29.8</ele>
        <time>2014-06-30T18:20:55Z</time>
      </trkpt>
      <trkpt lat="59.995119930308" lon="23.421338567821">
        <ele>29.8</ele>
        <time>2014-06-30T18:21:01Z</time>
      </trkpt>
      <trkpt lat="59.995124959448" lon="23.421685494662">
        <ele>29.8</ele>
        <time>2014-06-30T18:21:07Z</time>
      </trkpt>
      <trkpt lat="59.995107525096" lon="23.421968048511">
        <ele>29.8</ele>
        <time>2014-06-30T18:21:12Z</time>
      </trkpt>
      <trkpt lat="59.995084223414" lon="23.422250350903">
        <ele>29.8</ele>
        <time>2014-06-30T18:21:17Z</time>
      </trkpt>
      <trkpt lat="59.995066705243" lon="23.422537850073">
        <ele>29.8</ele>
        <time>2014-06-30T18:21:22Z</time>
      </trkpt>
      <trkpt lat="59.99504516376" lon="23.422823505225">
        <ele>29.8</ele>
        <time>2014-06-30T18:21:27Z</time>
      </trkpt>
      <trkpt lat="59.995043068285" lon="23.423100443201">
        <ele>29.8</ele>
        <time>2014-06-30T18:21:32Z</time>
      </trkpt>
      <trkpt lat="59.995104004698" lon="23.423340500817">
        <ele>29.8</ele>
        <time>2014-06-30T18:21:37Z</time>
      </trkpt>
      <trkpt lat="59.995206431516" lon="23.423669825668">
        <ele>29.8</ele>
        <time>2014-06-30T18:21:44Z</time>
      </trkpt>
      <trkpt lat="59.995269966318" lon="23.42396134815">
        <ele>29.8</ele>
        <time>2014-06-30T18:21:50Z</time>
      </trkpt>
      <trkpt lat="59.995318748976" lon="23.424178690817">
        <ele>29.8</ele>
        <time>2014-06-30T18:21:55Z</time>
      </trkpt>
      <trkpt lat="59.995347415074" lon="23.424200819033">
        <ele>29.8</ele>
        <time>2014-06-30T18:21:56Z</time>
      </trkpt>
      <trkpt lat="59.995493763048" lon="23.424189000554">
        <ele>29.6</ele>
        <time>2014-06-30T18:22:01Z</time>
      </trkpt>
      <trkpt lat="59.99567464445" lon="23.424123873191">
        <ele>28.8</ele>
        <time>2014-06-30T18:22:07Z</time>
      </trkpt>
      <trkpt lat="59.995852843644" lon="23.424022619839">
        <ele>28.2</ele>
        <time>2014-06-30T18:22:13Z</time>
      </trkpt>
      <trkpt lat="59.995962814172" lon="23.423936705364">
        <ele>28</ele>
        <time>2014-06-30T18:22:17Z</time>
      </trkpt>
      <trkpt lat="59.996104216825" lon="23.423894041493">
        <ele>28</ele>
        <time>2014-06-30T18:22:22Z</time>
      </trkpt>
      <trkpt lat="59.996185353617" lon="23.423991020076">
        <ele>27.8</ele>
        <time>2014-06-30T18:22:26Z</time>
      </trkpt>
      <trkpt lat="59.99619935139" lon="23.424029492997">
        <ele>27.8</ele>
        <time>2014-06-30T18:22:27Z</time>
      </trkpt>
      <trkpt lat="59.996268669703" lon="23.424194616427">
        <ele>27.8</ele>
        <time>2014-06-30T18:22:31Z</time>
      </trkpt>
      <trkpt lat="59.996327929736" lon="23.424420089537">
        <ele>27.8</ele>
        <time>2014-06-30T18:22:36Z</time>
      </trkpt>
      <trkpt lat="59.996392386547" lon="23.424771794061">
        <ele>27.8</ele>
        <time>2014-06-30T18:22:43Z</time>
      </trkpt>
      <trkpt lat="59.996444186689" lon="23.425093323745">
        <ele>27.8</ele>
        <time>2014-06-30T18:22:49Z</time>
      </trkpt>
      <trkpt lat="59.996476876099" lon="23.425364981124">
        <ele>27.8</ele>
        <time>2014-06-30T18:22:54Z</time>
      </trkpt>
      <trkpt lat="59.996525994033" lon="23.42569304869">
        <ele>27.8</ele>
        <time>2014-06-30T18:23:00Z</time>
      </trkpt>
      <trkpt lat="59.996541500548" lon="23.425940901473">
        <ele>27.8</ele>
        <time>2014-06-30T18:23:05Z</time>
      </trkpt>
      <trkpt lat="59.996548289887" lon="23.426184311849">
        <ele>28.6</ele>
        <time>2014-06-30T18:23:09Z</time>
      </trkpt>
      <trkpt lat="59.996520713436" lon="23.42628648721">
        <ele>28.8</ele>
        <time>2014-06-30T18:23:11Z</time>
      </trkpt>
      <trkpt lat="59.996381825353" lon="23.426492849588">
        <ele>29.4</ele>
        <time>2014-06-30T18:23:17Z</time>
      </trkpt>
      <trkpt lat="59.996221814882" lon="23.426699547242">
        <ele>30.4</ele>
        <time>2014-06-30T18:23:23Z</time>
      </trkpt>
      <trkpt lat="59.996087285387" lon="23.426868107251">
        <ele>30.6</ele>
        <time>2014-06-30T18:23:29Z</time>
      </trkpt>
      <trkpt lat="59.995970776977" lon="23.427044797703">
        <ele>30.2</ele>
        <time>2014-06-30T18:23:34Z</time>
      </trkpt>
      <trkpt lat="59.995827530306" lon="23.427242945819">
        <ele>29</ele>
        <time>2014-06-30T18:23:40Z</time>
      </trkpt>
      <trkpt lat="59.995695263924" lon="23.427412092561">
        <ele>27.4</ele>
        <time>2014-06-30T18:23:46Z</time>
      </trkpt>
      <trkpt lat="59.995561740257" lon="23.427568163539">
        <ele>26</ele>
        <time>2014-06-30T18:23:51Z</time>
      </trkpt>
      <trkpt lat="59.995432491359" lon="23.427681738284">
        <ele>25</ele>
        <time>2014-06-30T18:23:56Z</time>
      </trkpt>
      <trkpt lat="59.995285137557" lon="23.427661454086">
        <ele>23.8</ele>
        <time>2014-06-30T18:24:01Z</time>
      </trkpt>
      <trkpt lat="59.995091934762" lon="23.427526840772">
        <ele>22.6</ele>
        <time>2014-06-30T18:24:08Z</time>
      </trkpt>
      <trkpt lat="59.994932175748" lon="23.427376218029">
        <ele>22.2</ele>
        <time>2014-06-30T18:24:14Z</time>
      </trkpt>
      <trkpt lat="59.994796556606" lon="23.427270270813">
        <ele>22</ele>
        <time>2014-06-30T18:24:19Z</time>
      </trkpt>
      <trkpt lat="59.994641826732" lon="23.427111014713">
        <ele>21.8</ele>
        <time>2014-06-30T18:24:25Z</time>
      </trkpt>
      <trkpt lat="59.994512996929" lon="23.426967600404">
        <ele>21.4</ele>
        <time>2014-06-30T18:24:30Z</time>
      </trkpt>
      <trkpt lat="59.99439137556" lon="23.426774397609">
        <ele>20.6</ele>
        <time>2014-06-30T18:24:36Z</time>
      </trkpt>
      <trkpt lat="59.994289032561" lon="23.426593767664">
        <ele>20.2</ele>
        <time>2014-06-30T18:24:41Z</time>
      </trkpt>
      <trkpt lat="59.994228096148" lon="23.42647005082">
        <ele>20</ele>
        <time>2014-06-30T18:24:45Z</time>
      </trkpt>
      <trkpt lat="59.994128519176" lon="23.426281960984">
        <ele>19.8</ele>
        <time>2014-06-30T18:24:50Z</time>
      </trkpt>
      <trkpt lat="59.994094823938" lon="23.426254887447">
        <ele>19.8</ele>
        <time>2014-06-30T18:24:52Z</time>
      </trkpt>
      <trkpt lat="59.99410639096" lon="23.426255138904">
        <ele>19.8</ele>
        <time>2014-06-30T18:24:55Z</time>
      </trkpt>
      <trkpt lat="59.99427235258" lon="23.426435433573">
        <ele>19.6</ele>
        <time>2014-06-30T18:25:01Z</time>
      </trkpt>
      <trkpt lat="59.994410318654" lon="23.426668953307">
        <ele>19.6</ele>
        <time>2014-06-30T18:25:08Z</time>
      </trkpt>
      <trkpt lat="59.99452297139" lon="23.426888726725">
        <ele>19.6</ele>
        <time>2014-06-30T18:25:14Z</time>
      </trkpt>
      <trkpt lat="59.994638306334" lon="23.427038008364">
        <ele>19.6</ele>
        <time>2014-06-30T18:25:19Z</time>
      </trkpt>
      <trkpt lat="59.994769734526" lon="23.427136663327">
        <ele>19.6</ele>
        <time>2014-06-30T18:25:24Z</time>
      </trkpt>
      <trkpt lat="59.994903090555" lon="23.427242862">
        <ele>18.8</ele>
        <time>2014-06-30T18:25:29Z</time>
      </trkpt>
      <trkpt lat="59.994986071365" lon="23.427130879816">
        <ele>18.4</ele>
        <time>2014-06-30T18:25:34Z</time>
      </trkpt>
      <trkpt lat="59.995012306712" lon="23.427089892325">
        <ele>18.2</ele>
        <time>2014-06-30T18:25:36Z</time>
      </trkpt>
    </trkseg>
  </trk>
</gpx>